<?xml version="1.0" encoding="UTF-8" standalone="no" ?>
<gpx xmlns="http://www.topografix.com/GPX/1/1" xmlns:xsi="http://www.w3.org/2001/XMLSchema-instance" xsi:schemaLocation="http://www.topografix.com/GPX/1/1 http://www.topografix.com/GPX/1/1/gpx.xsd" version="1.1" creator="VisuGPX - https://www.visugpx.com">
  <metadata>
    <name>Gémenos en passant par le col de l'Espigoullier et le col de Bertagne</name>
    <desc><![CDATA[Départ du centre de Gémenos, retour par le Parc de St Pons]]></desc>
  </metadata>
  <trk>
    <name><![CDATA[13 circuit menant au Garlaban3]]></name>
    <desc><![CDATA[À partir de la Piste Active]]></desc>
    <trkseg>
      <trkpt lat="43.29722" lon="5.62937">
        <ele>143</ele>
        <time>2017-03-28T07:48:54Z</time>
      </trkpt>
      <trkpt lat="43.29736" lon="5.62961">
        <ele>151.296875</ele>
        <time>2017-03-28T07:49:13Z</time>
      </trkpt>
      <trkpt lat="43.2975" lon="5.62966">
        <ele>144.199219</ele>
        <time>2017-03-28T07:49:18Z</time>
      </trkpt>
      <trkpt lat="43.29742" lon="5.62974">
        <ele>143.398438</ele>
        <time>2017-03-28T07:49:26Z</time>
      </trkpt>
      <trkpt lat="43.29736" lon="5.62984">
        <ele>150.097656</ele>
        <time>2017-03-28T07:54:56Z</time>
      </trkpt>
      <trkpt lat="43.29728" lon="5.62991">
        <ele>151.398438</ele>
        <time>2017-03-28T07:55:08Z</time>
      </trkpt>
      <trkpt lat="43.29722" lon="5.63">
        <ele>154.398438</ele>
        <time>2017-03-28T07:55:20Z</time>
      </trkpt>
      <trkpt lat="43.29719" lon="5.63013">
        <ele>157.5</ele>
        <time>2017-03-28T07:55:35Z</time>
      </trkpt>
      <trkpt lat="43.29719" lon="5.63025">
        <ele>156.296875</ele>
        <time>2017-03-28T07:55:45Z</time>
      </trkpt>
      <trkpt lat="43.2972" lon="5.63039">
        <ele>154.898438</ele>
        <time>2017-03-28T07:55:54Z</time>
      </trkpt>
      <trkpt lat="43.29721" lon="5.63051">
        <ele>148.5</ele>
        <time>2017-03-28T07:56:04Z</time>
      </trkpt>
      <trkpt lat="43.29721" lon="5.63072">
        <ele>148.398438</ele>
        <time>2017-03-28T07:56:46Z</time>
      </trkpt>
      <trkpt lat="43.29724" lon="5.63083">
        <ele>149</ele>
        <time>2017-03-28T07:56:56Z</time>
      </trkpt>
      <trkpt lat="43.29726" lon="5.63096">
        <ele>149.898438</ele>
        <time>2017-03-28T07:57:04Z</time>
      </trkpt>
      <trkpt lat="43.29727" lon="5.63109">
        <ele>154.5</ele>
        <time>2017-03-28T07:57:13Z</time>
      </trkpt>
      <trkpt lat="43.29733" lon="5.6312">
        <ele>156.097656</ele>
        <time>2017-03-28T07:57:24Z</time>
      </trkpt>
      <trkpt lat="43.29738" lon="5.6313">
        <ele>157.898438</ele>
        <time>2017-03-28T07:57:32Z</time>
      </trkpt>
      <trkpt lat="43.29742" lon="5.63141">
        <ele>156.796875</ele>
        <time>2017-03-28T07:57:40Z</time>
      </trkpt>
      <trkpt lat="43.29746" lon="5.63153">
        <ele>155.796875</ele>
        <time>2017-03-28T07:57:47Z</time>
      </trkpt>
      <trkpt lat="43.29749" lon="5.63165">
        <ele>159.5</ele>
        <time>2017-03-28T07:57:54Z</time>
      </trkpt>
      <trkpt lat="43.2975" lon="5.63177">
        <ele>163.398438</ele>
        <time>2017-03-28T07:58:04Z</time>
      </trkpt>
      <trkpt lat="43.29751" lon="5.6319">
        <ele>164.398438</ele>
        <time>2017-03-28T07:58:14Z</time>
      </trkpt>
      <trkpt lat="43.2975" lon="5.63202">
        <ele>164.898438</ele>
        <time>2017-03-28T07:58:25Z</time>
      </trkpt>
      <trkpt lat="43.29747" lon="5.63215">
        <ele>162.597656</ele>
        <time>2017-03-28T07:58:36Z</time>
      </trkpt>
      <trkpt lat="43.29742" lon="5.63226">
        <ele>165</ele>
        <time>2017-03-28T07:58:45Z</time>
      </trkpt>
      <trkpt lat="43.29736" lon="5.63236">
        <ele>163.097656</ele>
        <time>2017-03-28T07:58:54Z</time>
      </trkpt>
      <trkpt lat="43.29731" lon="5.63246">
        <ele>158.699219</ele>
        <time>2017-03-28T07:59:02Z</time>
      </trkpt>
      <trkpt lat="43.29725" lon="5.63257">
        <ele>158.199219</ele>
        <time>2017-03-28T07:59:10Z</time>
      </trkpt>
      <trkpt lat="43.29718" lon="5.63267">
        <ele>158.097656</ele>
        <time>2017-03-28T07:59:19Z</time>
      </trkpt>
      <trkpt lat="43.29709" lon="5.63273">
        <ele>157.5</ele>
        <time>2017-03-28T07:59:26Z</time>
      </trkpt>
      <trkpt lat="43.29667" lon="5.63306">
        <ele>149.699219</ele>
        <time>2017-03-28T08:00:06Z</time>
      </trkpt>
      <trkpt lat="43.2966" lon="5.63317">
        <ele>146.898438</ele>
        <time>2017-03-28T08:00:15Z</time>
      </trkpt>
      <trkpt lat="43.29655" lon="5.63328">
        <ele>145.898438</ele>
        <time>2017-03-28T08:00:24Z</time>
      </trkpt>
      <trkpt lat="43.2965" lon="5.6334">
        <ele>146.398438</ele>
        <time>2017-03-28T08:00:33Z</time>
      </trkpt>
      <trkpt lat="43.29648" lon="5.63353">
        <ele>146.398438</ele>
        <time>2017-03-28T08:00:42Z</time>
      </trkpt>
      <trkpt lat="43.2964" lon="5.6339">
        <ele>148.597656</ele>
        <time>2017-03-28T08:01:05Z</time>
      </trkpt>
      <trkpt lat="43.29639" lon="5.63403">
        <ele>150.398438</ele>
        <time>2017-03-28T08:01:15Z</time>
      </trkpt>
      <trkpt lat="43.29638" lon="5.63416">
        <ele>151.097656</ele>
        <time>2017-03-28T08:01:24Z</time>
      </trkpt>
      <trkpt lat="43.29638" lon="5.63429">
        <ele>154.699219</ele>
        <time>2017-03-28T08:01:33Z</time>
      </trkpt>
      <trkpt lat="43.29638" lon="5.63442">
        <ele>155.398438</ele>
        <time>2017-03-28T08:01:43Z</time>
      </trkpt>
      <trkpt lat="43.29637" lon="5.63455">
        <ele>152.5</ele>
        <time>2017-03-28T08:01:52Z</time>
      </trkpt>
      <trkpt lat="43.29635" lon="5.63467">
        <ele>152.699219</ele>
        <time>2017-03-28T08:02:03Z</time>
      </trkpt>
      <trkpt lat="43.29631" lon="5.63479">
        <ele>156.398438</ele>
        <time>2017-03-28T08:02:13Z</time>
      </trkpt>
      <trkpt lat="43.29624" lon="5.63488">
        <ele>162.199219</ele>
        <time>2017-03-28T08:02:21Z</time>
      </trkpt>
      <trkpt lat="43.29618" lon="5.63498">
        <ele>169.296875</ele>
        <time>2017-03-28T08:02:30Z</time>
      </trkpt>
      <trkpt lat="43.29614" lon="5.63509">
        <ele>169.398438</ele>
        <time>2017-03-28T08:02:39Z</time>
      </trkpt>
      <trkpt lat="43.29607" lon="5.63518">
        <ele>169.097656</ele>
        <time>2017-03-28T08:02:49Z</time>
      </trkpt>
      <trkpt lat="43.29598" lon="5.63524">
        <ele>171.296875</ele>
        <time>2017-03-28T08:02:58Z</time>
      </trkpt>
      <trkpt lat="43.29589" lon="5.63529">
        <ele>172.398438</ele>
        <time>2017-03-28T08:03:05Z</time>
      </trkpt>
      <trkpt lat="43.29581" lon="5.63536">
        <ele>178.296875</ele>
        <time>2017-03-28T08:03:15Z</time>
      </trkpt>
      <trkpt lat="43.29574" lon="5.63545">
        <ele>187.796875</ele>
        <time>2017-03-28T08:03:25Z</time>
      </trkpt>
      <trkpt lat="43.29566" lon="5.63553">
        <ele>197.398438</ele>
        <time>2017-03-28T08:03:35Z</time>
      </trkpt>
      <trkpt lat="43.29559" lon="5.63559">
        <ele>198</ele>
        <time>2017-03-28T08:03:43Z</time>
      </trkpt>
      <trkpt lat="43.29551" lon="5.63567">
        <ele>184.699219</ele>
        <time>2017-03-28T08:03:56Z</time>
      </trkpt>
      <trkpt lat="43.29541" lon="5.63572">
        <ele>176.898438</ele>
        <time>2017-03-28T08:04:04Z</time>
      </trkpt>
      <trkpt lat="43.29524" lon="5.63582">
        <ele>168.097656</ele>
        <time>2017-03-28T08:04:16Z</time>
      </trkpt>
      <trkpt lat="43.29516" lon="5.63587">
        <ele>166</ele>
        <time>2017-03-28T08:04:25Z</time>
      </trkpt>
      <trkpt lat="43.2951" lon="5.63577">
        <ele>173.597656</ele>
        <time>2017-03-28T08:04:35Z</time>
      </trkpt>
      <trkpt lat="43.29503" lon="5.63569">
        <ele>179.597656</ele>
        <time>2017-03-28T08:04:43Z</time>
      </trkpt>
      <trkpt lat="43.29496" lon="5.63561">
        <ele>176.199219</ele>
        <time>2017-03-28T08:04:54Z</time>
      </trkpt>
      <trkpt lat="43.29486" lon="5.63559">
        <ele>176.898438</ele>
        <time>2017-03-28T08:05:18Z</time>
      </trkpt>
      <trkpt lat="43.29476" lon="5.63557">
        <ele>173.558594</ele>
        <time>2017-03-28T08:05:29Z</time>
      </trkpt>
      <trkpt lat="43.29468" lon="5.63553">
        <ele>185.398438</ele>
        <time>2017-03-28T08:06:12Z</time>
      </trkpt>
      <trkpt lat="43.29446" lon="5.6355">
        <ele>194.5</ele>
        <time>2017-03-28T08:06:57Z</time>
      </trkpt>
      <trkpt lat="43.29444" lon="5.63562">
        <ele>189.796875</ele>
        <time>2017-03-28T08:07:26Z</time>
      </trkpt>
      <trkpt lat="43.29444" lon="5.63575">
        <ele>182.5</ele>
        <time>2017-03-28T08:07:36Z</time>
      </trkpt>
      <trkpt lat="43.29444" lon="5.63588">
        <ele>176.699219</ele>
        <time>2017-03-28T08:07:47Z</time>
      </trkpt>
      <trkpt lat="43.29445" lon="5.636">
        <ele>181.5</ele>
        <time>2017-03-28T08:07:59Z</time>
      </trkpt>
      <trkpt lat="43.29438" lon="5.63609">
        <ele>184.398438</ele>
        <time>2017-03-28T08:08:10Z</time>
      </trkpt>
      <trkpt lat="43.29432" lon="5.63619">
        <ele>186</ele>
        <time>2017-03-28T08:08:24Z</time>
      </trkpt>
      <trkpt lat="43.29427" lon="5.6363">
        <ele>187.296875</ele>
        <time>2017-03-28T08:08:39Z</time>
      </trkpt>
      <trkpt lat="43.2942" lon="5.63639">
        <ele>190.816406</ele>
        <time>2017-03-28T08:08:49Z</time>
      </trkpt>
      <trkpt lat="43.29412" lon="5.63646">
        <ele>198.296875</ele>
        <time>2017-03-28T08:09:05Z</time>
      </trkpt>
      <trkpt lat="43.29403" lon="5.63651">
        <ele>200</ele>
        <time>2017-03-28T08:09:17Z</time>
      </trkpt>
      <trkpt lat="43.29395" lon="5.6366">
        <ele>193.597656</ele>
        <time>2017-03-28T08:09:31Z</time>
      </trkpt>
      <trkpt lat="43.29389" lon="5.6367">
        <ele>193</ele>
        <time>2017-03-28T08:09:47Z</time>
      </trkpt>
      <trkpt lat="43.29383" lon="5.63679">
        <ele>193.296875</ele>
        <time>2017-03-28T08:09:58Z</time>
      </trkpt>
      <trkpt lat="43.29363" lon="5.63707">
        <ele>189.296875</ele>
        <time>2017-03-28T08:10:23Z</time>
      </trkpt>
      <trkpt lat="43.29358" lon="5.63719">
        <ele>186.898438</ele>
        <time>2017-03-28T08:10:32Z</time>
      </trkpt>
      <trkpt lat="43.29356" lon="5.63731">
        <ele>183.097656</ele>
        <time>2017-03-28T08:10:42Z</time>
      </trkpt>
      <trkpt lat="43.29351" lon="5.63743">
        <ele>178.296875</ele>
        <time>2017-03-28T08:10:51Z</time>
      </trkpt>
      <trkpt lat="43.29345" lon="5.63754">
        <ele>173.597656</ele>
        <time>2017-03-28T08:10:58Z</time>
      </trkpt>
      <trkpt lat="43.29342" lon="5.63766">
        <ele>172</ele>
        <time>2017-03-28T08:11:06Z</time>
      </trkpt>
      <trkpt lat="43.29341" lon="5.63778">
        <ele>171</ele>
        <time>2017-03-28T08:11:15Z</time>
      </trkpt>
      <trkpt lat="43.29336" lon="5.63789">
        <ele>175.597656</ele>
        <time>2017-03-28T08:11:23Z</time>
      </trkpt>
      <trkpt lat="43.2933" lon="5.63799">
        <ele>187.597656</ele>
        <time>2017-03-28T08:11:32Z</time>
      </trkpt>
      <trkpt lat="43.29327" lon="5.63813">
        <ele>190.398438</ele>
        <time>2017-03-28T08:11:46Z</time>
      </trkpt>
      <trkpt lat="43.29321" lon="5.63824">
        <ele>190.5</ele>
        <time>2017-03-28T08:11:55Z</time>
      </trkpt>
      <trkpt lat="43.29316" lon="5.63835">
        <ele>190.898438</ele>
        <time>2017-03-28T08:12:04Z</time>
      </trkpt>
      <trkpt lat="43.2931" lon="5.63844">
        <ele>186.5</ele>
        <time>2017-03-28T08:12:13Z</time>
      </trkpt>
      <trkpt lat="43.29295" lon="5.63862">
        <ele>178</ele>
        <time>2017-03-28T08:12:30Z</time>
      </trkpt>
      <trkpt lat="43.29291" lon="5.63873">
        <ele>177.097656</ele>
        <time>2017-03-28T08:12:39Z</time>
      </trkpt>
      <trkpt lat="43.29285" lon="5.63885">
        <ele>177.398438</ele>
        <time>2017-03-28T08:12:48Z</time>
      </trkpt>
      <trkpt lat="43.29279" lon="5.63893">
        <ele>180.097656</ele>
        <time>2017-03-28T08:12:57Z</time>
      </trkpt>
      <trkpt lat="43.29265" lon="5.63911">
        <ele>183.699219</ele>
        <time>2017-03-28T08:13:17Z</time>
      </trkpt>
      <trkpt lat="43.29257" lon="5.63918">
        <ele>186</ele>
        <time>2017-03-28T08:13:25Z</time>
      </trkpt>
      <trkpt lat="43.29248" lon="5.63923">
        <ele>185.5</ele>
        <time>2017-03-28T08:13:32Z</time>
      </trkpt>
      <trkpt lat="43.29231" lon="5.63931">
        <ele>194.199219</ele>
        <time>2017-03-28T08:13:52Z</time>
      </trkpt>
      <trkpt lat="43.29228" lon="5.63942">
        <ele>191</ele>
        <time>2017-03-28T08:14:25Z</time>
      </trkpt>
      <trkpt lat="43.29236" lon="5.63947">
        <ele>191.398438</ele>
        <time>2017-03-28T08:14:39Z</time>
      </trkpt>
      <trkpt lat="43.29244" lon="5.63952">
        <ele>186.097656</ele>
        <time>2017-03-28T08:14:49Z</time>
      </trkpt>
      <trkpt lat="43.29252" lon="5.6396">
        <ele>178.296875</ele>
        <time>2017-03-28T08:15:00Z</time>
      </trkpt>
      <trkpt lat="43.2926" lon="5.63965">
        <ele>175.597656</ele>
        <time>2017-03-28T08:15:07Z</time>
      </trkpt>
      <trkpt lat="43.29267" lon="5.63976">
        <ele>180.597656</ele>
        <time>2017-03-28T08:15:20Z</time>
      </trkpt>
      <trkpt lat="43.29271" lon="5.63988">
        <ele>177.898438</ele>
        <time>2017-03-28T08:15:32Z</time>
      </trkpt>
      <trkpt lat="43.29271" lon="5.64002">
        <ele>172.296875</ele>
        <time>2017-03-28T08:15:40Z</time>
      </trkpt>
      <trkpt lat="43.29273" lon="5.64015">
        <ele>169.5</ele>
        <time>2017-03-28T08:15:49Z</time>
      </trkpt>
      <trkpt lat="43.29273" lon="5.64028">
        <ele>169.398438</ele>
        <time>2017-03-28T08:15:58Z</time>
      </trkpt>
      <trkpt lat="43.29271" lon="5.64041">
        <ele>167.625</ele>
        <time>2017-03-28T08:16:07Z</time>
      </trkpt>
      <trkpt lat="43.29276" lon="5.64051">
        <ele>165.699219</ele>
        <time>2017-03-28T08:16:24Z</time>
      </trkpt>
      <trkpt lat="43.29277" lon="5.64064">
        <ele>165.796875</ele>
        <time>2017-03-28T08:16:36Z</time>
      </trkpt>
      <trkpt lat="43.29274" lon="5.64077">
        <ele>165.699219</ele>
        <time>2017-03-28T08:16:48Z</time>
      </trkpt>
      <trkpt lat="43.29271" lon="5.64091">
        <ele>164.5</ele>
        <time>2017-03-28T08:16:57Z</time>
      </trkpt>
      <trkpt lat="43.29271" lon="5.64104">
        <ele>166.296875</ele>
        <time>2017-03-28T08:17:07Z</time>
      </trkpt>
      <trkpt lat="43.2927" lon="5.64117">
        <ele>164.699219</ele>
        <time>2017-03-28T08:17:15Z</time>
      </trkpt>
      <trkpt lat="43.29268" lon="5.6413">
        <ele>166</ele>
        <time>2017-03-28T08:17:23Z</time>
      </trkpt>
      <trkpt lat="43.29266" lon="5.64143">
        <ele>164.296875</ele>
        <time>2017-03-28T08:17:31Z</time>
      </trkpt>
      <trkpt lat="43.29263" lon="5.64155">
        <ele>160.296875</ele>
        <time>2017-03-28T08:17:39Z</time>
      </trkpt>
      <trkpt lat="43.29262" lon="5.64168">
        <ele>161.296875</ele>
        <time>2017-03-28T08:17:47Z</time>
      </trkpt>
      <trkpt lat="43.29261" lon="5.64181">
        <ele>168</ele>
        <time>2017-03-28T08:17:58Z</time>
      </trkpt>
      <trkpt lat="43.29253" lon="5.64187">
        <ele>171.199219</ele>
        <time>2017-03-28T08:18:24Z</time>
      </trkpt>
      <trkpt lat="43.29254" lon="5.642">
        <ele>170</ele>
        <time>2017-03-28T08:18:42Z</time>
      </trkpt>
      <trkpt lat="43.29255" lon="5.64212">
        <ele>170</ele>
        <time>2017-03-28T08:18:52Z</time>
      </trkpt>
      <trkpt lat="43.29257" lon="5.64225">
        <ele>171.796875</ele>
        <time>2017-03-28T08:19:01Z</time>
      </trkpt>
      <trkpt lat="43.29257" lon="5.64239">
        <ele>172.398438</ele>
        <time>2017-03-28T08:19:14Z</time>
      </trkpt>
      <trkpt lat="43.29257" lon="5.64253">
        <ele>172.296875</ele>
        <time>2017-03-28T08:19:22Z</time>
      </trkpt>
      <trkpt lat="43.29261" lon="5.64265">
        <ele>174.097656</ele>
        <time>2017-03-28T08:19:30Z</time>
      </trkpt>
      <trkpt lat="43.29261" lon="5.64279">
        <ele>175.796875</ele>
        <time>2017-03-28T08:19:38Z</time>
      </trkpt>
      <trkpt lat="43.29257" lon="5.6429">
        <ele>174.296875</ele>
        <time>2017-03-28T08:19:45Z</time>
      </trkpt>
      <trkpt lat="43.29255" lon="5.64303">
        <ele>174</ele>
        <time>2017-03-28T08:19:57Z</time>
      </trkpt>
      <trkpt lat="43.29254" lon="5.64315">
        <ele>172.398438</ele>
        <time>2017-03-28T08:20:09Z</time>
      </trkpt>
      <trkpt lat="43.29249" lon="5.64331">
        <ele>172.398438</ele>
        <time>2017-03-28T08:20:25Z</time>
      </trkpt>
      <trkpt lat="43.29241" lon="5.64369">
        <ele>173.5</ele>
        <time>2017-03-28T08:20:52Z</time>
      </trkpt>
      <trkpt lat="43.29243" lon="5.64382">
        <ele>176.699219</ele>
        <time>2017-03-28T08:21:00Z</time>
      </trkpt>
      <trkpt lat="43.29245" lon="5.64395">
        <ele>180.097656</ele>
        <time>2017-03-28T08:21:08Z</time>
      </trkpt>
      <trkpt lat="43.29243" lon="5.64408">
        <ele>182.898438</ele>
        <time>2017-03-28T08:21:16Z</time>
      </trkpt>
      <trkpt lat="43.2924" lon="5.64421">
        <ele>181.597656</ele>
        <time>2017-03-28T08:21:25Z</time>
      </trkpt>
      <trkpt lat="43.29233" lon="5.64445">
        <ele>176.296875</ele>
        <time>2017-03-28T08:21:39Z</time>
      </trkpt>
      <trkpt lat="43.29228" lon="5.64458">
        <ele>175.097656</ele>
        <time>2017-03-28T08:21:47Z</time>
      </trkpt>
      <trkpt lat="43.29226" lon="5.6447">
        <ele>173.699219</ele>
        <time>2017-03-28T08:21:55Z</time>
      </trkpt>
      <trkpt lat="43.29221" lon="5.64481">
        <ele>174.597656</ele>
        <time>2017-03-28T08:22:03Z</time>
      </trkpt>
      <trkpt lat="43.29216" lon="5.64492">
        <ele>178.398438</ele>
        <time>2017-03-28T08:22:11Z</time>
      </trkpt>
      <trkpt lat="43.29211" lon="5.64502">
        <ele>185.796875</ele>
        <time>2017-03-28T08:22:19Z</time>
      </trkpt>
      <trkpt lat="43.29208" lon="5.64515">
        <ele>190.699219</ele>
        <time>2017-03-28T08:22:28Z</time>
      </trkpt>
      <trkpt lat="43.29212" lon="5.64527">
        <ele>190.5</ele>
        <time>2017-03-28T08:22:44Z</time>
      </trkpt>
      <trkpt lat="43.29219" lon="5.64535">
        <ele>191</ele>
        <time>2017-03-28T08:22:54Z</time>
      </trkpt>
      <trkpt lat="43.29227" lon="5.64543">
        <ele>187.898438</ele>
        <time>2017-03-28T08:23:03Z</time>
      </trkpt>
      <trkpt lat="43.29236" lon="5.64541">
        <ele>159.796875</ele>
        <time>2017-03-28T08:23:19Z</time>
      </trkpt>
      <trkpt lat="43.29249" lon="5.64553">
        <ele>169.597656</ele>
        <time>2017-03-28T08:27:38Z</time>
      </trkpt>
      <trkpt lat="43.29256" lon="5.64561">
        <ele>184.796875</ele>
        <time>2017-03-28T08:27:54Z</time>
      </trkpt>
      <trkpt lat="43.29265" lon="5.6456">
        <ele>189.699219</ele>
        <time>2017-03-28T08:28:12Z</time>
      </trkpt>
      <trkpt lat="43.29274" lon="5.64558">
        <ele>211.199219</ele>
        <time>2017-03-28T08:28:26Z</time>
      </trkpt>
      <trkpt lat="43.29282" lon="5.64552">
        <ele>209.898438</ele>
        <time>2017-03-28T08:28:56Z</time>
      </trkpt>
      <trkpt lat="43.29291" lon="5.64556">
        <ele>211.796875</ele>
        <time>2017-03-28T08:29:04Z</time>
      </trkpt>
      <trkpt lat="43.293" lon="5.64563">
        <ele>215.097656</ele>
        <time>2017-03-28T08:29:13Z</time>
      </trkpt>
      <trkpt lat="43.29308" lon="5.6457">
        <ele>220.699219</ele>
        <time>2017-03-28T08:29:23Z</time>
      </trkpt>
      <trkpt lat="43.29317" lon="5.64573">
        <ele>227.097656</ele>
        <time>2017-03-28T08:29:32Z</time>
      </trkpt>
      <trkpt lat="43.29328" lon="5.64577">
        <ele>228.199219</ele>
        <time>2017-03-28T08:29:46Z</time>
      </trkpt>
      <trkpt lat="43.29337" lon="5.64583">
        <ele>226.597656</ele>
        <time>2017-03-28T08:29:55Z</time>
      </trkpt>
      <trkpt lat="43.29344" lon="5.64591">
        <ele>224.5</ele>
        <time>2017-03-28T08:30:03Z</time>
      </trkpt>
      <trkpt lat="43.29351" lon="5.64599">
        <ele>224.398438</ele>
        <time>2017-03-28T08:30:11Z</time>
      </trkpt>
      <trkpt lat="43.29358" lon="5.64608">
        <ele>224.398438</ele>
        <time>2017-03-28T08:30:20Z</time>
      </trkpt>
      <trkpt lat="43.29364" lon="5.64619">
        <ele>221.796875</ele>
        <time>2017-03-28T08:30:29Z</time>
      </trkpt>
      <trkpt lat="43.29371" lon="5.64627">
        <ele>216.699219</ele>
        <time>2017-03-28T08:30:38Z</time>
      </trkpt>
      <trkpt lat="43.29378" lon="5.64636">
        <ele>216.796875</ele>
        <time>2017-03-28T08:30:47Z</time>
      </trkpt>
      <trkpt lat="43.29384" lon="5.64649">
        <ele>215.097656</ele>
        <time>2017-03-28T08:31:02Z</time>
      </trkpt>
      <trkpt lat="43.29392" lon="5.64654">
        <ele>213.699219</ele>
        <time>2017-03-28T08:31:19Z</time>
      </trkpt>
      <trkpt lat="43.29403" lon="5.64664">
        <ele>214.5</ele>
        <time>2017-03-28T08:31:40Z</time>
      </trkpt>
      <trkpt lat="43.2941" lon="5.64672">
        <ele>217.597656</ele>
        <time>2017-03-28T08:31:56Z</time>
      </trkpt>
      <trkpt lat="43.29417" lon="5.64681">
        <ele>218.597656</ele>
        <time>2017-03-28T08:32:07Z</time>
      </trkpt>
      <trkpt lat="43.29424" lon="5.6469">
        <ele>216.597656</ele>
        <time>2017-03-28T08:32:20Z</time>
      </trkpt>
      <trkpt lat="43.29431" lon="5.64698">
        <ele>215.796875</ele>
        <time>2017-03-28T08:32:33Z</time>
      </trkpt>
      <trkpt lat="43.29441" lon="5.647">
        <ele>221</ele>
        <time>2017-03-28T08:32:51Z</time>
      </trkpt>
      <trkpt lat="43.2947" lon="5.64705">
        <ele>231.699219</ele>
        <time>2017-03-28T08:33:42Z</time>
      </trkpt>
      <trkpt lat="43.29482" lon="5.64705">
        <ele>231.898438</ele>
        <time>2017-03-28T08:33:59Z</time>
      </trkpt>
      <trkpt lat="43.29491" lon="5.64709">
        <ele>234.097656</ele>
        <time>2017-03-28T08:34:19Z</time>
      </trkpt>
      <trkpt lat="43.295" lon="5.64709">
        <ele>240.597656</ele>
        <time>2017-03-28T08:34:31Z</time>
      </trkpt>
      <trkpt lat="43.29509" lon="5.64707">
        <ele>244.097656</ele>
        <time>2017-03-28T08:34:43Z</time>
      </trkpt>
      <trkpt lat="43.29518" lon="5.64713">
        <ele>242.898438</ele>
        <time>2017-03-28T08:34:59Z</time>
      </trkpt>
      <trkpt lat="43.29535" lon="5.64723">
        <ele>246.597656</ele>
        <time>2017-03-28T08:35:35Z</time>
      </trkpt>
      <trkpt lat="43.29547" lon="5.64722">
        <ele>248.097656</ele>
        <time>2017-03-28T08:35:58Z</time>
      </trkpt>
      <trkpt lat="43.29556" lon="5.64726">
        <ele>250.199219</ele>
        <time>2017-03-28T08:36:11Z</time>
      </trkpt>
      <trkpt lat="43.29563" lon="5.64734">
        <ele>250.097656</ele>
        <time>2017-03-28T08:36:28Z</time>
      </trkpt>
      <trkpt lat="43.29572" lon="5.64739">
        <ele>264.296875</ele>
        <time>2017-03-28T08:36:46Z</time>
      </trkpt>
      <trkpt lat="43.29581" lon="5.64738">
        <ele>266.796875</ele>
        <time>2017-03-28T08:38:03Z</time>
      </trkpt>
      <trkpt lat="43.29582" lon="5.6475">
        <ele>273.144531</ele>
        <time>2017-03-28T08:38:24Z</time>
      </trkpt>
      <trkpt lat="43.29584" lon="5.64762">
        <ele>305</ele>
        <time>2017-03-28T08:38:49Z</time>
      </trkpt>
      <trkpt lat="43.29576" lon="5.64756">
        <ele>351.796875</ele>
        <time>2017-03-28T08:39:05Z</time>
      </trkpt>
      <trkpt lat="43.29571" lon="5.64734">
        <ele>335.398438</ele>
        <time>2017-03-28T08:39:36Z</time>
      </trkpt>
      <trkpt lat="43.2958" lon="5.64736">
        <ele>317.398438</ele>
        <time>2017-03-28T08:40:15Z</time>
      </trkpt>
      <trkpt lat="43.29589" lon="5.64744">
        <ele>302.398438</ele>
        <time>2017-03-28T08:40:21Z</time>
      </trkpt>
      <trkpt lat="43.29596" lon="5.64752">
        <ele>295.707031</ele>
        <time>2017-03-28T08:40:29Z</time>
      </trkpt>
      <trkpt lat="43.29608" lon="5.64773">
        <ele>290.398438</ele>
        <time>2017-03-28T08:40:49Z</time>
      </trkpt>
      <trkpt lat="43.29615" lon="5.6478">
        <ele>287.097656</ele>
        <time>2017-03-28T08:41:02Z</time>
      </trkpt>
      <trkpt lat="43.29623" lon="5.64787">
        <ele>288.296875</ele>
        <time>2017-03-28T08:41:13Z</time>
      </trkpt>
      <trkpt lat="43.29631" lon="5.64795">
        <ele>289.5</ele>
        <time>2017-03-28T08:41:25Z</time>
      </trkpt>
      <trkpt lat="43.29637" lon="5.64804">
        <ele>291.097656</ele>
        <time>2017-03-28T08:41:38Z</time>
      </trkpt>
      <trkpt lat="43.29644" lon="5.64814">
        <ele>295.296875</ele>
        <time>2017-03-28T08:41:53Z</time>
      </trkpt>
      <trkpt lat="43.2965" lon="5.64824">
        <ele>299.207031</ele>
        <time>2017-03-28T08:42:09Z</time>
      </trkpt>
      <trkpt lat="43.29658" lon="5.6483">
        <ele>298.296875</ele>
        <time>2017-03-28T08:43:24Z</time>
      </trkpt>
      <trkpt lat="43.2966" lon="5.64842">
        <ele>300.726563</ele>
        <time>2017-03-28T08:44:44Z</time>
      </trkpt>
      <trkpt lat="43.29668" lon="5.64846">
        <ele>301.796875</ele>
        <time>2017-03-28T08:45:05Z</time>
      </trkpt>
      <trkpt lat="43.29678" lon="5.64847">
        <ele>308.054688</ele>
        <time>2017-03-28T08:45:15Z</time>
      </trkpt>
      <trkpt lat="43.29697" lon="5.64851">
        <ele>311.097656</ele>
        <time>2017-03-28T08:45:53Z</time>
      </trkpt>
      <trkpt lat="43.29706" lon="5.64855">
        <ele>314.175781</ele>
        <time>2017-03-28T08:46:07Z</time>
      </trkpt>
      <trkpt lat="43.29714" lon="5.64863">
        <ele>316.699219</ele>
        <time>2017-03-28T08:46:27Z</time>
      </trkpt>
      <trkpt lat="43.29721" lon="5.64871">
        <ele>317.296875</ele>
        <time>2017-03-28T08:46:37Z</time>
      </trkpt>
      <trkpt lat="43.29741" lon="5.64897">
        <ele>321.398438</ele>
        <time>2017-03-28T08:47:54Z</time>
      </trkpt>
      <trkpt lat="43.29749" lon="5.64903">
        <ele>322.398438</ele>
        <time>2017-03-28T08:48:09Z</time>
      </trkpt>
      <trkpt lat="43.29756" lon="5.64912">
        <ele>326</ele>
        <time>2017-03-28T08:48:21Z</time>
      </trkpt>
      <trkpt lat="43.29763" lon="5.64922">
        <ele>328.699219</ele>
        <time>2017-03-28T08:48:39Z</time>
      </trkpt>
      <trkpt lat="43.29771" lon="5.64928">
        <ele>330.597656</ele>
        <time>2017-03-28T08:48:55Z</time>
      </trkpt>
      <trkpt lat="43.29779" lon="5.64936">
        <ele>331.898438</ele>
        <time>2017-03-28T08:49:08Z</time>
      </trkpt>
      <trkpt lat="43.29784" lon="5.64946">
        <ele>333.296875</ele>
        <time>2017-03-28T08:49:35Z</time>
      </trkpt>
      <trkpt lat="43.29792" lon="5.64952">
        <ele>334.296875</ele>
        <time>2017-03-28T08:49:46Z</time>
      </trkpt>
      <trkpt lat="43.29808" lon="5.64965">
        <ele>338.398438</ele>
        <time>2017-03-28T08:50:07Z</time>
      </trkpt>
      <trkpt lat="43.29799" lon="5.6497">
        <ele>343.898438</ele>
        <time>2017-03-28T08:50:28Z</time>
      </trkpt>
      <trkpt lat="43.29789" lon="5.64965">
        <ele>346.898438</ele>
        <time>2017-03-28T08:50:41Z</time>
      </trkpt>
      <trkpt lat="43.2978" lon="5.64964">
        <ele>345.097656</ele>
        <time>2017-03-28T08:50:51Z</time>
      </trkpt>
      <trkpt lat="43.29771" lon="5.64963">
        <ele>347.296875</ele>
        <time>2017-03-28T08:51:02Z</time>
      </trkpt>
      <trkpt lat="43.29762" lon="5.64964">
        <ele>348.5</ele>
        <time>2017-03-28T08:51:13Z</time>
      </trkpt>
      <trkpt lat="43.29744" lon="5.64968">
        <ele>352.398438</ele>
        <time>2017-03-28T08:51:33Z</time>
      </trkpt>
      <trkpt lat="43.29734" lon="5.64967">
        <ele>354.898438</ele>
        <time>2017-03-28T08:51:45Z</time>
      </trkpt>
      <trkpt lat="43.29725" lon="5.64965">
        <ele>356.699219</ele>
        <time>2017-03-28T08:51:58Z</time>
      </trkpt>
      <trkpt lat="43.29716" lon="5.64961">
        <ele>348.898438</ele>
        <time>2017-03-28T08:52:10Z</time>
      </trkpt>
      <trkpt lat="43.29718" lon="5.64974">
        <ele>349.597656</ele>
        <time>2017-03-28T08:53:37Z</time>
      </trkpt>
      <trkpt lat="43.29726" lon="5.64979">
        <ele>350.097656</ele>
        <time>2017-03-28T08:53:46Z</time>
      </trkpt>
      <trkpt lat="43.29742" lon="5.64991">
        <ele>355.097656</ele>
        <time>2017-03-28T08:54:08Z</time>
      </trkpt>
      <trkpt lat="43.2975" lon="5.64998">
        <ele>355.898438</ele>
        <time>2017-03-28T08:54:19Z</time>
      </trkpt>
      <trkpt lat="43.29759" lon="5.65003">
        <ele>357.597656</ele>
        <time>2017-03-28T08:54:30Z</time>
      </trkpt>
      <trkpt lat="43.29767" lon="5.6501">
        <ele>357.726563</ele>
        <time>2017-03-28T08:54:41Z</time>
      </trkpt>
      <trkpt lat="43.2977" lon="5.65021">
        <ele>356.597656</ele>
        <time>2017-03-28T08:55:43Z</time>
      </trkpt>
      <trkpt lat="43.29777" lon="5.6503">
        <ele>360.5</ele>
        <time>2017-03-28T08:56:06Z</time>
      </trkpt>
      <trkpt lat="43.29784" lon="5.65038">
        <ele>363</ele>
        <time>2017-03-28T08:56:21Z</time>
      </trkpt>
      <trkpt lat="43.2979" lon="5.65048">
        <ele>367.5</ele>
        <time>2017-03-28T08:56:44Z</time>
      </trkpt>
      <trkpt lat="43.29814" lon="5.65089">
        <ele>389.199219</ele>
        <time>2017-03-28T08:58:09Z</time>
      </trkpt>
      <trkpt lat="43.29822" lon="5.65096">
        <ele>388.796875</ele>
        <time>2017-03-28T08:58:21Z</time>
      </trkpt>
      <trkpt lat="43.29828" lon="5.65106">
        <ele>393.199219</ele>
        <time>2017-03-28T08:58:40Z</time>
      </trkpt>
      <trkpt lat="43.29834" lon="5.6512">
        <ele>397</ele>
        <time>2017-03-28T08:59:09Z</time>
      </trkpt>
      <trkpt lat="43.29841" lon="5.65127">
        <ele>395.5</ele>
        <time>2017-03-28T08:59:31Z</time>
      </trkpt>
      <trkpt lat="43.29847" lon="5.65137">
        <ele>399.5</ele>
        <time>2017-03-28T08:59:47Z</time>
      </trkpt>
      <trkpt lat="43.29856" lon="5.65144">
        <ele>409.898438</ele>
        <time>2017-03-28T09:00:09Z</time>
      </trkpt>
      <trkpt lat="43.29847" lon="5.6514">
        <ele>408.699219</ele>
        <time>2017-03-28T09:02:18Z</time>
      </trkpt>
      <trkpt lat="43.29852" lon="5.65151">
        <ele>408.296875</ele>
        <time>2017-03-28T09:02:32Z</time>
      </trkpt>
      <trkpt lat="43.29855" lon="5.65163">
        <ele>412.097656</ele>
        <time>2017-03-28T09:02:45Z</time>
      </trkpt>
      <trkpt lat="43.29861" lon="5.65172">
        <ele>414.5</ele>
        <time>2017-03-28T09:03:00Z</time>
      </trkpt>
      <trkpt lat="43.29866" lon="5.65183">
        <ele>417.796875</ele>
        <time>2017-03-28T09:03:17Z</time>
      </trkpt>
      <trkpt lat="43.2987" lon="5.65194">
        <ele>420.898438</ele>
        <time>2017-03-28T09:03:36Z</time>
      </trkpt>
      <trkpt lat="43.29876" lon="5.65203">
        <ele>423.898438</ele>
        <time>2017-03-28T09:03:52Z</time>
      </trkpt>
      <trkpt lat="43.29881" lon="5.65214">
        <ele>427.796875</ele>
        <time>2017-03-28T09:04:11Z</time>
      </trkpt>
      <trkpt lat="43.29883" lon="5.65227">
        <ele>429.898438</ele>
        <time>2017-03-28T09:04:32Z</time>
      </trkpt>
      <trkpt lat="43.29886" lon="5.65239">
        <ele>430.597656</ele>
        <time>2017-03-28T09:04:50Z</time>
      </trkpt>
      <trkpt lat="43.29889" lon="5.6525">
        <ele>452.199219</ele>
        <time>2017-03-28T09:05:04Z</time>
      </trkpt>
      <trkpt lat="43.29895" lon="5.6526">
        <ele>454.5</ele>
        <time>2017-03-28T09:09:21Z</time>
      </trkpt>
      <trkpt lat="43.29913" lon="5.65288">
        <ele>453.664063</ele>
        <time>2017-03-28T09:10:02Z</time>
      </trkpt>
      <trkpt lat="43.29919" lon="5.65299">
        <ele>457.199219</ele>
        <time>2017-03-28T09:10:21Z</time>
      </trkpt>
      <trkpt lat="43.29927" lon="5.65304">
        <ele>467.199219</ele>
        <time>2017-03-28T09:10:36Z</time>
      </trkpt>
      <trkpt lat="43.29936" lon="5.65302">
        <ele>475.597656</ele>
        <time>2017-03-28T09:11:02Z</time>
      </trkpt>
      <trkpt lat="43.29945" lon="5.65303">
        <ele>471.898438</ele>
        <time>2017-03-28T09:11:26Z</time>
      </trkpt>
      <trkpt lat="43.29953" lon="5.6531">
        <ele>469.398438</ele>
        <time>2017-03-28T09:11:38Z</time>
      </trkpt>
      <trkpt lat="43.29962" lon="5.65316">
        <ele>471.398438</ele>
        <time>2017-03-28T09:11:51Z</time>
      </trkpt>
      <trkpt lat="43.29974" lon="5.65316">
        <ele>470.578125</ele>
        <time>2017-03-28T09:12:13Z</time>
      </trkpt>
      <trkpt lat="43.29983" lon="5.65319">
        <ele>474.398438</ele>
        <time>2017-03-28T09:13:09Z</time>
      </trkpt>
      <trkpt lat="43.29992" lon="5.65316">
        <ele>471.898438</ele>
        <time>2017-03-28T09:14:07Z</time>
      </trkpt>
      <trkpt lat="43.30001" lon="5.65315">
        <ele>474.699219</ele>
        <time>2017-03-28T09:14:24Z</time>
      </trkpt>
      <trkpt lat="43.3001" lon="5.65314">
        <ele>474.398438</ele>
        <time>2017-03-28T09:14:54Z</time>
      </trkpt>
      <trkpt lat="43.3002" lon="5.65311">
        <ele>476.398438</ele>
        <time>2017-03-28T09:15:04Z</time>
      </trkpt>
      <trkpt lat="43.30029" lon="5.65306">
        <ele>480.699219</ele>
        <time>2017-03-28T09:15:14Z</time>
      </trkpt>
      <trkpt lat="43.30037" lon="5.653">
        <ele>481.523438</ele>
        <time>2017-03-28T09:15:24Z</time>
      </trkpt>
      <trkpt lat="43.30045" lon="5.65306">
        <ele>482.199219</ele>
        <time>2017-03-28T09:15:58Z</time>
      </trkpt>
      <trkpt lat="43.30054" lon="5.65309">
        <ele>487.597656</ele>
        <time>2017-03-28T09:16:12Z</time>
      </trkpt>
      <trkpt lat="43.30063" lon="5.65308">
        <ele>489.699219</ele>
        <time>2017-03-28T09:16:33Z</time>
      </trkpt>
      <trkpt lat="43.30067" lon="5.65296">
        <ele>491.097656</ele>
        <time>2017-03-28T09:16:43Z</time>
      </trkpt>
      <trkpt lat="43.30068" lon="5.65284">
        <ele>487.296875</ele>
        <time>2017-03-28T09:16:53Z</time>
      </trkpt>
      <trkpt lat="43.3007" lon="5.65272">
        <ele>484.597656</ele>
        <time>2017-03-28T09:17:16Z</time>
      </trkpt>
      <trkpt lat="43.30068" lon="5.65259">
        <ele>486.898438</ele>
        <time>2017-03-28T09:17:30Z</time>
      </trkpt>
      <trkpt lat="43.30062" lon="5.65248">
        <ele>482.699219</ele>
        <time>2017-03-28T09:17:40Z</time>
      </trkpt>
      <trkpt lat="43.30061" lon="5.65235">
        <ele>481.296875</ele>
        <time>2017-03-28T09:17:53Z</time>
      </trkpt>
      <trkpt lat="43.3006" lon="5.65223">
        <ele>481.097656</ele>
        <time>2017-03-28T09:18:04Z</time>
      </trkpt>
      <trkpt lat="43.30062" lon="5.6521">
        <ele>485.699219</ele>
        <time>2017-03-28T09:18:16Z</time>
      </trkpt>
      <trkpt lat="43.30069" lon="5.65202">
        <ele>487.296875</ele>
        <time>2017-03-28T09:18:29Z</time>
      </trkpt>
      <trkpt lat="43.30075" lon="5.65192">
        <ele>491.375</ele>
        <time>2017-03-28T09:18:45Z</time>
      </trkpt>
      <trkpt lat="43.30081" lon="5.65182">
        <ele>497.398438</ele>
        <time>2017-03-28T09:19:02Z</time>
      </trkpt>
      <trkpt lat="43.30089" lon="5.65174">
        <ele>495.5</ele>
        <time>2017-03-28T09:19:32Z</time>
      </trkpt>
      <trkpt lat="43.30103" lon="5.65157">
        <ele>494.898438</ele>
        <time>2017-03-28T09:19:59Z</time>
      </trkpt>
      <trkpt lat="43.30112" lon="5.65153">
        <ele>495.199219</ele>
        <time>2017-03-28T09:20:10Z</time>
      </trkpt>
      <trkpt lat="43.30122" lon="5.6515">
        <ele>493.199219</ele>
        <time>2017-03-28T09:20:22Z</time>
      </trkpt>
      <trkpt lat="43.3013" lon="5.65142">
        <ele>494.796875</ele>
        <time>2017-03-28T09:20:34Z</time>
      </trkpt>
      <trkpt lat="43.30138" lon="5.65137">
        <ele>497.597656</ele>
        <time>2017-03-28T09:20:45Z</time>
      </trkpt>
      <trkpt lat="43.30145" lon="5.65129">
        <ele>504.398438</ele>
        <time>2017-03-28T09:20:56Z</time>
      </trkpt>
      <trkpt lat="43.30154" lon="5.65122">
        <ele>509.898438</ele>
        <time>2017-03-28T09:21:13Z</time>
      </trkpt>
      <trkpt lat="43.30149" lon="5.65133">
        <ele>517.796875</ele>
        <time>2017-03-28T09:22:54Z</time>
      </trkpt>
      <trkpt lat="43.30144" lon="5.65144">
        <ele>522.5</ele>
        <time>2017-03-28T09:23:09Z</time>
      </trkpt>
      <trkpt lat="43.30143" lon="5.65159">
        <ele>518.796875</ele>
        <time>2017-03-28T09:23:26Z</time>
      </trkpt>
      <trkpt lat="43.30138" lon="5.65199">
        <ele>530</ele>
        <time>2017-03-28T09:25:08Z</time>
      </trkpt>
      <trkpt lat="43.3014" lon="5.65211">
        <ele>528.398438</ele>
        <time>2017-03-28T09:25:26Z</time>
      </trkpt>
      <trkpt lat="43.30144" lon="5.65223">
        <ele>531.097656</ele>
        <time>2017-03-28T09:25:40Z</time>
      </trkpt>
      <trkpt lat="43.30149" lon="5.65233">
        <ele>534.097656</ele>
        <time>2017-03-28T09:25:53Z</time>
      </trkpt>
      <trkpt lat="43.3016" lon="5.65253">
        <ele>540.296875</ele>
        <time>2017-03-28T09:26:17Z</time>
      </trkpt>
      <trkpt lat="43.30163" lon="5.65265">
        <ele>543.398438</ele>
        <time>2017-03-28T09:26:30Z</time>
      </trkpt>
      <trkpt lat="43.30167" lon="5.65276">
        <ele>535.296875</ele>
        <time>2017-03-28T09:26:42Z</time>
      </trkpt>
      <trkpt lat="43.30166" lon="5.65289">
        <ele>536.898438</ele>
        <time>2017-03-28T09:28:00Z</time>
      </trkpt>
      <trkpt lat="43.30173" lon="5.65299">
        <ele>540.199219</ele>
        <time>2017-03-28T09:28:18Z</time>
      </trkpt>
      <trkpt lat="43.30179" lon="5.65308">
        <ele>545.296875</ele>
        <time>2017-03-28T09:28:27Z</time>
      </trkpt>
      <trkpt lat="43.30184" lon="5.65318">
        <ele>547.5</ele>
        <time>2017-03-28T09:28:36Z</time>
      </trkpt>
      <trkpt lat="43.30186" lon="5.65331">
        <ele>549.097656</ele>
        <time>2017-03-28T09:28:46Z</time>
      </trkpt>
      <trkpt lat="43.30184" lon="5.65343">
        <ele>548.898438</ele>
        <time>2017-03-28T09:28:55Z</time>
      </trkpt>
      <trkpt lat="43.30183" lon="5.65356">
        <ele>550.398438</ele>
        <time>2017-03-28T09:29:04Z</time>
      </trkpt>
      <trkpt lat="43.30183" lon="5.65369">
        <ele>552.597656</ele>
        <time>2017-03-28T09:29:13Z</time>
      </trkpt>
      <trkpt lat="43.30184" lon="5.65382">
        <ele>555.796875</ele>
        <time>2017-03-28T09:29:22Z</time>
      </trkpt>
      <trkpt lat="43.30187" lon="5.65394">
        <ele>556.796875</ele>
        <time>2017-03-28T09:29:32Z</time>
      </trkpt>
      <trkpt lat="43.30195" lon="5.65401">
        <ele>559.398438</ele>
        <time>2017-03-28T09:29:50Z</time>
      </trkpt>
      <trkpt lat="43.30203" lon="5.65394">
        <ele>558.296875</ele>
        <time>2017-03-28T09:30:07Z</time>
      </trkpt>
      <trkpt lat="43.30209" lon="5.65386">
        <ele>555.796875</ele>
        <time>2017-03-28T09:30:21Z</time>
      </trkpt>
      <trkpt lat="43.30217" lon="5.65378">
        <ele>558</ele>
        <time>2017-03-28T09:30:35Z</time>
      </trkpt>
      <trkpt lat="43.30222" lon="5.65366">
        <ele>569.015625</ele>
        <time>2017-03-28T09:30:49Z</time>
      </trkpt>
      <trkpt lat="43.30231" lon="5.65365">
        <ele>567.5</ele>
        <time>2017-03-28T09:32:12Z</time>
      </trkpt>
      <trkpt lat="43.3024" lon="5.6537">
        <ele>571.949219</ele>
        <time>2017-03-28T09:32:40Z</time>
      </trkpt>
      <trkpt lat="43.30249" lon="5.65369">
        <ele>574.796875</ele>
        <time>2017-03-28T09:33:00Z</time>
      </trkpt>
      <trkpt lat="43.30257" lon="5.65366">
        <ele>581.699219</ele>
        <time>2017-03-28T09:33:10Z</time>
      </trkpt>
      <trkpt lat="43.30267" lon="5.65369">
        <ele>580</ele>
        <time>2017-03-28T09:33:27Z</time>
      </trkpt>
      <trkpt lat="43.30275" lon="5.65377">
        <ele>582.398438</ele>
        <time>2017-03-28T09:33:43Z</time>
      </trkpt>
      <trkpt lat="43.30282" lon="5.65385">
        <ele>588.796875</ele>
        <time>2017-03-28T09:33:57Z</time>
      </trkpt>
      <trkpt lat="43.30291" lon="5.65382">
        <ele>595.199219</ele>
        <time>2017-03-28T09:34:15Z</time>
      </trkpt>
      <trkpt lat="43.30296" lon="5.65371">
        <ele>593.898438</ele>
        <time>2017-03-28T09:34:34Z</time>
      </trkpt>
      <trkpt lat="43.30299" lon="5.65359">
        <ele>595.597656</ele>
        <time>2017-03-28T09:34:49Z</time>
      </trkpt>
      <trkpt lat="43.30309" lon="5.65351">
        <ele>592.898438</ele>
        <time>2017-03-28T09:37:09Z</time>
      </trkpt>
      <trkpt lat="43.3032" lon="5.65363">
        <ele>601.097656</ele>
        <time>2017-03-28T09:37:41Z</time>
      </trkpt>
      <trkpt lat="43.30327" lon="5.6537">
        <ele>607.699219</ele>
        <time>2017-03-28T09:38:11Z</time>
      </trkpt>
      <trkpt lat="43.30334" lon="5.65379">
        <ele>612.5</ele>
        <time>2017-03-28T09:38:27Z</time>
      </trkpt>
      <trkpt lat="43.3034" lon="5.65389">
        <ele>623.296875</ele>
        <time>2017-03-28T09:38:45Z</time>
      </trkpt>
      <trkpt lat="43.30351" lon="5.65398">
        <ele>623.796875</ele>
        <time>2017-03-28T09:39:20Z</time>
      </trkpt>
      <trkpt lat="43.30352" lon="5.65411">
        <ele>622.296875</ele>
        <time>2017-03-28T09:39:36Z</time>
      </trkpt>
      <trkpt lat="43.30352" lon="5.65424">
        <ele>622.796875</ele>
        <time>2017-03-28T09:39:49Z</time>
      </trkpt>
      <trkpt lat="43.30353" lon="5.65437">
        <ele>626</ele>
        <time>2017-03-28T09:40:05Z</time>
      </trkpt>
      <trkpt lat="43.30355" lon="5.6545">
        <ele>629</ele>
        <time>2017-03-28T09:40:19Z</time>
      </trkpt>
      <trkpt lat="43.30354" lon="5.65462">
        <ele>625.597656</ele>
        <time>2017-03-28T09:40:35Z</time>
      </trkpt>
      <trkpt lat="43.30351" lon="5.65474">
        <ele>630</ele>
        <time>2017-03-28T09:40:48Z</time>
      </trkpt>
      <trkpt lat="43.30351" lon="5.65487">
        <ele>631.898438</ele>
        <time>2017-03-28T09:41:06Z</time>
      </trkpt>
      <trkpt lat="43.3035" lon="5.65513">
        <ele>628.296875</ele>
        <time>2017-03-28T09:41:35Z</time>
      </trkpt>
      <trkpt lat="43.30349" lon="5.65525">
        <ele>633.398438</ele>
        <time>2017-03-28T09:41:55Z</time>
      </trkpt>
      <trkpt lat="43.30351" lon="5.65537">
        <ele>636.097656</ele>
        <time>2017-03-28T09:42:09Z</time>
      </trkpt>
      <trkpt lat="43.30356" lon="5.65548">
        <ele>645.898438</ele>
        <time>2017-03-28T09:42:23Z</time>
      </trkpt>
      <trkpt lat="43.30367" lon="5.65555">
        <ele>645.699219</ele>
        <time>2017-03-28T09:42:57Z</time>
      </trkpt>
      <trkpt lat="43.30376" lon="5.65559">
        <ele>644.296875</ele>
        <time>2017-03-28T09:44:25Z</time>
      </trkpt>
      <trkpt lat="43.30385" lon="5.65561">
        <ele>645.5</ele>
        <time>2017-03-28T09:44:39Z</time>
      </trkpt>
      <trkpt lat="43.30394" lon="5.65561">
        <ele>648.597656</ele>
        <time>2017-03-28T09:44:51Z</time>
      </trkpt>
      <trkpt lat="43.30413" lon="5.65564">
        <ele>647.398438</ele>
        <time>2017-03-28T09:45:18Z</time>
      </trkpt>
      <trkpt lat="43.30422" lon="5.65566">
        <ele>653</ele>
        <time>2017-03-28T09:45:30Z</time>
      </trkpt>
      <trkpt lat="43.3044" lon="5.65571">
        <ele>656.699219</ele>
        <time>2017-03-28T09:46:02Z</time>
      </trkpt>
      <trkpt lat="43.30458" lon="5.65574">
        <ele>662.199219</ele>
        <time>2017-03-28T09:46:37Z</time>
      </trkpt>
      <trkpt lat="43.30467" lon="5.65575">
        <ele>660.941406</ele>
        <time>2017-03-28T09:46:44Z</time>
      </trkpt>
      <trkpt lat="43.30476" lon="5.6558">
        <ele>663.792969</ele>
        <time>2017-03-28T09:47:07Z</time>
      </trkpt>
      <trkpt lat="43.30484" lon="5.65584">
        <ele>673.597656</ele>
        <time>2017-03-28T09:47:43Z</time>
      </trkpt>
      <trkpt lat="43.30499" lon="5.65584">
        <ele>675.878906</ele>
        <time>2017-03-28T09:47:46Z</time>
      </trkpt>
      <trkpt lat="43.30508" lon="5.65586">
        <ele>681.898438</ele>
        <time>2017-03-28T09:48:09Z</time>
      </trkpt>
      <trkpt lat="43.30526" lon="5.65586">
        <ele>680.875</ele>
        <time>2017-03-28T09:51:30Z</time>
      </trkpt>
      <trkpt lat="43.30531" lon="5.65585">
        <ele>677.265625</ele>
        <time>2017-03-28T10:30:08Z</time>
      </trkpt>
      <trkpt lat="43.30522" lon="5.65586">
        <ele>668.5</ele>
        <time>2017-03-28T10:30:39Z</time>
      </trkpt>
      <trkpt lat="43.30532" lon="5.65584">
        <ele>670.097656</ele>
        <time>2017-03-28T10:31:11Z</time>
      </trkpt>
      <trkpt lat="43.30541" lon="5.65586">
        <ele>671.699219</ele>
        <time>2017-03-28T10:31:25Z</time>
      </trkpt>
      <trkpt lat="43.30546" lon="5.65597">
        <ele>675.699219</ele>
        <time>2017-03-28T10:31:36Z</time>
      </trkpt>
      <trkpt lat="43.30548" lon="5.6561">
        <ele>669.597656</ele>
        <time>2017-03-28T10:31:48Z</time>
      </trkpt>
      <trkpt lat="43.30551" lon="5.65623">
        <ele>671.597656</ele>
        <time>2017-03-28T10:32:13Z</time>
      </trkpt>
      <trkpt lat="43.30554" lon="5.65635">
        <ele>674.5</ele>
        <time>2017-03-28T10:32:22Z</time>
      </trkpt>
      <trkpt lat="43.30559" lon="5.65647">
        <ele>677.097656</ele>
        <time>2017-03-28T10:32:31Z</time>
      </trkpt>
      <trkpt lat="43.30563" lon="5.65658">
        <ele>681.796875</ele>
        <time>2017-03-28T10:32:41Z</time>
      </trkpt>
      <trkpt lat="43.30569" lon="5.65668">
        <ele>684.796875</ele>
        <time>2017-03-28T10:32:54Z</time>
      </trkpt>
      <trkpt lat="43.30573" lon="5.65681">
        <ele>685.097656</ele>
        <time>2017-03-28T10:33:16Z</time>
      </trkpt>
      <trkpt lat="43.30578" lon="5.65691">
        <ele>686</ele>
        <time>2017-03-28T10:33:25Z</time>
      </trkpt>
      <trkpt lat="43.30583" lon="5.65701">
        <ele>682</ele>
        <time>2017-03-28T10:33:35Z</time>
      </trkpt>
      <trkpt lat="43.30587" lon="5.65713">
        <ele>684.398438</ele>
        <time>2017-03-28T10:33:54Z</time>
      </trkpt>
      <trkpt lat="43.30591" lon="5.65726">
        <ele>687.199219</ele>
        <time>2017-03-28T10:34:06Z</time>
      </trkpt>
      <trkpt lat="43.30596" lon="5.6575">
        <ele>687.398438</ele>
        <time>2017-03-28T10:34:27Z</time>
      </trkpt>
      <trkpt lat="43.30603" lon="5.65759">
        <ele>687.699219</ele>
        <time>2017-03-28T10:34:40Z</time>
      </trkpt>
      <trkpt lat="43.30609" lon="5.65769">
        <ele>689.296875</ele>
        <time>2017-03-28T10:34:52Z</time>
      </trkpt>
      <trkpt lat="43.30616" lon="5.65777">
        <ele>693.796875</ele>
        <time>2017-03-28T10:35:03Z</time>
      </trkpt>
      <trkpt lat="43.30608" lon="5.65771">
        <ele>694.097656</ele>
        <time>2017-03-28T10:35:54Z</time>
      </trkpt>
      <trkpt lat="43.30601" lon="5.65762">
        <ele>693.898438</ele>
        <time>2017-03-28T10:36:04Z</time>
      </trkpt>
      <trkpt lat="43.30596" lon="5.65752">
        <ele>694.398438</ele>
        <time>2017-03-28T10:36:16Z</time>
      </trkpt>
      <trkpt lat="43.30592" lon="5.65739">
        <ele>694.398438</ele>
        <time>2017-03-28T10:36:25Z</time>
      </trkpt>
      <trkpt lat="43.30588" lon="5.65727">
        <ele>694</ele>
        <time>2017-03-28T10:36:34Z</time>
      </trkpt>
      <trkpt lat="43.30584" lon="5.65715">
        <ele>694.097656</ele>
        <time>2017-03-28T10:36:43Z</time>
      </trkpt>
      <trkpt lat="43.30591" lon="5.65705">
        <ele>695.097656</ele>
        <time>2017-03-28T10:37:05Z</time>
      </trkpt>
      <trkpt lat="43.30596" lon="5.65695">
        <ele>697.171875</ele>
        <time>2017-03-28T10:37:16Z</time>
      </trkpt>
      <trkpt lat="43.30602" lon="5.65686">
        <ele>698</ele>
        <time>2017-03-28T10:37:59Z</time>
      </trkpt>
      <trkpt lat="43.30608" lon="5.65696">
        <ele>697.398438</ele>
        <time>2017-03-28T10:38:09Z</time>
      </trkpt>
      <trkpt lat="43.3061" lon="5.65709">
        <ele>700.097656</ele>
        <time>2017-03-28T10:38:19Z</time>
      </trkpt>
      <trkpt lat="43.30617" lon="5.65717">
        <ele>702.296875</ele>
        <time>2017-03-28T10:38:36Z</time>
      </trkpt>
      <trkpt lat="43.30626" lon="5.65719">
        <ele>703.199219</ele>
        <time>2017-03-28T10:38:53Z</time>
      </trkpt>
      <trkpt lat="43.30632" lon="5.65729">
        <ele>704.398438</ele>
        <time>2017-03-28T10:39:12Z</time>
      </trkpt>
      <trkpt lat="43.30634" lon="5.65742">
        <ele>707.855469</ele>
        <time>2017-03-28T10:39:25Z</time>
      </trkpt>
      <trkpt lat="43.30642" lon="5.65747">
        <ele>709.398438</ele>
        <time>2017-03-28T10:39:46Z</time>
      </trkpt>
      <trkpt lat="43.3065" lon="5.65753">
        <ele>711.097656</ele>
        <time>2017-03-28T10:39:55Z</time>
      </trkpt>
      <trkpt lat="43.30659" lon="5.65757">
        <ele>713.296875</ele>
        <time>2017-03-28T10:40:05Z</time>
      </trkpt>
      <trkpt lat="43.30667" lon="5.65764">
        <ele>714.699219</ele>
        <time>2017-03-28T10:40:15Z</time>
      </trkpt>
      <trkpt lat="43.30676" lon="5.65768">
        <ele>715.199219</ele>
        <time>2017-03-28T10:40:25Z</time>
      </trkpt>
      <trkpt lat="43.30683" lon="5.65776">
        <ele>715.296875</ele>
        <time>2017-03-28T10:40:35Z</time>
      </trkpt>
      <trkpt lat="43.30686" lon="5.65788">
        <ele>714.296875</ele>
        <time>2017-03-28T10:40:50Z</time>
      </trkpt>
      <trkpt lat="43.30692" lon="5.65798">
        <ele>714.199219</ele>
        <time>2017-03-28T10:41:03Z</time>
      </trkpt>
      <trkpt lat="43.30697" lon="5.65808">
        <ele>715.699219</ele>
        <time>2017-03-28T10:41:14Z</time>
      </trkpt>
      <trkpt lat="43.30705" lon="5.65815">
        <ele>714.5</ele>
        <time>2017-03-28T10:41:25Z</time>
      </trkpt>
      <trkpt lat="43.30713" lon="5.6582">
        <ele>713.597656</ele>
        <time>2017-03-28T10:41:36Z</time>
      </trkpt>
      <trkpt lat="43.30722" lon="5.65822">
        <ele>711.699219</ele>
        <time>2017-03-28T10:41:47Z</time>
      </trkpt>
      <trkpt lat="43.30729" lon="5.65829">
        <ele>709</ele>
        <time>2017-03-28T10:41:57Z</time>
      </trkpt>
      <trkpt lat="43.30739" lon="5.65833">
        <ele>708.097656</ele>
        <time>2017-03-28T10:42:18Z</time>
      </trkpt>
      <trkpt lat="43.30747" lon="5.65839">
        <ele>710.699219</ele>
        <time>2017-03-28T10:42:29Z</time>
      </trkpt>
      <trkpt lat="43.30755" lon="5.65846">
        <ele>715.199219</ele>
        <time>2017-03-28T10:42:40Z</time>
      </trkpt>
      <trkpt lat="43.30763" lon="5.65853">
        <ele>719.199219</ele>
        <time>2017-03-28T10:42:58Z</time>
      </trkpt>
      <trkpt lat="43.30768" lon="5.65864">
        <ele>722.398438</ele>
        <time>2017-03-28T10:43:11Z</time>
      </trkpt>
      <trkpt lat="43.30786" lon="5.65893">
        <ele>737.796875</ele>
        <time>2017-03-28T10:43:51Z</time>
      </trkpt>
      <trkpt lat="43.30795" lon="5.65899">
        <ele>738.699219</ele>
        <time>2017-03-28T10:44:59Z</time>
      </trkpt>
      <trkpt lat="43.30804" lon="5.65902">
        <ele>739.097656</ele>
        <time>2017-03-28T10:45:15Z</time>
      </trkpt>
      <trkpt lat="43.30811" lon="5.65912">
        <ele>742.898438</ele>
        <time>2017-03-28T10:45:28Z</time>
      </trkpt>
      <trkpt lat="43.30818" lon="5.65919">
        <ele>746.097656</ele>
        <time>2017-03-28T10:45:41Z</time>
      </trkpt>
      <trkpt lat="43.30826" lon="5.65927">
        <ele>748.398438</ele>
        <time>2017-03-28T10:45:55Z</time>
      </trkpt>
      <trkpt lat="43.30835" lon="5.65932">
        <ele>748.796875</ele>
        <time>2017-03-28T10:46:09Z</time>
      </trkpt>
      <trkpt lat="43.30843" lon="5.65939">
        <ele>748.796875</ele>
        <time>2017-03-28T10:46:21Z</time>
      </trkpt>
      <trkpt lat="43.30848" lon="5.65949">
        <ele>749.199219</ele>
        <time>2017-03-28T10:46:33Z</time>
      </trkpt>
      <trkpt lat="43.30862" lon="5.65969">
        <ele>747.898438</ele>
        <time>2017-03-28T10:46:55Z</time>
      </trkpt>
      <trkpt lat="43.30868" lon="5.65978">
        <ele>752.699219</ele>
        <time>2017-03-28T10:47:08Z</time>
      </trkpt>
      <trkpt lat="43.30876" lon="5.65984">
        <ele>754.699219</ele>
        <time>2017-03-28T10:47:46Z</time>
      </trkpt>
      <trkpt lat="43.30882" lon="5.65995">
        <ele>756.796875</ele>
        <time>2017-03-28T10:48:01Z</time>
      </trkpt>
      <trkpt lat="43.30885" lon="5.66006">
        <ele>758.398438</ele>
        <time>2017-03-28T10:48:12Z</time>
      </trkpt>
      <trkpt lat="43.30888" lon="5.66019">
        <ele>760.796875</ele>
        <time>2017-03-28T10:48:25Z</time>
      </trkpt>
      <trkpt lat="43.30891" lon="5.6603">
        <ele>762.097656</ele>
        <time>2017-03-28T10:48:38Z</time>
      </trkpt>
      <trkpt lat="43.30893" lon="5.66043">
        <ele>760.597656</ele>
        <time>2017-03-28T10:48:49Z</time>
      </trkpt>
      <trkpt lat="43.30896" lon="5.66054">
        <ele>760.398438</ele>
        <time>2017-03-28T10:49:00Z</time>
      </trkpt>
      <trkpt lat="43.30901" lon="5.66065">
        <ele>760.898438</ele>
        <time>2017-03-28T10:49:11Z</time>
      </trkpt>
      <trkpt lat="43.30907" lon="5.66076">
        <ele>757.699219</ele>
        <time>2017-03-28T10:49:22Z</time>
      </trkpt>
      <trkpt lat="43.30907" lon="5.66089">
        <ele>756.199219</ele>
        <time>2017-03-28T10:49:42Z</time>
      </trkpt>
      <trkpt lat="43.3091" lon="5.66101">
        <ele>759.898438</ele>
        <time>2017-03-28T10:49:52Z</time>
      </trkpt>
      <trkpt lat="43.30919" lon="5.66105">
        <ele>762.5</ele>
        <time>2017-03-28T10:50:08Z</time>
      </trkpt>
      <trkpt lat="43.30928" lon="5.66111">
        <ele>762</ele>
        <time>2017-03-28T10:50:22Z</time>
      </trkpt>
      <trkpt lat="43.30937" lon="5.66112">
        <ele>774.398438</ele>
        <time>2017-03-28T10:50:37Z</time>
      </trkpt>
      <trkpt lat="43.30946" lon="5.6611">
        <ele>775.082031</ele>
        <time>2017-03-28T10:50:56Z</time>
      </trkpt>
      <trkpt lat="43.30955" lon="5.6611">
        <ele>775.199219</ele>
        <time>2017-03-28T10:51:18Z</time>
      </trkpt>
      <trkpt lat="43.30968" lon="5.66108">
        <ele>775.296875</ele>
        <time>2017-03-28T10:52:46Z</time>
      </trkpt>
      <trkpt lat="43.30977" lon="5.66102">
        <ele>779.699219</ele>
        <time>2017-03-28T10:53:01Z</time>
      </trkpt>
      <trkpt lat="43.30986" lon="5.66096">
        <ele>779.097656</ele>
        <time>2017-03-28T10:53:22Z</time>
      </trkpt>
      <trkpt lat="43.30994" lon="5.66092">
        <ele>778.796875</ele>
        <time>2017-03-28T10:53:38Z</time>
      </trkpt>
      <trkpt lat="43.31003" lon="5.66091">
        <ele>777.898438</ele>
        <time>2017-03-28T10:53:49Z</time>
      </trkpt>
      <trkpt lat="43.31013" lon="5.66088">
        <ele>778.5</ele>
        <time>2017-03-28T10:54:00Z</time>
      </trkpt>
      <trkpt lat="43.31022" lon="5.66083">
        <ele>779</ele>
        <time>2017-03-28T10:54:09Z</time>
      </trkpt>
      <trkpt lat="43.3104" lon="5.66075">
        <ele>776.5</ele>
        <time>2017-03-28T10:54:28Z</time>
      </trkpt>
      <trkpt lat="43.31049" lon="5.66072">
        <ele>776.296875</ele>
        <time>2017-03-28T10:54:53Z</time>
      </trkpt>
      <trkpt lat="43.31057" lon="5.66066">
        <ele>771.898438</ele>
        <time>2017-03-28T10:55:08Z</time>
      </trkpt>
      <trkpt lat="43.31066" lon="5.66062">
        <ele>771.5</ele>
        <time>2017-03-28T10:55:25Z</time>
      </trkpt>
      <trkpt lat="43.31075" lon="5.66063">
        <ele>770.898438</ele>
        <time>2017-03-28T10:55:40Z</time>
      </trkpt>
      <trkpt lat="43.31084" lon="5.66061">
        <ele>768.199219</ele>
        <time>2017-03-28T10:55:55Z</time>
      </trkpt>
      <trkpt lat="43.31093" lon="5.66066">
        <ele>766.5</ele>
        <time>2017-03-28T10:56:17Z</time>
      </trkpt>
      <trkpt lat="43.31102" lon="5.66072">
        <ele>768</ele>
        <time>2017-03-28T10:56:32Z</time>
      </trkpt>
      <trkpt lat="43.31111" lon="5.66073">
        <ele>768.097656</ele>
        <time>2017-03-28T10:56:48Z</time>
      </trkpt>
      <trkpt lat="43.31119" lon="5.66068">
        <ele>764.796875</ele>
        <time>2017-03-28T10:57:03Z</time>
      </trkpt>
      <trkpt lat="43.31129" lon="5.66068">
        <ele>764.296875</ele>
        <time>2017-03-28T10:57:16Z</time>
      </trkpt>
      <trkpt lat="43.31138" lon="5.6607">
        <ele>764.597656</ele>
        <time>2017-03-28T10:57:29Z</time>
      </trkpt>
      <trkpt lat="43.31145" lon="5.66078">
        <ele>766.398438</ele>
        <time>2017-03-28T10:57:43Z</time>
      </trkpt>
      <trkpt lat="43.31154" lon="5.66078">
        <ele>769.898438</ele>
        <time>2017-03-28T10:57:56Z</time>
      </trkpt>
      <trkpt lat="43.31164" lon="5.66079">
        <ele>770.898438</ele>
        <time>2017-03-28T10:58:10Z</time>
      </trkpt>
      <trkpt lat="43.31172" lon="5.66084">
        <ele>774.898438</ele>
        <time>2017-03-28T10:58:23Z</time>
      </trkpt>
      <trkpt lat="43.31182" lon="5.66086">
        <ele>775.832031</ele>
        <time>2017-03-28T10:58:47Z</time>
      </trkpt>
      <trkpt lat="43.31191" lon="5.6609">
        <ele>776.097656</ele>
        <time>2017-03-28T10:59:04Z</time>
      </trkpt>
      <trkpt lat="43.312" lon="5.66091">
        <ele>776.398438</ele>
        <time>2017-03-28T10:59:16Z</time>
      </trkpt>
      <trkpt lat="43.31209" lon="5.66094">
        <ele>777.097656</ele>
        <time>2017-03-28T10:59:29Z</time>
      </trkpt>
      <trkpt lat="43.31218" lon="5.66093">
        <ele>778</ele>
        <time>2017-03-28T10:59:44Z</time>
      </trkpt>
      <trkpt lat="43.31237" lon="5.66092">
        <ele>781</ele>
        <time>2017-03-28T11:00:07Z</time>
      </trkpt>
      <trkpt lat="43.31246" lon="5.66096">
        <ele>778.296875</ele>
        <time>2017-03-28T11:00:18Z</time>
      </trkpt>
      <trkpt lat="43.31255" lon="5.66097">
        <ele>777.597656</ele>
        <time>2017-03-28T11:00:27Z</time>
      </trkpt>
      <trkpt lat="43.31264" lon="5.66095">
        <ele>776</ele>
        <time>2017-03-28T11:00:36Z</time>
      </trkpt>
      <trkpt lat="43.31283" lon="5.66091">
        <ele>775.898438</ele>
        <time>2017-03-28T11:00:56Z</time>
      </trkpt>
      <trkpt lat="43.31292" lon="5.66088">
        <ele>773.699219</ele>
        <time>2017-03-28T11:01:07Z</time>
      </trkpt>
      <trkpt lat="43.31301" lon="5.66086">
        <ele>772.699219</ele>
        <time>2017-03-28T11:01:18Z</time>
      </trkpt>
      <trkpt lat="43.3132" lon="5.66085">
        <ele>772.898438</ele>
        <time>2017-03-28T11:01:38Z</time>
      </trkpt>
      <trkpt lat="43.31329" lon="5.66081">
        <ele>774</ele>
        <time>2017-03-28T11:01:47Z</time>
      </trkpt>
      <trkpt lat="43.31346" lon="5.66075">
        <ele>772</ele>
        <time>2017-03-28T11:02:19Z</time>
      </trkpt>
      <trkpt lat="43.31355" lon="5.66076">
        <ele>769.398438</ele>
        <time>2017-03-28T11:03:34Z</time>
      </trkpt>
      <trkpt lat="43.31362" lon="5.66067">
        <ele>766.796875</ele>
        <time>2017-03-28T11:03:49Z</time>
      </trkpt>
      <trkpt lat="43.31371" lon="5.66061">
        <ele>764.796875</ele>
        <time>2017-03-28T11:04:04Z</time>
      </trkpt>
      <trkpt lat="43.3138" lon="5.66059">
        <ele>762</ele>
        <time>2017-03-28T11:04:24Z</time>
      </trkpt>
      <trkpt lat="43.31384" lon="5.66071">
        <ele>761.296875</ele>
        <time>2017-03-28T11:04:41Z</time>
      </trkpt>
      <trkpt lat="43.31388" lon="5.66082">
        <ele>759.898438</ele>
        <time>2017-03-28T11:04:55Z</time>
      </trkpt>
      <trkpt lat="43.31396" lon="5.66087">
        <ele>758.753906</ele>
        <time>2017-03-28T11:05:07Z</time>
      </trkpt>
      <trkpt lat="43.31402" lon="5.66098">
        <ele>755.296875</ele>
        <time>2017-03-28T11:05:24Z</time>
      </trkpt>
      <trkpt lat="43.3141" lon="5.66103">
        <ele>751.796875</ele>
        <time>2017-03-28T11:05:37Z</time>
      </trkpt>
      <trkpt lat="43.31419" lon="5.66105">
        <ele>745.199219</ele>
        <time>2017-03-28T11:05:48Z</time>
      </trkpt>
      <trkpt lat="43.31429" lon="5.66104">
        <ele>744</ele>
        <time>2017-03-28T11:06:05Z</time>
      </trkpt>
      <trkpt lat="43.31435" lon="5.66114">
        <ele>741.097656</ele>
        <time>2017-03-28T11:06:19Z</time>
      </trkpt>
      <trkpt lat="43.31442" lon="5.66123">
        <ele>738.5</ele>
        <time>2017-03-28T11:06:32Z</time>
      </trkpt>
      <trkpt lat="43.31447" lon="5.66134">
        <ele>736.296875</ele>
        <time>2017-03-28T11:06:41Z</time>
      </trkpt>
      <trkpt lat="43.31455" lon="5.66142">
        <ele>734.898438</ele>
        <time>2017-03-28T11:06:52Z</time>
      </trkpt>
      <trkpt lat="43.31478" lon="5.66168">
        <ele>730.398438</ele>
        <time>2017-03-28T11:07:23Z</time>
      </trkpt>
      <trkpt lat="43.31487" lon="5.66173">
        <ele>730.296875</ele>
        <time>2017-03-28T11:07:36Z</time>
      </trkpt>
      <trkpt lat="43.31496" lon="5.66175">
        <ele>727.898438</ele>
        <time>2017-03-28T11:07:44Z</time>
      </trkpt>
      <trkpt lat="43.31504" lon="5.66179">
        <ele>725.898438</ele>
        <time>2017-03-28T11:07:54Z</time>
      </trkpt>
      <trkpt lat="43.31513" lon="5.66183">
        <ele>725</ele>
        <time>2017-03-28T11:08:02Z</time>
      </trkpt>
      <trkpt lat="43.31523" lon="5.66184">
        <ele>722.796875</ele>
        <time>2017-03-28T11:08:11Z</time>
      </trkpt>
      <trkpt lat="43.31533" lon="5.66182">
        <ele>721.796875</ele>
        <time>2017-03-28T11:08:19Z</time>
      </trkpt>
      <trkpt lat="43.31542" lon="5.66178">
        <ele>719.5</ele>
        <time>2017-03-28T11:08:27Z</time>
      </trkpt>
      <trkpt lat="43.31551" lon="5.66178">
        <ele>720.699219</ele>
        <time>2017-03-28T11:08:38Z</time>
      </trkpt>
      <trkpt lat="43.31561" lon="5.66182">
        <ele>719.199219</ele>
        <time>2017-03-28T11:08:49Z</time>
      </trkpt>
      <trkpt lat="43.31569" lon="5.66188">
        <ele>719.898438</ele>
        <time>2017-03-28T11:08:58Z</time>
      </trkpt>
      <trkpt lat="43.31578" lon="5.66191">
        <ele>723.898438</ele>
        <time>2017-03-28T11:09:09Z</time>
      </trkpt>
      <trkpt lat="43.31588" lon="5.6619">
        <ele>729</ele>
        <time>2017-03-28T11:09:21Z</time>
      </trkpt>
      <trkpt lat="43.31597" lon="5.66193">
        <ele>724</ele>
        <time>2017-03-28T11:09:34Z</time>
      </trkpt>
      <trkpt lat="43.31606" lon="5.66197">
        <ele>723.597656</ele>
        <time>2017-03-28T11:15:24Z</time>
      </trkpt>
      <trkpt lat="43.31613" lon="5.66204">
        <ele>727.699219</ele>
        <time>2017-03-28T11:15:35Z</time>
      </trkpt>
      <trkpt lat="43.31622" lon="5.66209">
        <ele>734.097656</ele>
        <time>2017-03-28T11:15:51Z</time>
      </trkpt>
      <trkpt lat="43.3163" lon="5.66216">
        <ele>740.398438</ele>
        <time>2017-03-28T11:16:09Z</time>
      </trkpt>
      <trkpt lat="43.31635" lon="5.66226">
        <ele>741.898438</ele>
        <time>2017-03-28T11:16:22Z</time>
      </trkpt>
      <trkpt lat="43.3164" lon="5.66237">
        <ele>741</ele>
        <time>2017-03-28T11:16:34Z</time>
      </trkpt>
      <trkpt lat="43.31645" lon="5.66247">
        <ele>736.097656</ele>
        <time>2017-03-28T11:16:45Z</time>
      </trkpt>
      <trkpt lat="43.31651" lon="5.66257">
        <ele>740</ele>
        <time>2017-03-28T11:17:45Z</time>
      </trkpt>
      <trkpt lat="43.31655" lon="5.66269">
        <ele>742.398438</ele>
        <time>2017-03-28T11:17:55Z</time>
      </trkpt>
      <trkpt lat="43.31665" lon="5.66305">
        <ele>742.597656</ele>
        <time>2017-03-28T11:18:23Z</time>
      </trkpt>
      <trkpt lat="43.31666" lon="5.66318">
        <ele>743.699219</ele>
        <time>2017-03-28T11:18:32Z</time>
      </trkpt>
      <trkpt lat="43.31669" lon="5.66331">
        <ele>744.699219</ele>
        <time>2017-03-28T11:18:41Z</time>
      </trkpt>
      <trkpt lat="43.31677" lon="5.66369">
        <ele>747</ele>
        <time>2017-03-28T11:19:09Z</time>
      </trkpt>
      <trkpt lat="43.31679" lon="5.66381">
        <ele>744.699219</ele>
        <time>2017-03-28T11:19:17Z</time>
      </trkpt>
      <trkpt lat="43.31684" lon="5.66393">
        <ele>745.898438</ele>
        <time>2017-03-28T11:19:26Z</time>
      </trkpt>
      <trkpt lat="43.31685" lon="5.66406">
        <ele>747.398438</ele>
        <time>2017-03-28T11:19:35Z</time>
      </trkpt>
      <trkpt lat="43.31686" lon="5.66419">
        <ele>747.597656</ele>
        <time>2017-03-28T11:19:44Z</time>
      </trkpt>
      <trkpt lat="43.31689" lon="5.66432">
        <ele>745.597656</ele>
        <time>2017-03-28T11:19:54Z</time>
      </trkpt>
      <trkpt lat="43.31691" lon="5.66446">
        <ele>745.898438</ele>
        <time>2017-03-28T11:20:03Z</time>
      </trkpt>
      <trkpt lat="43.31691" lon="5.66458">
        <ele>749.097656</ele>
        <time>2017-03-28T11:20:12Z</time>
      </trkpt>
      <trkpt lat="43.31687" lon="5.66469">
        <ele>748.898438</ele>
        <time>2017-03-28T11:20:24Z</time>
      </trkpt>
      <trkpt lat="43.31683" lon="5.66482">
        <ele>749.199219</ele>
        <time>2017-03-28T11:20:33Z</time>
      </trkpt>
      <trkpt lat="43.31679" lon="5.66494">
        <ele>747.097656</ele>
        <time>2017-03-28T11:20:42Z</time>
      </trkpt>
      <trkpt lat="43.31674" lon="5.66506">
        <ele>745.597656</ele>
        <time>2017-03-28T11:20:51Z</time>
      </trkpt>
      <trkpt lat="43.31668" lon="5.66518">
        <ele>744.796875</ele>
        <time>2017-03-28T11:21:00Z</time>
      </trkpt>
      <trkpt lat="43.31645" lon="5.6656">
        <ele>747.796875</ele>
        <time>2017-03-28T11:21:35Z</time>
      </trkpt>
      <trkpt lat="43.31642" lon="5.66572">
        <ele>745.597656</ele>
        <time>2017-03-28T11:21:46Z</time>
      </trkpt>
      <trkpt lat="43.31637" lon="5.66582">
        <ele>745.5</ele>
        <time>2017-03-28T11:21:58Z</time>
      </trkpt>
      <trkpt lat="43.31631" lon="5.66592">
        <ele>741.796875</ele>
        <time>2017-03-28T11:22:08Z</time>
      </trkpt>
      <trkpt lat="43.31628" lon="5.66605">
        <ele>744.898438</ele>
        <time>2017-03-28T11:22:29Z</time>
      </trkpt>
      <trkpt lat="43.31626" lon="5.66618">
        <ele>746.398438</ele>
        <time>2017-03-28T11:22:40Z</time>
      </trkpt>
      <trkpt lat="43.31625" lon="5.66631">
        <ele>745.398438</ele>
        <time>2017-03-28T11:22:48Z</time>
      </trkpt>
      <trkpt lat="43.31626" lon="5.66643">
        <ele>743.898438</ele>
        <time>2017-03-28T11:22:56Z</time>
      </trkpt>
      <trkpt lat="43.31625" lon="5.66657">
        <ele>744.097656</ele>
        <time>2017-03-28T11:23:06Z</time>
      </trkpt>
      <trkpt lat="43.31623" lon="5.6667">
        <ele>743.898438</ele>
        <time>2017-03-28T11:23:15Z</time>
      </trkpt>
      <trkpt lat="43.31623" lon="5.66684">
        <ele>742.699219</ele>
        <time>2017-03-28T11:23:23Z</time>
      </trkpt>
      <trkpt lat="43.31626" lon="5.66697">
        <ele>743.898438</ele>
        <time>2017-03-28T11:23:32Z</time>
      </trkpt>
      <trkpt lat="43.31627" lon="5.6671">
        <ele>742.597656</ele>
        <time>2017-03-28T11:23:42Z</time>
      </trkpt>
      <trkpt lat="43.31631" lon="5.66721">
        <ele>741.398438</ele>
        <time>2017-03-28T11:23:53Z</time>
      </trkpt>
      <trkpt lat="43.3164" lon="5.66744">
        <ele>746.097656</ele>
        <time>2017-03-28T11:24:15Z</time>
      </trkpt>
      <trkpt lat="43.31641" lon="5.66757">
        <ele>742.5</ele>
        <time>2017-03-28T11:24:24Z</time>
      </trkpt>
      <trkpt lat="43.31647" lon="5.66768">
        <ele>740.199219</ele>
        <time>2017-03-28T11:24:32Z</time>
      </trkpt>
      <trkpt lat="43.31652" lon="5.66779">
        <ele>740.796875</ele>
        <time>2017-03-28T11:24:39Z</time>
      </trkpt>
      <trkpt lat="43.31656" lon="5.6679">
        <ele>743</ele>
        <time>2017-03-28T11:24:46Z</time>
      </trkpt>
      <trkpt lat="43.31659" lon="5.66802">
        <ele>745.597656</ele>
        <time>2017-03-28T11:24:53Z</time>
      </trkpt>
      <trkpt lat="43.31663" lon="5.66829">
        <ele>748</ele>
        <time>2017-03-28T11:25:12Z</time>
      </trkpt>
      <trkpt lat="43.31666" lon="5.66841">
        <ele>749.097656</ele>
        <time>2017-03-28T11:25:21Z</time>
      </trkpt>
      <trkpt lat="43.31667" lon="5.66853">
        <ele>750.699219</ele>
        <time>2017-03-28T11:25:30Z</time>
      </trkpt>
      <trkpt lat="43.31666" lon="5.66866">
        <ele>757.898438</ele>
        <time>2017-03-28T11:25:39Z</time>
      </trkpt>
      <trkpt lat="43.31664" lon="5.66882">
        <ele>750.199219</ele>
        <time>2017-03-28T11:28:21Z</time>
      </trkpt>
      <trkpt lat="43.31665" lon="5.66895">
        <ele>748.296875</ele>
        <time>2017-03-28T11:28:31Z</time>
      </trkpt>
      <trkpt lat="43.3166" lon="5.66905">
        <ele>748.898438</ele>
        <time>2017-03-28T11:28:41Z</time>
      </trkpt>
      <trkpt lat="43.31655" lon="5.66915">
        <ele>750.796875</ele>
        <time>2017-03-28T11:28:49Z</time>
      </trkpt>
      <trkpt lat="43.31649" lon="5.66925">
        <ele>751.199219</ele>
        <time>2017-03-28T11:28:56Z</time>
      </trkpt>
      <trkpt lat="43.31645" lon="5.66938">
        <ele>751</ele>
        <time>2017-03-28T11:29:04Z</time>
      </trkpt>
      <trkpt lat="43.31644" lon="5.6695">
        <ele>750.398438</ele>
        <time>2017-03-28T11:29:11Z</time>
      </trkpt>
      <trkpt lat="43.31646" lon="5.66963">
        <ele>749.699219</ele>
        <time>2017-03-28T11:29:19Z</time>
      </trkpt>
      <trkpt lat="43.31648" lon="5.66976">
        <ele>748.796875</ele>
        <time>2017-03-28T11:29:28Z</time>
      </trkpt>
      <trkpt lat="43.31647" lon="5.66989">
        <ele>747.296875</ele>
        <time>2017-03-28T11:29:36Z</time>
      </trkpt>
      <trkpt lat="43.31649" lon="5.67002">
        <ele>749.699219</ele>
        <time>2017-03-28T11:29:46Z</time>
      </trkpt>
      <trkpt lat="43.31653" lon="5.67015">
        <ele>755.398438</ele>
        <time>2017-03-28T11:29:57Z</time>
      </trkpt>
      <trkpt lat="43.31654" lon="5.67027">
        <ele>758.898438</ele>
        <time>2017-03-28T11:30:06Z</time>
      </trkpt>
      <trkpt lat="43.31652" lon="5.67041">
        <ele>760.097656</ele>
        <time>2017-03-28T11:30:15Z</time>
      </trkpt>
      <trkpt lat="43.31652" lon="5.67054">
        <ele>757.699219</ele>
        <time>2017-03-28T11:30:25Z</time>
      </trkpt>
      <trkpt lat="43.31653" lon="5.67067">
        <ele>756.398438</ele>
        <time>2017-03-28T11:30:34Z</time>
      </trkpt>
      <trkpt lat="43.31652" lon="5.6708">
        <ele>756.296875</ele>
        <time>2017-03-28T11:30:44Z</time>
      </trkpt>
      <trkpt lat="43.31649" lon="5.67092">
        <ele>757.898438</ele>
        <time>2017-03-28T11:30:52Z</time>
      </trkpt>
      <trkpt lat="43.31644" lon="5.67103">
        <ele>758.597656</ele>
        <time>2017-03-28T11:31:00Z</time>
      </trkpt>
      <trkpt lat="43.31634" lon="5.67125">
        <ele>755.699219</ele>
        <time>2017-03-28T11:31:21Z</time>
      </trkpt>
      <trkpt lat="43.31631" lon="5.67138">
        <ele>754.898438</ele>
        <time>2017-03-28T11:31:30Z</time>
      </trkpt>
      <trkpt lat="43.31632" lon="5.67151">
        <ele>751.296875</ele>
        <time>2017-03-28T11:31:40Z</time>
      </trkpt>
      <trkpt lat="43.31633" lon="5.67164">
        <ele>751.898438</ele>
        <time>2017-03-28T11:31:51Z</time>
      </trkpt>
      <trkpt lat="43.31636" lon="5.67177">
        <ele>755.597656</ele>
        <time>2017-03-28T11:32:01Z</time>
      </trkpt>
      <trkpt lat="43.31638" lon="5.6719">
        <ele>759.199219</ele>
        <time>2017-03-28T11:32:10Z</time>
      </trkpt>
      <trkpt lat="43.3164" lon="5.67216">
        <ele>762.597656</ele>
        <time>2017-03-28T11:32:27Z</time>
      </trkpt>
      <trkpt lat="43.3164" lon="5.6723">
        <ele>764.597656</ele>
        <time>2017-03-28T11:32:35Z</time>
      </trkpt>
      <trkpt lat="43.31643" lon="5.67243">
        <ele>765.597656</ele>
        <time>2017-03-28T11:32:43Z</time>
      </trkpt>
      <trkpt lat="43.31649" lon="5.67253">
        <ele>764.296875</ele>
        <time>2017-03-28T11:32:52Z</time>
      </trkpt>
      <trkpt lat="43.31656" lon="5.67262">
        <ele>762.199219</ele>
        <time>2017-03-28T11:33:01Z</time>
      </trkpt>
      <trkpt lat="43.31663" lon="5.67268">
        <ele>760.597656</ele>
        <time>2017-03-28T11:33:09Z</time>
      </trkpt>
      <trkpt lat="43.31669" lon="5.67278">
        <ele>760.199219</ele>
        <time>2017-03-28T11:33:17Z</time>
      </trkpt>
      <trkpt lat="43.31676" lon="5.67288">
        <ele>759.898438</ele>
        <time>2017-03-28T11:33:26Z</time>
      </trkpt>
      <trkpt lat="43.3168" lon="5.67299">
        <ele>760.699219</ele>
        <time>2017-03-28T11:33:36Z</time>
      </trkpt>
      <trkpt lat="43.31682" lon="5.67313">
        <ele>762.699219</ele>
        <time>2017-03-28T11:33:45Z</time>
      </trkpt>
      <trkpt lat="43.31682" lon="5.67326">
        <ele>765.699219</ele>
        <time>2017-03-28T11:33:54Z</time>
      </trkpt>
      <trkpt lat="43.31679" lon="5.67339">
        <ele>767.597656</ele>
        <time>2017-03-28T11:34:02Z</time>
      </trkpt>
      <trkpt lat="43.31667" lon="5.67388">
        <ele>771.5</ele>
        <time>2017-03-28T11:34:36Z</time>
      </trkpt>
      <trkpt lat="43.31668" lon="5.67401">
        <ele>768.796875</ele>
        <time>2017-03-28T11:34:45Z</time>
      </trkpt>
      <trkpt lat="43.31671" lon="5.67413">
        <ele>770</ele>
        <time>2017-03-28T11:34:55Z</time>
      </trkpt>
      <trkpt lat="43.31674" lon="5.67426">
        <ele>769.5</ele>
        <time>2017-03-28T11:35:05Z</time>
      </trkpt>
      <trkpt lat="43.31675" lon="5.67438">
        <ele>768.5</ele>
        <time>2017-03-28T11:35:14Z</time>
      </trkpt>
      <trkpt lat="43.31679" lon="5.67449">
        <ele>770</ele>
        <time>2017-03-28T11:35:23Z</time>
      </trkpt>
      <trkpt lat="43.31684" lon="5.67461">
        <ele>770.398438</ele>
        <time>2017-03-28T11:35:33Z</time>
      </trkpt>
      <trkpt lat="43.31689" lon="5.67472">
        <ele>768.699219</ele>
        <time>2017-03-28T11:35:43Z</time>
      </trkpt>
      <trkpt lat="43.31704" lon="5.67506">
        <ele>768.199219</ele>
        <time>2017-03-28T11:36:09Z</time>
      </trkpt>
      <trkpt lat="43.3171" lon="5.67515">
        <ele>766.699219</ele>
        <time>2017-03-28T11:36:17Z</time>
      </trkpt>
      <trkpt lat="43.31717" lon="5.67523">
        <ele>767.699219</ele>
        <time>2017-03-28T11:36:25Z</time>
      </trkpt>
      <trkpt lat="43.31724" lon="5.6753">
        <ele>772.199219</ele>
        <time>2017-03-28T11:36:34Z</time>
      </trkpt>
      <trkpt lat="43.3173" lon="5.67541">
        <ele>772.5</ele>
        <time>2017-03-28T11:36:45Z</time>
      </trkpt>
      <trkpt lat="43.31734" lon="5.67553">
        <ele>773.898438</ele>
        <time>2017-03-28T11:36:57Z</time>
      </trkpt>
      <trkpt lat="43.31734" lon="5.67565">
        <ele>767.796875</ele>
        <time>2017-03-28T11:37:05Z</time>
      </trkpt>
      <trkpt lat="43.31735" lon="5.67584">
        <ele>768</ele>
        <time>2017-03-28T11:38:28Z</time>
      </trkpt>
      <trkpt lat="43.31733" lon="5.67636">
        <ele>770.398438</ele>
        <time>2017-03-28T11:39:04Z</time>
      </trkpt>
      <trkpt lat="43.31731" lon="5.67649">
        <ele>769.5</ele>
        <time>2017-03-28T11:39:15Z</time>
      </trkpt>
      <trkpt lat="43.31734" lon="5.67662">
        <ele>766.199219</ele>
        <time>2017-03-28T11:39:25Z</time>
      </trkpt>
      <trkpt lat="43.31738" lon="5.67673">
        <ele>767.699219</ele>
        <time>2017-03-28T11:39:35Z</time>
      </trkpt>
      <trkpt lat="43.31742" lon="5.67685">
        <ele>769.699219</ele>
        <time>2017-03-28T11:39:44Z</time>
      </trkpt>
      <trkpt lat="43.31744" lon="5.67698">
        <ele>772.5</ele>
        <time>2017-03-28T11:39:53Z</time>
      </trkpt>
      <trkpt lat="43.31745" lon="5.67711">
        <ele>773.699219</ele>
        <time>2017-03-28T11:40:02Z</time>
      </trkpt>
      <trkpt lat="43.31746" lon="5.67724">
        <ele>776.398438</ele>
        <time>2017-03-28T11:40:12Z</time>
      </trkpt>
      <trkpt lat="43.31744" lon="5.67736">
        <ele>777.5</ele>
        <time>2017-03-28T11:40:21Z</time>
      </trkpt>
      <trkpt lat="43.31743" lon="5.67749">
        <ele>777.796875</ele>
        <time>2017-03-28T11:40:30Z</time>
      </trkpt>
      <trkpt lat="43.31747" lon="5.67762">
        <ele>778.296875</ele>
        <time>2017-03-28T11:40:40Z</time>
      </trkpt>
      <trkpt lat="43.31762" lon="5.6781">
        <ele>783.097656</ele>
        <time>2017-03-28T11:41:25Z</time>
      </trkpt>
      <trkpt lat="43.31767" lon="5.67821">
        <ele>783.398438</ele>
        <time>2017-03-28T11:41:36Z</time>
      </trkpt>
      <trkpt lat="43.31776" lon="5.67843">
        <ele>787.597656</ele>
        <time>2017-03-28T11:41:57Z</time>
      </trkpt>
      <trkpt lat="43.31795" lon="5.67875">
        <ele>790.597656</ele>
        <time>2017-03-28T11:42:31Z</time>
      </trkpt>
      <trkpt lat="43.31801" lon="5.67884">
        <ele>792</ele>
        <time>2017-03-28T11:42:42Z</time>
      </trkpt>
      <trkpt lat="43.31809" lon="5.67891">
        <ele>793.5</ele>
        <time>2017-03-28T11:42:54Z</time>
      </trkpt>
      <trkpt lat="43.31814" lon="5.67902">
        <ele>793.097656</ele>
        <time>2017-03-28T11:43:04Z</time>
      </trkpt>
      <trkpt lat="43.31822" lon="5.67925">
        <ele>795.597656</ele>
        <time>2017-03-28T11:43:26Z</time>
      </trkpt>
      <trkpt lat="43.31825" lon="5.67937">
        <ele>798.296875</ele>
        <time>2017-03-28T11:43:37Z</time>
      </trkpt>
      <trkpt lat="43.31829" lon="5.67948">
        <ele>798.796875</ele>
        <time>2017-03-28T11:43:48Z</time>
      </trkpt>
      <trkpt lat="43.31831" lon="5.67961">
        <ele>798.199219</ele>
        <time>2017-03-28T11:43:59Z</time>
      </trkpt>
      <trkpt lat="43.31836" lon="5.67972">
        <ele>799.5</ele>
        <time>2017-03-28T11:44:11Z</time>
      </trkpt>
      <trkpt lat="43.31836" lon="5.67985">
        <ele>799.5</ele>
        <time>2017-03-28T11:45:38Z</time>
      </trkpt>
      <trkpt lat="43.31842" lon="5.67996">
        <ele>802</ele>
        <time>2017-03-28T11:45:50Z</time>
      </trkpt>
      <trkpt lat="43.31842" lon="5.68009">
        <ele>803.097656</ele>
        <time>2017-03-28T11:46:00Z</time>
      </trkpt>
      <trkpt lat="43.31844" lon="5.68022">
        <ele>804</ele>
        <time>2017-03-28T11:46:10Z</time>
      </trkpt>
      <trkpt lat="43.31848" lon="5.68063">
        <ele>805.699219</ele>
        <time>2017-03-28T11:46:46Z</time>
      </trkpt>
      <trkpt lat="43.31848" lon="5.68075">
        <ele>807.296875</ele>
        <time>2017-03-28T11:46:55Z</time>
      </trkpt>
      <trkpt lat="43.3185" lon="5.68089">
        <ele>807.898438</ele>
        <time>2017-03-28T11:47:05Z</time>
      </trkpt>
      <trkpt lat="43.31849" lon="5.68101">
        <ele>809.5</ele>
        <time>2017-03-28T11:47:14Z</time>
      </trkpt>
      <trkpt lat="43.31846" lon="5.68113">
        <ele>814</ele>
        <time>2017-03-28T11:47:24Z</time>
      </trkpt>
      <trkpt lat="43.31844" lon="5.68126">
        <ele>813.097656</ele>
        <time>2017-03-28T11:47:38Z</time>
      </trkpt>
      <trkpt lat="43.31842" lon="5.68153">
        <ele>812.097656</ele>
        <time>2017-03-28T11:48:01Z</time>
      </trkpt>
      <trkpt lat="43.31842" lon="5.68166">
        <ele>811.5</ele>
        <time>2017-03-28T11:48:12Z</time>
      </trkpt>
      <trkpt lat="43.31842" lon="5.68178">
        <ele>812.699219</ele>
        <time>2017-03-28T11:48:24Z</time>
      </trkpt>
      <trkpt lat="43.31839" lon="5.68191">
        <ele>813.5</ele>
        <time>2017-03-28T11:48:33Z</time>
      </trkpt>
      <trkpt lat="43.31834" lon="5.68216">
        <ele>815.597656</ele>
        <time>2017-03-28T11:48:54Z</time>
      </trkpt>
      <trkpt lat="43.31829" lon="5.68227">
        <ele>816.199219</ele>
        <time>2017-03-28T11:49:04Z</time>
      </trkpt>
      <trkpt lat="43.31827" lon="5.6824">
        <ele>816.199219</ele>
        <time>2017-03-28T11:49:14Z</time>
      </trkpt>
      <trkpt lat="43.31824" lon="5.68253">
        <ele>817.199219</ele>
        <time>2017-03-28T11:49:23Z</time>
      </trkpt>
      <trkpt lat="43.31817" lon="5.68276">
        <ele>820.097656</ele>
        <time>2017-03-28T11:49:43Z</time>
      </trkpt>
      <trkpt lat="43.31813" lon="5.68288">
        <ele>820.898438</ele>
        <time>2017-03-28T11:49:55Z</time>
      </trkpt>
      <trkpt lat="43.3181" lon="5.683">
        <ele>821.597656</ele>
        <time>2017-03-28T11:50:08Z</time>
      </trkpt>
      <trkpt lat="43.31807" lon="5.68312">
        <ele>829.5</ele>
        <time>2017-03-28T11:50:22Z</time>
      </trkpt>
      <trkpt lat="43.318" lon="5.6832">
        <ele>831.5</ele>
        <time>2017-03-28T11:50:38Z</time>
      </trkpt>
      <trkpt lat="43.31798" lon="5.68333">
        <ele>827.5</ele>
        <time>2017-03-28T11:50:50Z</time>
      </trkpt>
      <trkpt lat="43.31796" lon="5.68346">
        <ele>829.898438</ele>
        <time>2017-03-28T11:51:02Z</time>
      </trkpt>
      <trkpt lat="43.31789" lon="5.68354">
        <ele>832.398438</ele>
        <time>2017-03-28T11:51:15Z</time>
      </trkpt>
      <trkpt lat="43.31786" lon="5.68366">
        <ele>840.5</ele>
        <time>2017-03-28T11:51:37Z</time>
      </trkpt>
      <trkpt lat="43.31776" lon="5.68367">
        <ele>840.199219</ele>
        <time>2017-03-28T11:51:59Z</time>
      </trkpt>
      <trkpt lat="43.31771" lon="5.68378">
        <ele>835.699219</ele>
        <time>2017-03-28T11:52:12Z</time>
      </trkpt>
      <trkpt lat="43.31765" lon="5.68388">
        <ele>836.796875</ele>
        <time>2017-03-28T11:52:24Z</time>
      </trkpt>
      <trkpt lat="43.31756" lon="5.68385">
        <ele>840</ele>
        <time>2017-03-28T11:52:36Z</time>
      </trkpt>
      <trkpt lat="43.31748" lon="5.6838">
        <ele>841</ele>
        <time>2017-03-28T11:52:46Z</time>
      </trkpt>
      <trkpt lat="43.31739" lon="5.68378">
        <ele>842.296875</ele>
        <time>2017-03-28T11:52:59Z</time>
      </trkpt>
      <trkpt lat="43.31729" lon="5.6838">
        <ele>843.597656</ele>
        <time>2017-03-28T11:53:12Z</time>
      </trkpt>
      <trkpt lat="43.3172" lon="5.68381">
        <ele>842.898438</ele>
        <time>2017-03-28T11:53:24Z</time>
      </trkpt>
      <trkpt lat="43.3171" lon="5.68381">
        <ele>842.5</ele>
        <time>2017-03-28T11:53:35Z</time>
      </trkpt>
      <trkpt lat="43.31701" lon="5.6838">
        <ele>848.296875</ele>
        <time>2017-03-28T11:53:48Z</time>
      </trkpt>
      <trkpt lat="43.31691" lon="5.68383">
        <ele>852.75</ele>
        <time>2017-03-28T11:54:05Z</time>
      </trkpt>
      <trkpt lat="43.31682" lon="5.68383">
        <ele>854.097656</ele>
        <time>2017-03-28T11:55:51Z</time>
      </trkpt>
      <trkpt lat="43.31673" lon="5.68384">
        <ele>856.898438</ele>
        <time>2017-03-28T11:56:01Z</time>
      </trkpt>
      <trkpt lat="43.31665" lon="5.68391">
        <ele>859.699219</ele>
        <time>2017-03-28T11:56:13Z</time>
      </trkpt>
      <trkpt lat="43.31658" lon="5.684">
        <ele>859</ele>
        <time>2017-03-28T11:56:23Z</time>
      </trkpt>
      <trkpt lat="43.31653" lon="5.68411">
        <ele>859.699219</ele>
        <time>2017-03-28T11:56:33Z</time>
      </trkpt>
      <trkpt lat="43.31652" lon="5.68424">
        <ele>859</ele>
        <time>2017-03-28T11:56:47Z</time>
      </trkpt>
      <trkpt lat="43.31653" lon="5.68437">
        <ele>860.398438</ele>
        <time>2017-03-28T11:57:00Z</time>
      </trkpt>
      <trkpt lat="43.31655" lon="5.68449">
        <ele>861.097656</ele>
        <time>2017-03-28T11:57:11Z</time>
      </trkpt>
      <trkpt lat="43.31656" lon="5.68462">
        <ele>861.597656</ele>
        <time>2017-03-28T11:57:20Z</time>
      </trkpt>
      <trkpt lat="43.31653" lon="5.68475">
        <ele>862.898438</ele>
        <time>2017-03-28T11:57:28Z</time>
      </trkpt>
      <trkpt lat="43.31655" lon="5.68488">
        <ele>865.597656</ele>
        <time>2017-03-28T11:57:38Z</time>
      </trkpt>
      <trkpt lat="43.31653" lon="5.685">
        <ele>867.097656</ele>
        <time>2017-03-28T11:57:48Z</time>
      </trkpt>
      <trkpt lat="43.31655" lon="5.68513">
        <ele>868.296875</ele>
        <time>2017-03-28T11:57:57Z</time>
      </trkpt>
      <trkpt lat="43.31651" lon="5.68526">
        <ele>866.097656</ele>
        <time>2017-03-28T11:58:13Z</time>
      </trkpt>
      <trkpt lat="43.31652" lon="5.68538">
        <ele>866.296875</ele>
        <time>2017-03-28T11:58:23Z</time>
      </trkpt>
      <trkpt lat="43.31647" lon="5.6855">
        <ele>865.5</ele>
        <time>2017-03-28T11:58:34Z</time>
      </trkpt>
      <trkpt lat="43.31642" lon="5.68561">
        <ele>861.925781</ele>
        <time>2017-03-28T11:58:43Z</time>
      </trkpt>
      <trkpt lat="43.3164" lon="5.68573">
        <ele>861.796875</ele>
        <time>2017-03-28T11:59:03Z</time>
      </trkpt>
      <trkpt lat="43.31639" lon="5.68586">
        <ele>860.398438</ele>
        <time>2017-03-28T11:59:12Z</time>
      </trkpt>
      <trkpt lat="43.31636" lon="5.68598">
        <ele>864</ele>
        <time>2017-03-28T11:59:22Z</time>
      </trkpt>
      <trkpt lat="43.31626" lon="5.68597">
        <ele>862.898438</ele>
        <time>2017-03-28T12:01:25Z</time>
      </trkpt>
      <trkpt lat="43.31619" lon="5.68588">
        <ele>861.097656</ele>
        <time>2017-03-28T12:01:35Z</time>
      </trkpt>
      <trkpt lat="43.31611" lon="5.68582">
        <ele>857</ele>
        <time>2017-03-28T12:01:44Z</time>
      </trkpt>
      <trkpt lat="43.31604" lon="5.68574">
        <ele>851.699219</ele>
        <time>2017-03-28T12:01:56Z</time>
      </trkpt>
      <trkpt lat="43.31572" lon="5.68537">
        <ele>836.492188</ele>
        <time>2017-03-28T12:03:14Z</time>
      </trkpt>
      <trkpt lat="43.31568" lon="5.68526">
        <ele>835.097656</ele>
        <time>2017-03-28T12:03:42Z</time>
      </trkpt>
      <trkpt lat="43.31561" lon="5.68518">
        <ele>827.5</ele>
        <time>2017-03-28T12:03:48Z</time>
      </trkpt>
      <trkpt lat="43.31544" lon="5.68495">
        <ele>823.597656</ele>
        <time>2017-03-28T12:04:32Z</time>
      </trkpt>
      <trkpt lat="43.31538" lon="5.68485">
        <ele>820.398438</ele>
        <time>2017-03-28T12:04:47Z</time>
      </trkpt>
      <trkpt lat="43.31533" lon="5.68475">
        <ele>819.597656</ele>
        <time>2017-03-28T12:05:03Z</time>
      </trkpt>
      <trkpt lat="43.31528" lon="5.68463">
        <ele>817.296875</ele>
        <time>2017-03-28T12:05:17Z</time>
      </trkpt>
      <trkpt lat="43.31523" lon="5.68453">
        <ele>811.699219</ele>
        <time>2017-03-28T12:05:30Z</time>
      </trkpt>
      <trkpt lat="43.3152" lon="5.68441">
        <ele>807.5</ele>
        <time>2017-03-28T12:05:43Z</time>
      </trkpt>
      <trkpt lat="43.31514" lon="5.6843">
        <ele>802.832031</ele>
        <time>2017-03-28T12:06:01Z</time>
      </trkpt>
      <trkpt lat="43.31507" lon="5.68421">
        <ele>802.296875</ele>
        <time>2017-03-28T12:06:18Z</time>
      </trkpt>
      <trkpt lat="43.31505" lon="5.68409">
        <ele>798.296875</ele>
        <time>2017-03-28T12:06:35Z</time>
      </trkpt>
      <trkpt lat="43.31505" lon="5.68396">
        <ele>794.5</ele>
        <time>2017-03-28T12:06:47Z</time>
      </trkpt>
      <trkpt lat="43.31507" lon="5.68383">
        <ele>792.097656</ele>
        <time>2017-03-28T12:06:58Z</time>
      </trkpt>
      <trkpt lat="43.31503" lon="5.68371">
        <ele>791.699219</ele>
        <time>2017-03-28T12:07:10Z</time>
      </trkpt>
      <trkpt lat="43.31498" lon="5.6836">
        <ele>789.539063</ele>
        <time>2017-03-28T12:07:20Z</time>
      </trkpt>
      <trkpt lat="43.31481" lon="5.68329">
        <ele>780.097656</ele>
        <time>2017-03-28T12:07:54Z</time>
      </trkpt>
      <trkpt lat="43.31473" lon="5.6832">
        <ele>775.597656</ele>
        <time>2017-03-28T12:08:02Z</time>
      </trkpt>
      <trkpt lat="43.31468" lon="5.68309">
        <ele>774.898438</ele>
        <time>2017-03-28T12:08:13Z</time>
      </trkpt>
      <trkpt lat="43.3146" lon="5.68302">
        <ele>772</ele>
        <time>2017-03-28T12:08:24Z</time>
      </trkpt>
      <trkpt lat="43.31457" lon="5.68289">
        <ele>770.597656</ele>
        <time>2017-03-28T12:08:33Z</time>
      </trkpt>
      <trkpt lat="43.31452" lon="5.68278">
        <ele>766.199219</ele>
        <time>2017-03-28T12:08:42Z</time>
      </trkpt>
      <trkpt lat="43.31446" lon="5.68268">
        <ele>763.898438</ele>
        <time>2017-03-28T12:08:51Z</time>
      </trkpt>
      <trkpt lat="43.31439" lon="5.68259">
        <ele>761.597656</ele>
        <time>2017-03-28T12:09:02Z</time>
      </trkpt>
      <trkpt lat="43.31433" lon="5.68248">
        <ele>759.296875</ele>
        <time>2017-03-28T12:09:12Z</time>
      </trkpt>
      <trkpt lat="43.31421" lon="5.68227">
        <ele>759.097656</ele>
        <time>2017-03-28T12:09:30Z</time>
      </trkpt>
      <trkpt lat="43.31419" lon="5.68215">
        <ele>761.597656</ele>
        <time>2017-03-28T12:09:42Z</time>
      </trkpt>
      <trkpt lat="43.31414" lon="5.68204">
        <ele>758.097656</ele>
        <time>2017-03-28T12:09:55Z</time>
      </trkpt>
      <trkpt lat="43.31409" lon="5.68193">
        <ele>755.398438</ele>
        <time>2017-03-28T12:10:10Z</time>
      </trkpt>
      <trkpt lat="43.31402" lon="5.68186">
        <ele>753.199219</ele>
        <time>2017-03-28T12:10:38Z</time>
      </trkpt>
      <trkpt lat="43.31386" lon="5.68173">
        <ele>748.796875</ele>
        <time>2017-03-28T12:11:11Z</time>
      </trkpt>
      <trkpt lat="43.31376" lon="5.68168">
        <ele>746.03125</ele>
        <time>2017-03-28T12:11:27Z</time>
      </trkpt>
      <trkpt lat="43.31359" lon="5.68158">
        <ele>740.542969</ele>
        <time>2017-03-28T12:11:50Z</time>
      </trkpt>
      <trkpt lat="43.31351" lon="5.68153">
        <ele>740.199219</ele>
        <time>2017-03-28T12:12:08Z</time>
      </trkpt>
      <trkpt lat="43.31341" lon="5.68147">
        <ele>738.898438</ele>
        <time>2017-03-28T12:12:21Z</time>
      </trkpt>
      <trkpt lat="43.31333" lon="5.68139">
        <ele>733.796875</ele>
        <time>2017-03-28T12:12:31Z</time>
      </trkpt>
      <trkpt lat="43.3131" lon="5.68115">
        <ele>734.699219</ele>
        <time>2017-03-28T12:13:03Z</time>
      </trkpt>
      <trkpt lat="43.31308" lon="5.68102">
        <ele>731.949219</ele>
        <time>2017-03-28T12:13:21Z</time>
      </trkpt>
      <trkpt lat="43.31304" lon="5.68091">
        <ele>738</ele>
        <time>2017-03-28T12:13:34Z</time>
      </trkpt>
      <trkpt lat="43.31307" lon="5.68076">
        <ele>748.597656</ele>
        <time>2017-03-28T12:14:02Z</time>
      </trkpt>
      <trkpt lat="43.31306" lon="5.68064">
        <ele>727</ele>
        <time>2017-03-28T12:14:49Z</time>
      </trkpt>
      <trkpt lat="43.31298" lon="5.6807">
        <ele>754.398438</ele>
        <time>2017-03-28T12:15:40Z</time>
      </trkpt>
      <trkpt lat="43.31308" lon="5.68063">
        <ele>748.597656</ele>
        <time>2017-03-28T12:16:34Z</time>
      </trkpt>
      <trkpt lat="43.31318" lon="5.68053">
        <ele>746.398438</ele>
        <time>2017-03-28T12:16:53Z</time>
      </trkpt>
      <trkpt lat="43.31307" lon="5.68066">
        <ele>745.699219</ele>
        <time>2017-03-28T12:17:04Z</time>
      </trkpt>
      <trkpt lat="43.31298" lon="5.68066">
        <ele>745.097656</ele>
        <time>2017-03-28T12:17:25Z</time>
      </trkpt>
      <trkpt lat="43.31311" lon="5.68056">
        <ele>744.898438</ele>
        <time>2017-03-28T12:17:56Z</time>
      </trkpt>
      <trkpt lat="43.31321" lon="5.68052">
        <ele>744.796875</ele>
        <time>2017-03-28T12:18:08Z</time>
      </trkpt>
      <trkpt lat="43.31341" lon="5.68041">
        <ele>741.597656</ele>
        <time>2017-03-28T12:18:18Z</time>
      </trkpt>
      <trkpt lat="43.31336" lon="5.6803">
        <ele>737.296875</ele>
        <time>2017-03-28T12:18:23Z</time>
      </trkpt>
      <trkpt lat="43.31328" lon="5.68023">
        <ele>736.515625</ele>
        <time>2017-03-28T12:18:29Z</time>
      </trkpt>
      <trkpt lat="43.31321" lon="5.68015">
        <ele>736</ele>
        <time>2017-03-28T12:18:46Z</time>
      </trkpt>
      <trkpt lat="43.31316" lon="5.68003">
        <ele>733.296875</ele>
        <time>2017-03-28T12:18:58Z</time>
      </trkpt>
      <trkpt lat="43.31325" lon="5.67995">
        <ele>725.699219</ele>
        <time>2017-03-28T12:19:26Z</time>
      </trkpt>
      <trkpt lat="43.31332" lon="5.67986">
        <ele>720.296875</ele>
        <time>2017-03-28T12:19:41Z</time>
      </trkpt>
      <trkpt lat="43.31328" lon="5.67972">
        <ele>715.429688</ele>
        <time>2017-03-28T12:20:02Z</time>
      </trkpt>
      <trkpt lat="43.31329" lon="5.6796">
        <ele>711.699219</ele>
        <time>2017-03-28T12:20:25Z</time>
      </trkpt>
      <trkpt lat="43.3133" lon="5.67938">
        <ele>708.5</ele>
        <time>2017-03-28T12:20:41Z</time>
      </trkpt>
      <trkpt lat="43.31332" lon="5.67925">
        <ele>704.199219</ele>
        <time>2017-03-28T12:20:55Z</time>
      </trkpt>
      <trkpt lat="43.31338" lon="5.67916">
        <ele>699.898438</ele>
        <time>2017-03-28T12:21:09Z</time>
      </trkpt>
      <trkpt lat="43.3134" lon="5.67902">
        <ele>696</ele>
        <time>2017-03-28T12:21:30Z</time>
      </trkpt>
      <trkpt lat="43.31333" lon="5.67894">
        <ele>693.597656</ele>
        <time>2017-03-28T12:21:42Z</time>
      </trkpt>
      <trkpt lat="43.31328" lon="5.6788">
        <ele>691.585938</ele>
        <time>2017-03-28T12:22:01Z</time>
      </trkpt>
      <trkpt lat="43.31323" lon="5.67868">
        <ele>686.097656</ele>
        <time>2017-03-28T12:22:19Z</time>
      </trkpt>
      <trkpt lat="43.31321" lon="5.67856">
        <ele>684.199219</ele>
        <time>2017-03-28T12:22:28Z</time>
      </trkpt>
      <trkpt lat="43.31319" lon="5.67843">
        <ele>680.597656</ele>
        <time>2017-03-28T12:22:41Z</time>
      </trkpt>
      <trkpt lat="43.31315" lon="5.67832">
        <ele>678.5</ele>
        <time>2017-03-28T12:22:52Z</time>
      </trkpt>
      <trkpt lat="43.31311" lon="5.67819">
        <ele>674.5</ele>
        <time>2017-03-28T12:23:02Z</time>
      </trkpt>
      <trkpt lat="43.31314" lon="5.67806">
        <ele>670.898438</ele>
        <time>2017-03-28T12:23:12Z</time>
      </trkpt>
      <trkpt lat="43.31317" lon="5.67794">
        <ele>672</ele>
        <time>2017-03-28T12:23:21Z</time>
      </trkpt>
      <trkpt lat="43.31321" lon="5.67783">
        <ele>672.398438</ele>
        <time>2017-03-28T12:23:29Z</time>
      </trkpt>
      <trkpt lat="43.31325" lon="5.67771">
        <ele>673.5</ele>
        <time>2017-03-28T12:23:38Z</time>
      </trkpt>
      <trkpt lat="43.31326" lon="5.67759">
        <ele>673.398438</ele>
        <time>2017-03-28T12:23:48Z</time>
      </trkpt>
      <trkpt lat="43.31323" lon="5.67746">
        <ele>670.898438</ele>
        <time>2017-03-28T12:24:00Z</time>
      </trkpt>
      <trkpt lat="43.3132" lon="5.67735">
        <ele>667.398438</ele>
        <time>2017-03-28T12:24:12Z</time>
      </trkpt>
      <trkpt lat="43.31314" lon="5.67724">
        <ele>664.398438</ele>
        <time>2017-03-28T12:24:23Z</time>
      </trkpt>
      <trkpt lat="43.31312" lon="5.67711">
        <ele>661.398438</ele>
        <time>2017-03-28T12:24:35Z</time>
      </trkpt>
      <trkpt lat="43.31308" lon="5.67699">
        <ele>659</ele>
        <time>2017-03-28T12:24:47Z</time>
      </trkpt>
      <trkpt lat="43.31301" lon="5.67675">
        <ele>655.597656</ele>
        <time>2017-03-28T12:25:13Z</time>
      </trkpt>
      <trkpt lat="43.31304" lon="5.67663">
        <ele>655.699219</ele>
        <time>2017-03-28T12:25:36Z</time>
      </trkpt>
      <trkpt lat="43.31312" lon="5.67656">
        <ele>653.699219</ele>
        <time>2017-03-28T12:25:49Z</time>
      </trkpt>
      <trkpt lat="43.31314" lon="5.67644">
        <ele>653.296875</ele>
        <time>2017-03-28T12:26:00Z</time>
      </trkpt>
      <trkpt lat="43.31312" lon="5.67632">
        <ele>653.398438</ele>
        <time>2017-03-28T12:26:09Z</time>
      </trkpt>
      <trkpt lat="43.31309" lon="5.67619">
        <ele>654.097656</ele>
        <time>2017-03-28T12:26:18Z</time>
      </trkpt>
      <trkpt lat="43.31304" lon="5.67607">
        <ele>651.898438</ele>
        <time>2017-03-28T12:26:27Z</time>
      </trkpt>
      <trkpt lat="43.31297" lon="5.67598">
        <ele>647</ele>
        <time>2017-03-28T12:26:35Z</time>
      </trkpt>
      <trkpt lat="43.31294" lon="5.67586">
        <ele>647.597656</ele>
        <time>2017-03-28T12:26:54Z</time>
      </trkpt>
      <trkpt lat="43.31301" lon="5.67579">
        <ele>648.898438</ele>
        <time>2017-03-28T12:27:22Z</time>
      </trkpt>
      <trkpt lat="43.31302" lon="5.67567">
        <ele>649.796875</ele>
        <time>2017-03-28T12:27:30Z</time>
      </trkpt>
      <trkpt lat="43.31298" lon="5.67555">
        <ele>652</ele>
        <time>2017-03-28T12:27:39Z</time>
      </trkpt>
      <trkpt lat="43.31292" lon="5.67545">
        <ele>652.699219</ele>
        <time>2017-03-28T12:27:48Z</time>
      </trkpt>
      <trkpt lat="43.31288" lon="5.67533">
        <ele>652.097656</ele>
        <time>2017-03-28T12:27:57Z</time>
      </trkpt>
      <trkpt lat="43.31283" lon="5.67522">
        <ele>651</ele>
        <time>2017-03-28T12:28:06Z</time>
      </trkpt>
      <trkpt lat="43.31279" lon="5.6751">
        <ele>653.027344</ele>
        <time>2017-03-28T12:28:16Z</time>
      </trkpt>
      <trkpt lat="43.31283" lon="5.67499">
        <ele>659.398438</ele>
        <time>2017-03-28T12:29:27Z</time>
      </trkpt>
      <trkpt lat="43.31277" lon="5.6749">
        <ele>656.5</ele>
        <time>2017-03-28T12:31:17Z</time>
      </trkpt>
      <trkpt lat="43.31272" lon="5.67479">
        <ele>656.296875</ele>
        <time>2017-03-28T12:31:25Z</time>
      </trkpt>
      <trkpt lat="43.31263" lon="5.67455">
        <ele>660.097656</ele>
        <time>2017-03-28T12:31:43Z</time>
      </trkpt>
      <trkpt lat="43.31263" lon="5.67441">
        <ele>660.5</ele>
        <time>2017-03-28T12:31:51Z</time>
      </trkpt>
      <trkpt lat="43.31263" lon="5.67428">
        <ele>660.199219</ele>
        <time>2017-03-28T12:31:58Z</time>
      </trkpt>
      <trkpt lat="43.3126" lon="5.67416">
        <ele>659.898438</ele>
        <time>2017-03-28T12:32:05Z</time>
      </trkpt>
      <trkpt lat="43.31258" lon="5.67403">
        <ele>659.796875</ele>
        <time>2017-03-28T12:32:12Z</time>
      </trkpt>
      <trkpt lat="43.31257" lon="5.67389">
        <ele>658.5</ele>
        <time>2017-03-28T12:32:20Z</time>
      </trkpt>
      <trkpt lat="43.31255" lon="5.67364">
        <ele>657.199219</ele>
        <time>2017-03-28T12:32:35Z</time>
      </trkpt>
      <trkpt lat="43.31256" lon="5.67351">
        <ele>658.296875</ele>
        <time>2017-03-28T12:32:43Z</time>
      </trkpt>
      <trkpt lat="43.31258" lon="5.67339">
        <ele>659.097656</ele>
        <time>2017-03-28T12:32:51Z</time>
      </trkpt>
      <trkpt lat="43.31257" lon="5.67325">
        <ele>659.097656</ele>
        <time>2017-03-28T12:32:59Z</time>
      </trkpt>
      <trkpt lat="43.31254" lon="5.67313">
        <ele>659.097656</ele>
        <time>2017-03-28T12:33:07Z</time>
      </trkpt>
      <trkpt lat="43.31251" lon="5.67302">
        <ele>660.199219</ele>
        <time>2017-03-28T12:33:16Z</time>
      </trkpt>
      <trkpt lat="43.31249" lon="5.67289">
        <ele>659.296875</ele>
        <time>2017-03-28T12:33:25Z</time>
      </trkpt>
      <trkpt lat="43.31245" lon="5.67276">
        <ele>659.398438</ele>
        <time>2017-03-28T12:33:33Z</time>
      </trkpt>
      <trkpt lat="43.31239" lon="5.67266">
        <ele>660.796875</ele>
        <time>2017-03-28T12:33:42Z</time>
      </trkpt>
      <trkpt lat="43.3123" lon="5.67266">
        <ele>663.398438</ele>
        <time>2017-03-28T12:33:52Z</time>
      </trkpt>
      <trkpt lat="43.31221" lon="5.67257">
        <ele>660.832031</ele>
        <time>2017-03-28T12:34:13Z</time>
      </trkpt>
      <trkpt lat="43.31215" lon="5.67247">
        <ele>661.597656</ele>
        <time>2017-03-28T12:34:32Z</time>
      </trkpt>
      <trkpt lat="43.31208" lon="5.67239">
        <ele>671.296875</ele>
        <time>2017-03-28T12:34:42Z</time>
      </trkpt>
      <trkpt lat="43.31199" lon="5.67233">
        <ele>669.5</ele>
        <time>2017-03-28T12:35:21Z</time>
      </trkpt>
      <trkpt lat="43.31191" lon="5.67228">
        <ele>666.796875</ele>
        <time>2017-03-28T12:35:31Z</time>
      </trkpt>
      <trkpt lat="43.31183" lon="5.67221">
        <ele>663.898438</ele>
        <time>2017-03-28T12:35:44Z</time>
      </trkpt>
      <trkpt lat="43.31174" lon="5.67216">
        <ele>657.597656</ele>
        <time>2017-03-28T12:35:56Z</time>
      </trkpt>
      <trkpt lat="43.31162" lon="5.67205">
        <ele>656.796875</ele>
        <time>2017-03-28T12:37:34Z</time>
      </trkpt>
      <trkpt lat="43.31156" lon="5.67196">
        <ele>655.796875</ele>
        <time>2017-03-28T12:37:52Z</time>
      </trkpt>
      <trkpt lat="43.31147" lon="5.6719">
        <ele>655.898438</ele>
        <time>2017-03-28T12:38:04Z</time>
      </trkpt>
      <trkpt lat="43.31139" lon="5.67183">
        <ele>652.199219</ele>
        <time>2017-03-28T12:38:52Z</time>
      </trkpt>
      <trkpt lat="43.31116" lon="5.6716">
        <ele>643.796875</ele>
        <time>2017-03-28T12:39:32Z</time>
      </trkpt>
      <trkpt lat="43.3111" lon="5.67151">
        <ele>633.480469</ele>
        <time>2017-03-28T12:39:50Z</time>
      </trkpt>
      <trkpt lat="43.31104" lon="5.67141">
        <ele>632</ele>
        <time>2017-03-28T12:41:36Z</time>
      </trkpt>
      <trkpt lat="43.31094" lon="5.67138">
        <ele>631.296875</ele>
        <time>2017-03-28T12:42:23Z</time>
      </trkpt>
      <trkpt lat="43.31086" lon="5.67132">
        <ele>623.5</ele>
        <time>2017-03-28T12:42:42Z</time>
      </trkpt>
      <trkpt lat="43.31076" lon="5.67124">
        <ele>620.597656</ele>
        <time>2017-03-28T12:43:19Z</time>
      </trkpt>
      <trkpt lat="43.31067" lon="5.6712">
        <ele>611.699219</ele>
        <time>2017-03-28T12:43:37Z</time>
      </trkpt>
      <trkpt lat="43.31058" lon="5.67121">
        <ele>613.597656</ele>
        <time>2017-03-28T12:44:11Z</time>
      </trkpt>
      <trkpt lat="43.31051" lon="5.67113">
        <ele>612.699219</ele>
        <time>2017-03-28T12:44:29Z</time>
      </trkpt>
      <trkpt lat="43.31042" lon="5.67111">
        <ele>610.796875</ele>
        <time>2017-03-28T12:44:45Z</time>
      </trkpt>
      <trkpt lat="43.31034" lon="5.67117">
        <ele>608.046875</ele>
        <time>2017-03-28T12:45:05Z</time>
      </trkpt>
      <trkpt lat="43.31025" lon="5.67113">
        <ele>605.5</ele>
        <time>2017-03-28T12:45:24Z</time>
      </trkpt>
      <trkpt lat="43.31019" lon="5.67104">
        <ele>605.199219</ele>
        <time>2017-03-28T12:45:42Z</time>
      </trkpt>
      <trkpt lat="43.31012" lon="5.67095">
        <ele>602.699219</ele>
        <time>2017-03-28T12:45:56Z</time>
      </trkpt>
      <trkpt lat="43.31003" lon="5.67093">
        <ele>601.296875</ele>
        <time>2017-03-28T12:46:18Z</time>
      </trkpt>
      <trkpt lat="43.30991" lon="5.67091">
        <ele>599.699219</ele>
        <time>2017-03-28T12:46:58Z</time>
      </trkpt>
      <trkpt lat="43.3098" lon="5.67091">
        <ele>594.246094</ele>
        <time>2017-03-28T12:47:36Z</time>
      </trkpt>
      <trkpt lat="43.30975" lon="5.67101">
        <ele>578.097656</ele>
        <time>2017-03-28T12:48:52Z</time>
      </trkpt>
      <trkpt lat="43.30959" lon="5.67115">
        <ele>573.199219</ele>
        <time>2017-03-28T12:50:19Z</time>
      </trkpt>
      <trkpt lat="43.3095" lon="5.67112">
        <ele>566.398438</ele>
        <time>2017-03-28T12:53:29Z</time>
      </trkpt>
      <trkpt lat="43.30942" lon="5.67117">
        <ele>561.097656</ele>
        <time>2017-03-28T12:53:43Z</time>
      </trkpt>
      <trkpt lat="43.30934" lon="5.67125">
        <ele>560.097656</ele>
        <time>2017-03-28T12:53:55Z</time>
      </trkpt>
      <trkpt lat="43.30925" lon="5.67129">
        <ele>558.898438</ele>
        <time>2017-03-28T12:54:07Z</time>
      </trkpt>
      <trkpt lat="43.30916" lon="5.67132">
        <ele>557.898438</ele>
        <time>2017-03-28T12:54:18Z</time>
      </trkpt>
      <trkpt lat="43.30906" lon="5.67133">
        <ele>556.898438</ele>
        <time>2017-03-28T12:54:28Z</time>
      </trkpt>
      <trkpt lat="43.30897" lon="5.67128">
        <ele>556</ele>
        <time>2017-03-28T12:54:38Z</time>
      </trkpt>
      <trkpt lat="43.30888" lon="5.67125">
        <ele>552.898438</ele>
        <time>2017-03-28T12:54:49Z</time>
      </trkpt>
      <trkpt lat="43.3087" lon="5.67119">
        <ele>548.296875</ele>
        <time>2017-03-28T12:55:12Z</time>
      </trkpt>
      <trkpt lat="43.3086" lon="5.67119">
        <ele>545.699219</ele>
        <time>2017-03-28T12:55:26Z</time>
      </trkpt>
      <trkpt lat="43.30841" lon="5.67116">
        <ele>541</ele>
        <time>2017-03-28T12:55:49Z</time>
      </trkpt>
      <trkpt lat="43.30832" lon="5.67112">
        <ele>540</ele>
        <time>2017-03-28T12:55:59Z</time>
      </trkpt>
      <trkpt lat="43.30824" lon="5.67106">
        <ele>540.097656</ele>
        <time>2017-03-28T12:56:10Z</time>
      </trkpt>
      <trkpt lat="43.30814" lon="5.67104">
        <ele>538.796875</ele>
        <time>2017-03-28T12:56:21Z</time>
      </trkpt>
      <trkpt lat="43.30805" lon="5.67103">
        <ele>534.535156</ele>
        <time>2017-03-28T12:56:31Z</time>
      </trkpt>
      <trkpt lat="43.30814" lon="5.67105">
        <ele>535.398438</ele>
        <time>2017-03-28T12:57:17Z</time>
      </trkpt>
      <trkpt lat="43.30804" lon="5.67103">
        <ele>532.898438</ele>
        <time>2017-03-28T12:57:45Z</time>
      </trkpt>
      <trkpt lat="43.30795" lon="5.67103">
        <ele>532.097656</ele>
        <time>2017-03-28T12:57:53Z</time>
      </trkpt>
      <trkpt lat="43.30786" lon="5.67102">
        <ele>531.199219</ele>
        <time>2017-03-28T12:58:00Z</time>
      </trkpt>
      <trkpt lat="43.30777" lon="5.671">
        <ele>530.199219</ele>
        <time>2017-03-28T12:58:08Z</time>
      </trkpt>
      <trkpt lat="43.3075" lon="5.6709">
        <ele>521.699219</ele>
        <time>2017-03-28T12:58:41Z</time>
      </trkpt>
      <trkpt lat="43.30741" lon="5.67086">
        <ele>521.5</ele>
        <time>2017-03-28T12:58:51Z</time>
      </trkpt>
      <trkpt lat="43.30732" lon="5.67086">
        <ele>520.097656</ele>
        <time>2017-03-28T12:59:01Z</time>
      </trkpt>
      <trkpt lat="43.30723" lon="5.67084">
        <ele>520.097656</ele>
        <time>2017-03-28T12:59:11Z</time>
      </trkpt>
      <trkpt lat="43.30695" lon="5.67078">
        <ele>514.5</ele>
        <time>2017-03-28T12:59:37Z</time>
      </trkpt>
      <trkpt lat="43.30686" lon="5.6708">
        <ele>513.699219</ele>
        <time>2017-03-28T12:59:47Z</time>
      </trkpt>
      <trkpt lat="43.30667" lon="5.67082">
        <ele>507.597656</ele>
        <time>2017-03-28T13:00:07Z</time>
      </trkpt>
      <trkpt lat="43.30656" lon="5.67085">
        <ele>503.296875</ele>
        <time>2017-03-28T13:01:06Z</time>
      </trkpt>
      <trkpt lat="43.30648" lon="5.67091">
        <ele>501.898438</ele>
        <time>2017-03-28T13:01:18Z</time>
      </trkpt>
      <trkpt lat="43.30639" lon="5.67093">
        <ele>498.199219</ele>
        <time>2017-03-28T13:01:28Z</time>
      </trkpt>
      <trkpt lat="43.30629" lon="5.67096">
        <ele>495.097656</ele>
        <time>2017-03-28T13:01:38Z</time>
      </trkpt>
      <trkpt lat="43.30621" lon="5.67102">
        <ele>495.5</ele>
        <time>2017-03-28T13:01:47Z</time>
      </trkpt>
      <trkpt lat="43.30612" lon="5.67107">
        <ele>494.296875</ele>
        <time>2017-03-28T13:01:57Z</time>
      </trkpt>
      <trkpt lat="43.30604" lon="5.67103">
        <ele>494.398438</ele>
        <time>2017-03-28T13:02:07Z</time>
      </trkpt>
      <trkpt lat="43.30601" lon="5.6709">
        <ele>490.5</ele>
        <time>2017-03-28T13:02:38Z</time>
      </trkpt>
      <trkpt lat="43.30588" lon="5.67089">
        <ele>488.398438</ele>
        <time>2017-03-28T13:05:17Z</time>
      </trkpt>
      <trkpt lat="43.3058" lon="5.6708">
        <ele>489</ele>
        <time>2017-03-28T13:05:29Z</time>
      </trkpt>
      <trkpt lat="43.30572" lon="5.67074">
        <ele>489.199219</ele>
        <time>2017-03-28T13:05:40Z</time>
      </trkpt>
      <trkpt lat="43.30563" lon="5.67068">
        <ele>486.597656</ele>
        <time>2017-03-28T13:05:50Z</time>
      </trkpt>
      <trkpt lat="43.30554" lon="5.67064">
        <ele>484.296875</ele>
        <time>2017-03-28T13:06:02Z</time>
      </trkpt>
      <trkpt lat="43.30545" lon="5.67064">
        <ele>483.296875</ele>
        <time>2017-03-28T13:06:14Z</time>
      </trkpt>
      <trkpt lat="43.30535" lon="5.67062">
        <ele>480.5</ele>
        <time>2017-03-28T13:06:27Z</time>
      </trkpt>
      <trkpt lat="43.30517" lon="5.67055">
        <ele>477.199219</ele>
        <time>2017-03-28T13:06:52Z</time>
      </trkpt>
      <trkpt lat="43.30509" lon="5.67051">
        <ele>471.539063</ele>
        <time>2017-03-28T13:07:05Z</time>
      </trkpt>
      <trkpt lat="43.30491" lon="5.67041">
        <ele>466.5</ele>
        <time>2017-03-28T13:07:54Z</time>
      </trkpt>
      <trkpt lat="43.30482" lon="5.67038">
        <ele>466.097656</ele>
        <time>2017-03-28T13:08:05Z</time>
      </trkpt>
      <trkpt lat="43.30473" lon="5.67042">
        <ele>465.097656</ele>
        <time>2017-03-28T13:08:16Z</time>
      </trkpt>
      <trkpt lat="43.30464" lon="5.67043">
        <ele>457.398438</ele>
        <time>2017-03-28T13:08:29Z</time>
      </trkpt>
      <trkpt lat="43.30452" lon="5.6704">
        <ele>457.898438</ele>
        <time>2017-03-28T13:09:14Z</time>
      </trkpt>
      <trkpt lat="43.30445" lon="5.67031">
        <ele>449.847656</ele>
        <time>2017-03-28T13:09:30Z</time>
      </trkpt>
      <trkpt lat="43.30442" lon="5.67019">
        <ele>445</ele>
        <time>2017-03-28T13:10:01Z</time>
      </trkpt>
      <trkpt lat="43.30433" lon="5.67012">
        <ele>442.089844</ele>
        <time>2017-03-28T13:10:22Z</time>
      </trkpt>
      <trkpt lat="43.30424" lon="5.67011">
        <ele>440.398438</ele>
        <time>2017-03-28T13:10:43Z</time>
      </trkpt>
      <trkpt lat="43.30418" lon="5.67002">
        <ele>438.398438</ele>
        <time>2017-03-28T13:10:54Z</time>
      </trkpt>
      <trkpt lat="43.3041" lon="5.66996">
        <ele>434.222656</ele>
        <time>2017-03-28T13:11:11Z</time>
      </trkpt>
      <trkpt lat="43.30401" lon="5.66992">
        <ele>429.296875</ele>
        <time>2017-03-28T13:11:32Z</time>
      </trkpt>
      <trkpt lat="43.3039" lon="5.66984">
        <ele>429.898438</ele>
        <time>2017-03-28T13:11:59Z</time>
      </trkpt>
      <trkpt lat="43.30381" lon="5.6698">
        <ele>425.597656</ele>
        <time>2017-03-28T13:12:14Z</time>
      </trkpt>
      <trkpt lat="43.30376" lon="5.66969">
        <ele>417.097656</ele>
        <time>2017-03-28T13:12:37Z</time>
      </trkpt>
      <trkpt lat="43.30368" lon="5.66962">
        <ele>414.480469</ele>
        <time>2017-03-28T13:13:28Z</time>
      </trkpt>
      <trkpt lat="43.30362" lon="5.66953">
        <ele>412.199219</ele>
        <time>2017-03-28T13:14:10Z</time>
      </trkpt>
      <trkpt lat="43.30353" lon="5.66944">
        <ele>406.757813</ele>
        <time>2017-03-28T13:14:22Z</time>
      </trkpt>
      <trkpt lat="43.3035" lon="5.66933">
        <ele>400.761719</ele>
        <time>2017-03-28T13:14:42Z</time>
      </trkpt>
      <trkpt lat="43.30342" lon="5.6691">
        <ele>401.699219</ele>
        <time>2017-03-28T13:15:31Z</time>
      </trkpt>
      <trkpt lat="43.30342" lon="5.66897">
        <ele>401.199219</ele>
        <time>2017-03-28T13:15:49Z</time>
      </trkpt>
      <trkpt lat="43.30333" lon="5.66888">
        <ele>401.5</ele>
        <time>2017-03-28T13:16:11Z</time>
      </trkpt>
      <trkpt lat="43.30343" lon="5.6689">
        <ele>405.398438</ele>
        <time>2017-03-28T13:16:51Z</time>
      </trkpt>
      <trkpt lat="43.30336" lon="5.6688">
        <ele>404.398438</ele>
        <time>2017-03-28T13:17:23Z</time>
      </trkpt>
      <trkpt lat="43.30328" lon="5.66874">
        <ele>398.597656</ele>
        <time>2017-03-28T13:17:31Z</time>
      </trkpt>
      <trkpt lat="43.30327" lon="5.66861">
        <ele>398.597656</ele>
        <time>2017-03-28T13:17:53Z</time>
      </trkpt>
      <trkpt lat="43.30323" lon="5.66848">
        <ele>400</ele>
        <time>2017-03-28T13:18:02Z</time>
      </trkpt>
      <trkpt lat="43.30319" lon="5.66836">
        <ele>401.097656</ele>
        <time>2017-03-28T13:18:12Z</time>
      </trkpt>
      <trkpt lat="43.30314" lon="5.66826">
        <ele>401.5</ele>
        <time>2017-03-28T13:18:21Z</time>
      </trkpt>
      <trkpt lat="43.30308" lon="5.66816">
        <ele>400.5</ele>
        <time>2017-03-28T13:18:29Z</time>
      </trkpt>
      <trkpt lat="43.30302" lon="5.66807">
        <ele>399</ele>
        <time>2017-03-28T13:18:36Z</time>
      </trkpt>
      <trkpt lat="43.30293" lon="5.66802">
        <ele>395.699219</ele>
        <time>2017-03-28T13:18:43Z</time>
      </trkpt>
      <trkpt lat="43.30285" lon="5.66794">
        <ele>393.296875</ele>
        <time>2017-03-28T13:18:50Z</time>
      </trkpt>
      <trkpt lat="43.30278" lon="5.66786">
        <ele>389.398438</ele>
        <time>2017-03-28T13:18:58Z</time>
      </trkpt>
      <trkpt lat="43.30271" lon="5.66777">
        <ele>388.597656</ele>
        <time>2017-03-28T13:19:06Z</time>
      </trkpt>
      <trkpt lat="43.30265" lon="5.66767">
        <ele>386.796875</ele>
        <time>2017-03-28T13:19:15Z</time>
      </trkpt>
      <trkpt lat="43.30261" lon="5.66756">
        <ele>386.699219</ele>
        <time>2017-03-28T13:19:24Z</time>
      </trkpt>
      <trkpt lat="43.30256" lon="5.66732">
        <ele>387.398438</ele>
        <time>2017-03-28T13:19:39Z</time>
      </trkpt>
      <trkpt lat="43.3025" lon="5.66722">
        <ele>386.597656</ele>
        <time>2017-03-28T13:19:47Z</time>
      </trkpt>
      <trkpt lat="43.30243" lon="5.66715">
        <ele>387.5</ele>
        <time>2017-03-28T13:19:55Z</time>
      </trkpt>
      <trkpt lat="43.30233" lon="5.66713">
        <ele>387.699219</ele>
        <time>2017-03-28T13:20:03Z</time>
      </trkpt>
      <trkpt lat="43.30214" lon="5.66708">
        <ele>388.296875</ele>
        <time>2017-03-28T13:20:18Z</time>
      </trkpt>
      <trkpt lat="43.30205" lon="5.66703">
        <ele>389.296875</ele>
        <time>2017-03-28T13:20:25Z</time>
      </trkpt>
      <trkpt lat="43.30196" lon="5.667">
        <ele>383.871094</ele>
        <time>2017-03-28T13:20:35Z</time>
      </trkpt>
      <trkpt lat="43.30187" lon="5.667">
        <ele>386.796875</ele>
        <time>2017-03-28T13:23:44Z</time>
      </trkpt>
      <trkpt lat="43.30186" lon="5.66687">
        <ele>380.398438</ele>
        <time>2017-03-28T13:24:19Z</time>
      </trkpt>
      <trkpt lat="43.30187" lon="5.66674">
        <ele>377.964844</ele>
        <time>2017-03-28T13:24:31Z</time>
      </trkpt>
      <trkpt lat="43.30186" lon="5.66661">
        <ele>380.097656</ele>
        <time>2017-03-28T13:24:45Z</time>
      </trkpt>
      <trkpt lat="43.30177" lon="5.66657">
        <ele>378.296875</ele>
        <time>2017-03-28T13:25:15Z</time>
      </trkpt>
      <trkpt lat="43.30168" lon="5.66659">
        <ele>374.296875</ele>
        <time>2017-03-28T13:25:25Z</time>
      </trkpt>
      <trkpt lat="43.30159" lon="5.66657">
        <ele>372.199219</ele>
        <time>2017-03-28T13:25:36Z</time>
      </trkpt>
      <trkpt lat="43.30166" lon="5.66647">
        <ele>370.199219</ele>
        <time>2017-03-28T13:25:49Z</time>
      </trkpt>
      <trkpt lat="43.3017" lon="5.66636">
        <ele>367.097656</ele>
        <time>2017-03-28T13:26:00Z</time>
      </trkpt>
      <trkpt lat="43.30178" lon="5.66611">
        <ele>368.097656</ele>
        <time>2017-03-28T13:26:19Z</time>
      </trkpt>
      <trkpt lat="43.3018" lon="5.66598">
        <ele>365.5</ele>
        <time>2017-03-28T13:26:34Z</time>
      </trkpt>
      <trkpt lat="43.3018" lon="5.66584">
        <ele>362.5</ele>
        <time>2017-03-28T13:26:45Z</time>
      </trkpt>
      <trkpt lat="43.3018" lon="5.66558">
        <ele>355.597656</ele>
        <time>2017-03-28T13:27:08Z</time>
      </trkpt>
      <trkpt lat="43.30181" lon="5.66546">
        <ele>354.796875</ele>
        <time>2017-03-28T13:27:19Z</time>
      </trkpt>
      <trkpt lat="43.30183" lon="5.66533">
        <ele>350.898438</ele>
        <time>2017-03-28T13:27:32Z</time>
      </trkpt>
      <trkpt lat="43.30182" lon="5.6652">
        <ele>349.464844</ele>
        <time>2017-03-28T13:27:47Z</time>
      </trkpt>
      <trkpt lat="43.30177" lon="5.6651">
        <ele>351.097656</ele>
        <time>2017-03-28T13:28:00Z</time>
      </trkpt>
      <trkpt lat="43.3017" lon="5.66502">
        <ele>347.5</ele>
        <time>2017-03-28T13:28:16Z</time>
      </trkpt>
      <trkpt lat="43.30166" lon="5.6649">
        <ele>344.296875</ele>
        <time>2017-03-28T13:28:30Z</time>
      </trkpt>
      <trkpt lat="43.30165" lon="5.66478">
        <ele>342</ele>
        <time>2017-03-28T13:28:41Z</time>
      </trkpt>
      <trkpt lat="43.30163" lon="5.66466">
        <ele>337.796875</ele>
        <time>2017-03-28T13:28:55Z</time>
      </trkpt>
      <trkpt lat="43.30159" lon="5.66452">
        <ele>341</ele>
        <time>2017-03-28T13:29:11Z</time>
      </trkpt>
      <trkpt lat="43.30153" lon="5.66437">
        <ele>337.296875</ele>
        <time>2017-03-28T13:29:46Z</time>
      </trkpt>
      <trkpt lat="43.30148" lon="5.66426">
        <ele>339.597656</ele>
        <time>2017-03-28T13:29:59Z</time>
      </trkpt>
      <trkpt lat="43.30142" lon="5.66416">
        <ele>346.199219</ele>
        <time>2017-03-28T13:30:12Z</time>
      </trkpt>
      <trkpt lat="43.30134" lon="5.6641">
        <ele>342.199219</ele>
        <time>2017-03-28T13:30:25Z</time>
      </trkpt>
      <trkpt lat="43.30126" lon="5.66405">
        <ele>331.597656</ele>
        <time>2017-03-28T13:30:41Z</time>
      </trkpt>
      <trkpt lat="43.30126" lon="5.66392">
        <ele>330.097656</ele>
        <time>2017-03-28T13:30:54Z</time>
      </trkpt>
      <trkpt lat="43.30117" lon="5.66391">
        <ele>323.398438</ele>
        <time>2017-03-28T13:31:06Z</time>
      </trkpt>
      <trkpt lat="43.30106" lon="5.66395">
        <ele>324.875</ele>
        <time>2017-03-28T13:31:25Z</time>
      </trkpt>
      <trkpt lat="43.30098" lon="5.66399">
        <ele>331.398438</ele>
        <time>2017-03-28T13:32:27Z</time>
      </trkpt>
      <trkpt lat="43.30089" lon="5.66404">
        <ele>331.597656</ele>
        <time>2017-03-28T13:32:54Z</time>
      </trkpt>
      <trkpt lat="43.3008" lon="5.66412">
        <ele>328.199219</ele>
        <time>2017-03-28T13:33:03Z</time>
      </trkpt>
      <trkpt lat="43.30071" lon="5.66416">
        <ele>324.796875</ele>
        <time>2017-03-28T13:33:13Z</time>
      </trkpt>
      <trkpt lat="43.30061" lon="5.66419">
        <ele>319.199219</ele>
        <time>2017-03-28T13:33:23Z</time>
      </trkpt>
      <trkpt lat="43.30052" lon="5.66422">
        <ele>312.296875</ele>
        <time>2017-03-28T13:33:32Z</time>
      </trkpt>
      <trkpt lat="43.30043" lon="5.66416">
        <ele>306.199219</ele>
        <time>2017-03-28T13:33:43Z</time>
      </trkpt>
      <trkpt lat="43.30037" lon="5.66405">
        <ele>309.796875</ele>
        <time>2017-03-28T13:33:52Z</time>
      </trkpt>
      <trkpt lat="43.30028" lon="5.664">
        <ele>314</ele>
        <time>2017-03-28T13:34:02Z</time>
      </trkpt>
      <trkpt lat="43.30018" lon="5.66398">
        <ele>318.398438</ele>
        <time>2017-03-28T13:34:11Z</time>
      </trkpt>
      <trkpt lat="43.29999" lon="5.66396">
        <ele>322.699219</ele>
        <time>2017-03-28T13:34:29Z</time>
      </trkpt>
      <trkpt lat="43.29989" lon="5.66396">
        <ele>323</ele>
        <time>2017-03-28T13:34:37Z</time>
      </trkpt>
      <trkpt lat="43.2998" lon="5.66392">
        <ele>320.699219</ele>
        <time>2017-03-28T13:34:46Z</time>
      </trkpt>
      <trkpt lat="43.29971" lon="5.66388">
        <ele>313.699219</ele>
        <time>2017-03-28T13:34:55Z</time>
      </trkpt>
      <trkpt lat="43.29961" lon="5.66387">
        <ele>309.597656</ele>
        <time>2017-03-28T13:35:03Z</time>
      </trkpt>
      <trkpt lat="43.29952" lon="5.66387">
        <ele>309.699219</ele>
        <time>2017-03-28T13:35:11Z</time>
      </trkpt>
      <trkpt lat="43.29933" lon="5.66387">
        <ele>300.5</ele>
        <time>2017-03-28T13:35:28Z</time>
      </trkpt>
      <trkpt lat="43.29913" lon="5.66382">
        <ele>278.296875</ele>
        <time>2017-03-28T13:35:43Z</time>
      </trkpt>
      <trkpt lat="43.29904" lon="5.66378">
        <ele>283.199219</ele>
        <time>2017-03-28T13:35:52Z</time>
      </trkpt>
      <trkpt lat="43.29897" lon="5.6637">
        <ele>282.898438</ele>
        <time>2017-03-28T13:36:01Z</time>
      </trkpt>
      <trkpt lat="43.29892" lon="5.66358">
        <ele>281</ele>
        <time>2017-03-28T13:36:09Z</time>
      </trkpt>
      <trkpt lat="43.29886" lon="5.66349">
        <ele>282.898438</ele>
        <time>2017-03-28T13:36:17Z</time>
      </trkpt>
      <trkpt lat="43.29876" lon="5.66352">
        <ele>284.398438</ele>
        <time>2017-03-28T13:36:24Z</time>
      </trkpt>
      <trkpt lat="43.29867" lon="5.66352">
        <ele>284.796875</ele>
        <time>2017-03-28T13:36:31Z</time>
      </trkpt>
      <trkpt lat="43.29858" lon="5.6635">
        <ele>287.597656</ele>
        <time>2017-03-28T13:36:39Z</time>
      </trkpt>
      <trkpt lat="43.2985" lon="5.66343">
        <ele>289.898438</ele>
        <time>2017-03-28T13:36:48Z</time>
      </trkpt>
      <trkpt lat="43.29833" lon="5.66331">
        <ele>291.5</ele>
        <time>2017-03-28T13:37:06Z</time>
      </trkpt>
      <trkpt lat="43.29825" lon="5.66326">
        <ele>294.898438</ele>
        <time>2017-03-28T13:37:15Z</time>
      </trkpt>
      <trkpt lat="43.29816" lon="5.66322">
        <ele>296.398438</ele>
        <time>2017-03-28T13:37:25Z</time>
      </trkpt>
      <trkpt lat="43.29809" lon="5.66312">
        <ele>298.5</ele>
        <time>2017-03-28T13:37:44Z</time>
      </trkpt>
      <trkpt lat="43.29801" lon="5.66306">
        <ele>298</ele>
        <time>2017-03-28T13:37:55Z</time>
      </trkpt>
      <trkpt lat="43.29791" lon="5.66306">
        <ele>293.597656</ele>
        <time>2017-03-28T13:38:04Z</time>
      </trkpt>
      <trkpt lat="43.29771" lon="5.66303">
        <ele>278.699219</ele>
        <time>2017-03-28T13:38:26Z</time>
      </trkpt>
      <trkpt lat="43.29762" lon="5.663">
        <ele>273.199219</ele>
        <time>2017-03-28T13:38:36Z</time>
      </trkpt>
      <trkpt lat="43.29752" lon="5.66301">
        <ele>271.699219</ele>
        <time>2017-03-28T13:38:46Z</time>
      </trkpt>
      <trkpt lat="43.29743" lon="5.66302">
        <ele>273.199219</ele>
        <time>2017-03-28T13:38:55Z</time>
      </trkpt>
      <trkpt lat="43.29733" lon="5.66299">
        <ele>274.699219</ele>
        <time>2017-03-28T13:39:04Z</time>
      </trkpt>
      <trkpt lat="43.29724" lon="5.66294">
        <ele>276.296875</ele>
        <time>2017-03-28T13:39:14Z</time>
      </trkpt>
      <trkpt lat="43.29716" lon="5.66288">
        <ele>276.296875</ele>
        <time>2017-03-28T13:39:22Z</time>
      </trkpt>
      <trkpt lat="43.29707" lon="5.66282">
        <ele>279.296875</ele>
        <time>2017-03-28T13:39:30Z</time>
      </trkpt>
      <trkpt lat="43.29698" lon="5.66279">
        <ele>286.296875</ele>
        <time>2017-03-28T13:39:38Z</time>
      </trkpt>
      <trkpt lat="43.29689" lon="5.66277">
        <ele>293.296875</ele>
        <time>2017-03-28T13:39:45Z</time>
      </trkpt>
      <trkpt lat="43.29679" lon="5.66279">
        <ele>298.597656</ele>
        <time>2017-03-28T13:39:53Z</time>
      </trkpt>
      <trkpt lat="43.29669" lon="5.66283">
        <ele>300.199219</ele>
        <time>2017-03-28T13:40:03Z</time>
      </trkpt>
      <trkpt lat="43.29661" lon="5.66288">
        <ele>296.796875</ele>
        <time>2017-03-28T13:40:10Z</time>
      </trkpt>
      <trkpt lat="43.29651" lon="5.66284">
        <ele>287.5</ele>
        <time>2017-03-28T13:40:19Z</time>
      </trkpt>
      <trkpt lat="43.29642" lon="5.66277">
        <ele>279.699219</ele>
        <time>2017-03-28T13:40:28Z</time>
      </trkpt>
      <trkpt lat="43.29633" lon="5.66277">
        <ele>278</ele>
        <time>2017-03-28T13:40:36Z</time>
      </trkpt>
      <trkpt lat="43.29624" lon="5.66276">
        <ele>276.5</ele>
        <time>2017-03-28T13:40:45Z</time>
      </trkpt>
      <trkpt lat="43.29615" lon="5.66277">
        <ele>270.796875</ele>
        <time>2017-03-28T13:40:53Z</time>
      </trkpt>
      <trkpt lat="43.29605" lon="5.66275">
        <ele>270.097656</ele>
        <time>2017-03-28T13:41:01Z</time>
      </trkpt>
      <trkpt lat="43.29596" lon="5.66275">
        <ele>271.097656</ele>
        <time>2017-03-28T13:41:09Z</time>
      </trkpt>
      <trkpt lat="43.29587" lon="5.66278">
        <ele>272.199219</ele>
        <time>2017-03-28T13:41:17Z</time>
      </trkpt>
      <trkpt lat="43.29578" lon="5.6628">
        <ele>273.597656</ele>
        <time>2017-03-28T13:41:26Z</time>
      </trkpt>
      <trkpt lat="43.29569" lon="5.66283">
        <ele>274.699219</ele>
        <time>2017-03-28T13:41:33Z</time>
      </trkpt>
      <trkpt lat="43.2956" lon="5.66284">
        <ele>273.199219</ele>
        <time>2017-03-28T13:41:40Z</time>
      </trkpt>
      <trkpt lat="43.2955" lon="5.66281">
        <ele>272.699219</ele>
        <time>2017-03-28T13:41:48Z</time>
      </trkpt>
      <trkpt lat="43.29541" lon="5.66282">
        <ele>274.097656</ele>
        <time>2017-03-28T13:41:55Z</time>
      </trkpt>
      <trkpt lat="43.29531" lon="5.66285">
        <ele>273.898438</ele>
        <time>2017-03-28T13:42:02Z</time>
      </trkpt>
      <trkpt lat="43.29521" lon="5.66287">
        <ele>276</ele>
        <time>2017-03-28T13:42:11Z</time>
      </trkpt>
      <trkpt lat="43.29512" lon="5.66289">
        <ele>276.296875</ele>
        <time>2017-03-28T13:42:21Z</time>
      </trkpt>
      <trkpt lat="43.29502" lon="5.66286">
        <ele>272.296875</ele>
        <time>2017-03-28T13:42:30Z</time>
      </trkpt>
      <trkpt lat="43.29493" lon="5.66282">
        <ele>268.898438</ele>
        <time>2017-03-28T13:42:38Z</time>
      </trkpt>
      <trkpt lat="43.29483" lon="5.6628">
        <ele>269.5</ele>
        <time>2017-03-28T13:42:47Z</time>
      </trkpt>
      <trkpt lat="43.29473" lon="5.66281">
        <ele>272.699219</ele>
        <time>2017-03-28T13:42:55Z</time>
      </trkpt>
      <trkpt lat="43.29464" lon="5.66287">
        <ele>275.5</ele>
        <time>2017-03-28T13:43:02Z</time>
      </trkpt>
      <trkpt lat="43.29446" lon="5.66298">
        <ele>280.53125</ele>
        <time>2017-03-28T13:43:21Z</time>
      </trkpt>
      <trkpt lat="43.29428" lon="5.66307">
        <ele>282.296875</ele>
        <time>2017-03-28T13:43:42Z</time>
      </trkpt>
      <trkpt lat="43.29419" lon="5.6631">
        <ele>280.597656</ele>
        <time>2017-03-28T13:43:48Z</time>
      </trkpt>
      <trkpt lat="43.29409" lon="5.66312">
        <ele>279.597656</ele>
        <time>2017-03-28T13:43:56Z</time>
      </trkpt>
      <trkpt lat="43.29399" lon="5.66313">
        <ele>279.898438</ele>
        <time>2017-03-28T13:44:04Z</time>
      </trkpt>
      <trkpt lat="43.29389" lon="5.66315">
        <ele>277.097656</ele>
        <time>2017-03-28T13:44:10Z</time>
      </trkpt>
      <trkpt lat="43.29379" lon="5.66314">
        <ele>273.5</ele>
        <time>2017-03-28T13:44:17Z</time>
      </trkpt>
      <trkpt lat="43.2937" lon="5.6631">
        <ele>275.296875</ele>
        <time>2017-03-28T13:44:26Z</time>
      </trkpt>
      <trkpt lat="43.29359" lon="5.66309">
        <ele>279.699219</ele>
        <time>2017-03-28T13:44:33Z</time>
      </trkpt>
      <trkpt lat="43.2935" lon="5.66302">
        <ele>282</ele>
        <time>2017-03-28T13:44:41Z</time>
      </trkpt>
      <trkpt lat="43.29343" lon="5.66293">
        <ele>280.5</ele>
        <time>2017-03-28T13:44:47Z</time>
      </trkpt>
      <trkpt lat="43.29337" lon="5.66282">
        <ele>279.296875</ele>
        <time>2017-03-28T13:44:53Z</time>
      </trkpt>
      <trkpt lat="43.29331" lon="5.66271">
        <ele>275.296875</ele>
        <time>2017-03-28T13:44:59Z</time>
      </trkpt>
      <trkpt lat="43.29327" lon="5.6626">
        <ele>270.296875</ele>
        <time>2017-03-28T13:45:08Z</time>
      </trkpt>
      <trkpt lat="43.29323" lon="5.66248">
        <ele>265.398438</ele>
        <time>2017-03-28T13:45:16Z</time>
      </trkpt>
      <trkpt lat="43.29318" lon="5.66237">
        <ele>263.796875</ele>
        <time>2017-03-28T13:45:26Z</time>
      </trkpt>
      <trkpt lat="43.29312" lon="5.66226">
        <ele>263.398438</ele>
        <time>2017-03-28T13:45:34Z</time>
      </trkpt>
      <trkpt lat="43.29305" lon="5.66217">
        <ele>262.898438</ele>
        <time>2017-03-28T13:45:42Z</time>
      </trkpt>
      <trkpt lat="43.29297" lon="5.66209">
        <ele>262.597656</ele>
        <time>2017-03-28T13:45:51Z</time>
      </trkpt>
      <trkpt lat="43.29288" lon="5.66202">
        <ele>263.199219</ele>
        <time>2017-03-28T13:45:59Z</time>
      </trkpt>
      <trkpt lat="43.29279" lon="5.66197">
        <ele>266.296875</ele>
        <time>2017-03-28T13:46:07Z</time>
      </trkpt>
      <trkpt lat="43.29269" lon="5.66194">
        <ele>269.597656</ele>
        <time>2017-03-28T13:46:15Z</time>
      </trkpt>
      <trkpt lat="43.29241" lon="5.66184">
        <ele>267.898438</ele>
        <time>2017-03-28T13:46:37Z</time>
      </trkpt>
      <trkpt lat="43.29232" lon="5.66178">
        <ele>269.5</ele>
        <time>2017-03-28T13:46:46Z</time>
      </trkpt>
      <trkpt lat="43.29224" lon="5.66175">
        <ele>272.796875</ele>
        <time>2017-03-28T13:46:53Z</time>
      </trkpt>
      <trkpt lat="43.29214" lon="5.66174">
        <ele>274.296875</ele>
        <time>2017-03-28T13:47:01Z</time>
      </trkpt>
      <trkpt lat="43.29206" lon="5.66167">
        <ele>271.5</ele>
        <time>2017-03-28T13:47:10Z</time>
      </trkpt>
      <trkpt lat="43.29199" lon="5.66159">
        <ele>267.097656</ele>
        <time>2017-03-28T13:47:18Z</time>
      </trkpt>
      <trkpt lat="43.29191" lon="5.66151">
        <ele>263.597656</ele>
        <time>2017-03-28T13:47:27Z</time>
      </trkpt>
      <trkpt lat="43.29183" lon="5.66145">
        <ele>262.097656</ele>
        <time>2017-03-28T13:47:35Z</time>
      </trkpt>
      <trkpt lat="43.29177" lon="5.66135">
        <ele>257.53125</ele>
        <time>2017-03-28T13:47:43Z</time>
      </trkpt>
      <trkpt lat="43.29183" lon="5.66145">
        <ele>262</ele>
        <time>2017-03-28T13:48:35Z</time>
      </trkpt>
      <trkpt lat="43.2918" lon="5.66158">
        <ele>260.199219</ele>
        <time>2017-03-28T13:48:41Z</time>
      </trkpt>
      <trkpt lat="43.2918" lon="5.6617">
        <ele>267.828125</ele>
        <time>2017-03-28T13:49:12Z</time>
      </trkpt>
      <trkpt lat="43.29171" lon="5.66172">
        <ele>281.199219</ele>
        <time>2017-03-28T13:49:51Z</time>
      </trkpt>
      <trkpt lat="43.29162" lon="5.66175">
        <ele>273.796875</ele>
        <time>2017-03-28T13:49:57Z</time>
      </trkpt>
      <trkpt lat="43.29175" lon="5.66188">
        <ele>252.699219</ele>
        <time>2017-03-28T13:50:30Z</time>
      </trkpt>
      <trkpt lat="43.29183" lon="5.66194">
        <ele>253.597656</ele>
        <time>2017-03-28T13:50:41Z</time>
      </trkpt>
      <trkpt lat="43.2919" lon="5.66204">
        <ele>259.5</ele>
        <time>2017-03-28T13:51:03Z</time>
      </trkpt>
      <trkpt lat="43.29185" lon="5.66215">
        <ele>249.5</ele>
        <time>2017-03-28T13:51:19Z</time>
      </trkpt>
      <trkpt lat="43.29177" lon="5.66204">
        <ele>246.796875</ele>
        <time>2017-03-28T13:52:24Z</time>
      </trkpt>
      <trkpt lat="43.29168" lon="5.662">
        <ele>247.296875</ele>
        <time>2017-03-28T13:52:33Z</time>
      </trkpt>
      <trkpt lat="43.29158" lon="5.66191">
        <ele>247.699219</ele>
        <time>2017-03-28T13:52:46Z</time>
      </trkpt>
      <trkpt lat="43.29149" lon="5.66186">
        <ele>253.398438</ele>
        <time>2017-03-28T13:52:54Z</time>
      </trkpt>
      <trkpt lat="43.2914" lon="5.66181">
        <ele>255.898438</ele>
        <time>2017-03-28T13:53:03Z</time>
      </trkpt>
      <trkpt lat="43.29132" lon="5.66173">
        <ele>259.898438</ele>
        <time>2017-03-28T13:53:12Z</time>
      </trkpt>
      <trkpt lat="43.29121" lon="5.66172">
        <ele>264.398438</ele>
        <time>2017-03-28T13:53:19Z</time>
      </trkpt>
      <trkpt lat="43.29112" lon="5.66173">
        <ele>269.796875</ele>
        <time>2017-03-28T13:53:25Z</time>
      </trkpt>
      <trkpt lat="43.29102" lon="5.66174">
        <ele>272.097656</ele>
        <time>2017-03-28T13:53:32Z</time>
      </trkpt>
      <trkpt lat="43.29093" lon="5.6617">
        <ele>272.796875</ele>
        <time>2017-03-28T13:53:39Z</time>
      </trkpt>
      <trkpt lat="43.29085" lon="5.66165">
        <ele>269.097656</ele>
        <time>2017-03-28T13:53:55Z</time>
      </trkpt>
      <trkpt lat="43.29077" lon="5.66158">
        <ele>266.5</ele>
        <time>2017-03-28T13:54:05Z</time>
      </trkpt>
      <trkpt lat="43.29069" lon="5.66152">
        <ele>262.5</ele>
        <time>2017-03-28T13:54:15Z</time>
      </trkpt>
      <trkpt lat="43.2906" lon="5.66147">
        <ele>260.796875</ele>
        <time>2017-03-28T13:54:26Z</time>
      </trkpt>
      <trkpt lat="43.29052" lon="5.66139">
        <ele>260.296875</ele>
        <time>2017-03-28T13:54:36Z</time>
      </trkpt>
      <trkpt lat="43.29044" lon="5.66133">
        <ele>255.699219</ele>
        <time>2017-03-28T13:54:45Z</time>
      </trkpt>
      <trkpt lat="43.29043" lon="5.66121">
        <ele>251.796875</ele>
        <time>2017-03-28T13:54:54Z</time>
      </trkpt>
      <trkpt lat="43.29044" lon="5.66106">
        <ele>252.230469</ele>
        <time>2017-03-28T13:55:03Z</time>
      </trkpt>
      <trkpt lat="43.29045" lon="5.66093">
        <ele>254</ele>
        <time>2017-03-28T13:55:12Z</time>
      </trkpt>
      <trkpt lat="43.29044" lon="5.6608">
        <ele>255.5</ele>
        <time>2017-03-28T13:55:19Z</time>
      </trkpt>
      <trkpt lat="43.29044" lon="5.66067">
        <ele>259.597656</ele>
        <time>2017-03-28T13:55:27Z</time>
      </trkpt>
      <trkpt lat="43.29046" lon="5.66054">
        <ele>266.796875</ele>
        <time>2017-03-28T13:55:35Z</time>
      </trkpt>
      <trkpt lat="43.29049" lon="5.66042">
        <ele>268.503906</ele>
        <time>2017-03-28T13:55:45Z</time>
      </trkpt>
      <trkpt lat="43.29049" lon="5.66029">
        <ele>266.699219</ele>
        <time>2017-03-28T13:56:03Z</time>
      </trkpt>
      <trkpt lat="43.29045" lon="5.66001">
        <ele>257.898438</ele>
        <time>2017-03-28T13:56:20Z</time>
      </trkpt>
      <trkpt lat="43.29047" lon="5.65988">
        <ele>256.566406</ele>
        <time>2017-03-28T13:56:37Z</time>
      </trkpt>
      <trkpt lat="43.29046" lon="5.65976">
        <ele>245.5</ele>
        <time>2017-03-28T13:56:51Z</time>
      </trkpt>
      <trkpt lat="43.29041" lon="5.65952">
        <ele>245.597656</ele>
        <time>2017-03-28T13:58:22Z</time>
      </trkpt>
      <trkpt lat="43.29035" lon="5.65927">
        <ele>241.5</ele>
        <time>2017-03-28T13:58:42Z</time>
      </trkpt>
      <trkpt lat="43.29034" lon="5.65913">
        <ele>238.898438</ele>
        <time>2017-03-28T13:58:51Z</time>
      </trkpt>
      <trkpt lat="43.29034" lon="5.659">
        <ele>243.898438</ele>
        <time>2017-03-28T13:58:59Z</time>
      </trkpt>
      <trkpt lat="43.29034" lon="5.65886">
        <ele>246.199219</ele>
        <time>2017-03-28T13:59:09Z</time>
      </trkpt>
      <trkpt lat="43.29034" lon="5.65872">
        <ele>248.398438</ele>
        <time>2017-03-28T13:59:20Z</time>
      </trkpt>
      <trkpt lat="43.29031" lon="5.65856">
        <ele>257.398438</ele>
        <time>2017-03-28T13:59:36Z</time>
      </trkpt>
      <trkpt lat="43.29037" lon="5.6584">
        <ele>267</ele>
        <time>2017-03-28T13:59:52Z</time>
      </trkpt>
      <trkpt lat="43.29044" lon="5.65819">
        <ele>266.804688</ele>
        <time>2017-03-28T14:00:09Z</time>
      </trkpt>
      <trkpt lat="43.29047" lon="5.65807">
        <ele>266.699219</ele>
        <time>2017-03-28T14:00:28Z</time>
      </trkpt>
      <trkpt lat="43.29056" lon="5.65789">
        <ele>265.398438</ele>
        <time>2017-03-28T14:00:34Z</time>
      </trkpt>
      <trkpt lat="43.2906" lon="5.65777">
        <ele>263.296875</ele>
        <time>2017-03-28T14:00:41Z</time>
      </trkpt>
      <trkpt lat="43.29064" lon="5.65766">
        <ele>259.398438</ele>
        <time>2017-03-28T14:00:48Z</time>
      </trkpt>
      <trkpt lat="43.2907" lon="5.65755">
        <ele>255.097656</ele>
        <time>2017-03-28T14:00:54Z</time>
      </trkpt>
      <trkpt lat="43.2908" lon="5.65732">
        <ele>250.898438</ele>
        <time>2017-03-28T14:01:08Z</time>
      </trkpt>
      <trkpt lat="43.29083" lon="5.6572">
        <ele>248.097656</ele>
        <time>2017-03-28T14:01:14Z</time>
      </trkpt>
      <trkpt lat="43.29084" lon="5.65707">
        <ele>244.5</ele>
        <time>2017-03-28T14:01:21Z</time>
      </trkpt>
      <trkpt lat="43.29084" lon="5.65694">
        <ele>241.898438</ele>
        <time>2017-03-28T14:01:29Z</time>
      </trkpt>
      <trkpt lat="43.29082" lon="5.6568">
        <ele>237.5</ele>
        <time>2017-03-28T14:01:37Z</time>
      </trkpt>
      <trkpt lat="43.29078" lon="5.65668">
        <ele>235.398438</ele>
        <time>2017-03-28T14:01:46Z</time>
      </trkpt>
      <trkpt lat="43.29076" lon="5.65656">
        <ele>233.699219</ele>
        <time>2017-03-28T14:01:56Z</time>
      </trkpt>
      <trkpt lat="43.29074" lon="5.65644">
        <ele>234.296875</ele>
        <time>2017-03-28T14:02:04Z</time>
      </trkpt>
      <trkpt lat="43.29073" lon="5.6563">
        <ele>243.699219</ele>
        <time>2017-03-28T14:02:12Z</time>
      </trkpt>
      <trkpt lat="43.29073" lon="5.65605">
        <ele>262</ele>
        <time>2017-03-28T14:02:37Z</time>
      </trkpt>
      <trkpt lat="43.29071" lon="5.65592">
        <ele>258.398438</ele>
        <time>2017-03-28T14:02:44Z</time>
      </trkpt>
      <trkpt lat="43.29072" lon="5.65579">
        <ele>254.664063</ele>
        <time>2017-03-28T14:02:50Z</time>
      </trkpt>
      <trkpt lat="43.29072" lon="5.65567">
        <ele>251.296875</ele>
        <time>2017-03-28T14:02:58Z</time>
      </trkpt>
      <trkpt lat="43.29074" lon="5.65554">
        <ele>247.398438</ele>
        <time>2017-03-28T14:03:04Z</time>
      </trkpt>
      <trkpt lat="43.29078" lon="5.65542">
        <ele>241.097656</ele>
        <time>2017-03-28T14:03:10Z</time>
      </trkpt>
      <trkpt lat="43.29082" lon="5.65529">
        <ele>237.5</ele>
        <time>2017-03-28T14:03:17Z</time>
      </trkpt>
      <trkpt lat="43.29089" lon="5.65506">
        <ele>234.5</ele>
        <time>2017-03-28T14:03:32Z</time>
      </trkpt>
      <trkpt lat="43.29094" lon="5.65495">
        <ele>234.398438</ele>
        <time>2017-03-28T14:03:39Z</time>
      </trkpt>
      <trkpt lat="43.291" lon="5.65483">
        <ele>235.699219</ele>
        <time>2017-03-28T14:03:45Z</time>
      </trkpt>
      <trkpt lat="43.29112" lon="5.65463">
        <ele>237.796875</ele>
        <time>2017-03-28T14:03:57Z</time>
      </trkpt>
      <trkpt lat="43.29114" lon="5.6545">
        <ele>231.097656</ele>
        <time>2017-03-28T14:04:07Z</time>
      </trkpt>
      <trkpt lat="43.29111" lon="5.65439">
        <ele>225</ele>
        <time>2017-03-28T14:04:16Z</time>
      </trkpt>
      <trkpt lat="43.29103" lon="5.65432">
        <ele>222.199219</ele>
        <time>2017-03-28T14:04:25Z</time>
      </trkpt>
      <trkpt lat="43.29104" lon="5.65419">
        <ele>217.398438</ele>
        <time>2017-03-28T14:04:33Z</time>
      </trkpt>
      <trkpt lat="43.29096" lon="5.65411">
        <ele>216</ele>
        <time>2017-03-28T14:04:42Z</time>
      </trkpt>
      <trkpt lat="43.29096" lon="5.65398">
        <ele>218.199219</ele>
        <time>2017-03-28T14:04:52Z</time>
      </trkpt>
      <trkpt lat="43.29101" lon="5.65387">
        <ele>219.296875</ele>
        <time>2017-03-28T14:04:59Z</time>
      </trkpt>
      <trkpt lat="43.29106" lon="5.65376">
        <ele>216.5</ele>
        <time>2017-03-28T14:05:05Z</time>
      </trkpt>
      <trkpt lat="43.29101" lon="5.65364">
        <ele>217.296875</ele>
        <time>2017-03-28T14:05:14Z</time>
      </trkpt>
      <trkpt lat="43.29098" lon="5.65352">
        <ele>218.5</ele>
        <time>2017-03-28T14:05:22Z</time>
      </trkpt>
      <trkpt lat="43.29098" lon="5.65339">
        <ele>221.199219</ele>
        <time>2017-03-28T14:05:30Z</time>
      </trkpt>
      <trkpt lat="43.29097" lon="5.65326">
        <ele>224.699219</ele>
        <time>2017-03-28T14:05:37Z</time>
      </trkpt>
      <trkpt lat="43.29101" lon="5.65313">
        <ele>226.699219</ele>
        <time>2017-03-28T14:05:43Z</time>
      </trkpt>
      <trkpt lat="43.29103" lon="5.65299">
        <ele>226</ele>
        <time>2017-03-28T14:05:49Z</time>
      </trkpt>
      <trkpt lat="43.29102" lon="5.65285">
        <ele>224.898438</ele>
        <time>2017-03-28T14:05:57Z</time>
      </trkpt>
      <trkpt lat="43.29097" lon="5.65274">
        <ele>225.296875</ele>
        <time>2017-03-28T14:06:06Z</time>
      </trkpt>
      <trkpt lat="43.29092" lon="5.65263">
        <ele>228.699219</ele>
        <time>2017-03-28T14:06:14Z</time>
      </trkpt>
      <trkpt lat="43.29088" lon="5.65247">
        <ele>227.597656</ele>
        <time>2017-03-28T14:06:26Z</time>
      </trkpt>
      <trkpt lat="43.29088" lon="5.65233">
        <ele>228.296875</ele>
        <time>2017-03-28T14:06:33Z</time>
      </trkpt>
      <trkpt lat="43.2909" lon="5.6522">
        <ele>229.398438</ele>
        <time>2017-03-28T14:06:38Z</time>
      </trkpt>
      <trkpt lat="43.2909" lon="5.65207">
        <ele>231.5</ele>
        <time>2017-03-28T14:06:46Z</time>
      </trkpt>
      <trkpt lat="43.29094" lon="5.65196">
        <ele>234.898438</ele>
        <time>2017-03-28T14:06:51Z</time>
      </trkpt>
      <trkpt lat="43.291" lon="5.65183">
        <ele>235</ele>
        <time>2017-03-28T14:06:57Z</time>
      </trkpt>
      <trkpt lat="43.29099" lon="5.6517">
        <ele>227.398438</ele>
        <time>2017-03-28T14:07:06Z</time>
      </trkpt>
      <trkpt lat="43.2909" lon="5.65165">
        <ele>221.296875</ele>
        <time>2017-03-28T14:07:13Z</time>
      </trkpt>
      <trkpt lat="43.29085" lon="5.65154">
        <ele>222.296875</ele>
        <time>2017-03-28T14:07:21Z</time>
      </trkpt>
      <trkpt lat="43.29089" lon="5.65141">
        <ele>225</ele>
        <time>2017-03-28T14:07:27Z</time>
      </trkpt>
      <trkpt lat="43.29095" lon="5.65131">
        <ele>229.199219</ele>
        <time>2017-03-28T14:07:31Z</time>
      </trkpt>
      <trkpt lat="43.29101" lon="5.65121">
        <ele>230.296875</ele>
        <time>2017-03-28T14:07:36Z</time>
      </trkpt>
      <trkpt lat="43.29105" lon="5.65108">
        <ele>228.097656</ele>
        <time>2017-03-28T14:07:44Z</time>
      </trkpt>
      <trkpt lat="43.29108" lon="5.65095">
        <ele>229.699219</ele>
        <time>2017-03-28T14:07:53Z</time>
      </trkpt>
      <trkpt lat="43.29114" lon="5.6507">
        <ele>223.898438</ele>
        <time>2017-03-28T14:08:11Z</time>
      </trkpt>
      <trkpt lat="43.29113" lon="5.65058">
        <ele>221.296875</ele>
        <time>2017-03-28T14:08:21Z</time>
      </trkpt>
      <trkpt lat="43.29105" lon="5.65052">
        <ele>217.898438</ele>
        <time>2017-03-28T14:08:35Z</time>
      </trkpt>
      <trkpt lat="43.29098" lon="5.65044">
        <ele>218.097656</ele>
        <time>2017-03-28T14:08:49Z</time>
      </trkpt>
      <trkpt lat="43.29098" lon="5.65031">
        <ele>216.296875</ele>
        <time>2017-03-28T14:08:57Z</time>
      </trkpt>
      <trkpt lat="43.291" lon="5.65017">
        <ele>214.097656</ele>
        <time>2017-03-28T14:09:04Z</time>
      </trkpt>
      <trkpt lat="43.29099" lon="5.65003">
        <ele>212.097656</ele>
        <time>2017-03-28T14:09:12Z</time>
      </trkpt>
      <trkpt lat="43.29101" lon="5.64991">
        <ele>210.898438</ele>
        <time>2017-03-28T14:09:19Z</time>
      </trkpt>
      <trkpt lat="43.29101" lon="5.64977">
        <ele>208</ele>
        <time>2017-03-28T14:09:27Z</time>
      </trkpt>
      <trkpt lat="43.29101" lon="5.64964">
        <ele>206.296875</ele>
        <time>2017-03-28T14:09:35Z</time>
      </trkpt>
      <trkpt lat="43.291" lon="5.64951">
        <ele>205.597656</ele>
        <time>2017-03-28T14:09:44Z</time>
      </trkpt>
      <trkpt lat="43.29096" lon="5.64939">
        <ele>203.898438</ele>
        <time>2017-03-28T14:09:51Z</time>
      </trkpt>
      <trkpt lat="43.29096" lon="5.64925">
        <ele>202.898438</ele>
        <time>2017-03-28T14:09:59Z</time>
      </trkpt>
      <trkpt lat="43.29097" lon="5.64912">
        <ele>201.898438</ele>
        <time>2017-03-28T14:10:07Z</time>
      </trkpt>
      <trkpt lat="43.29099" lon="5.64887">
        <ele>201.425781</ele>
        <time>2017-03-28T14:10:23Z</time>
      </trkpt>
      <trkpt lat="43.29102" lon="5.64875">
        <ele>205.398438</ele>
        <time>2017-03-28T14:10:38Z</time>
      </trkpt>
      <trkpt lat="43.29109" lon="5.64868">
        <ele>206</ele>
        <time>2017-03-28T14:10:49Z</time>
      </trkpt>
      <trkpt lat="43.29116" lon="5.64858">
        <ele>202.097656</ele>
        <time>2017-03-28T14:10:58Z</time>
      </trkpt>
      <trkpt lat="43.2911" lon="5.64849">
        <ele>203.359375</ele>
        <time>2017-03-28T14:11:23Z</time>
      </trkpt>
      <trkpt lat="43.29111" lon="5.64836">
        <ele>206.398438</ele>
        <time>2017-03-28T14:11:48Z</time>
      </trkpt>
      <trkpt lat="43.29116" lon="5.64826">
        <ele>203.097656</ele>
        <time>2017-03-28T14:12:04Z</time>
      </trkpt>
      <trkpt lat="43.29125" lon="5.64822">
        <ele>198.898438</ele>
        <time>2017-03-28T14:12:15Z</time>
      </trkpt>
      <trkpt lat="43.29144" lon="5.64814">
        <ele>193</ele>
        <time>2017-03-28T14:12:31Z</time>
      </trkpt>
      <trkpt lat="43.29149" lon="5.64803">
        <ele>192.097656</ele>
        <time>2017-03-28T14:12:43Z</time>
      </trkpt>
      <trkpt lat="43.29152" lon="5.6479">
        <ele>191.398438</ele>
        <time>2017-03-28T14:12:52Z</time>
      </trkpt>
      <trkpt lat="43.29153" lon="5.64777">
        <ele>192.796875</ele>
        <time>2017-03-28T14:13:02Z</time>
      </trkpt>
      <trkpt lat="43.29157" lon="5.64765">
        <ele>194.097656</ele>
        <time>2017-03-28T14:13:10Z</time>
      </trkpt>
      <trkpt lat="43.29167" lon="5.64766">
        <ele>195.597656</ele>
        <time>2017-03-28T14:13:20Z</time>
      </trkpt>
      <trkpt lat="43.29175" lon="5.64771">
        <ele>196.699219</ele>
        <time>2017-03-28T14:13:28Z</time>
      </trkpt>
      <trkpt lat="43.29185" lon="5.64768">
        <ele>196.398438</ele>
        <time>2017-03-28T14:13:35Z</time>
      </trkpt>
      <trkpt lat="43.2918" lon="5.64757">
        <ele>197.398438</ele>
        <time>2017-03-28T14:13:49Z</time>
      </trkpt>
      <trkpt lat="43.29179" lon="5.64744">
        <ele>204.398438</ele>
        <time>2017-03-28T14:14:00Z</time>
      </trkpt>
      <trkpt lat="43.2918" lon="5.64717">
        <ele>205.597656</ele>
        <time>2017-03-28T14:14:16Z</time>
      </trkpt>
      <trkpt lat="43.29181" lon="5.64704">
        <ele>200.398438</ele>
        <time>2017-03-28T14:14:23Z</time>
      </trkpt>
      <trkpt lat="43.29177" lon="5.64692">
        <ele>198.199219</ele>
        <time>2017-03-28T14:14:32Z</time>
      </trkpt>
      <trkpt lat="43.29174" lon="5.64679">
        <ele>195.597656</ele>
        <time>2017-03-28T14:14:43Z</time>
      </trkpt>
      <trkpt lat="43.29176" lon="5.64666">
        <ele>199.398438</ele>
        <time>2017-03-28T14:14:52Z</time>
      </trkpt>
      <trkpt lat="43.29182" lon="5.64653">
        <ele>198.699219</ele>
        <time>2017-03-28T14:15:04Z</time>
      </trkpt>
      <trkpt lat="43.29184" lon="5.64641">
        <ele>197.296875</ele>
        <time>2017-03-28T14:15:13Z</time>
      </trkpt>
      <trkpt lat="43.29187" lon="5.64615">
        <ele>189.398438</ele>
        <time>2017-03-28T14:15:33Z</time>
      </trkpt>
      <trkpt lat="43.29183" lon="5.64604">
        <ele>191.398438</ele>
        <time>2017-03-28T14:15:44Z</time>
      </trkpt>
      <trkpt lat="43.29176" lon="5.64596">
        <ele>192.597656</ele>
        <time>2017-03-28T14:15:56Z</time>
      </trkpt>
      <trkpt lat="43.29167" lon="5.6459">
        <ele>192.097656</ele>
        <time>2017-03-28T14:16:07Z</time>
      </trkpt>
      <trkpt lat="43.29162" lon="5.64578">
        <ele>192.296875</ele>
        <time>2017-03-28T14:16:15Z</time>
      </trkpt>
      <trkpt lat="43.29161" lon="5.64565">
        <ele>190.699219</ele>
        <time>2017-03-28T14:16:21Z</time>
      </trkpt>
      <trkpt lat="43.29161" lon="5.64552">
        <ele>188.097656</ele>
        <time>2017-03-28T14:16:27Z</time>
      </trkpt>
      <trkpt lat="43.29161" lon="5.64538">
        <ele>184.199219</ele>
        <time>2017-03-28T14:16:34Z</time>
      </trkpt>
      <trkpt lat="43.29159" lon="5.64526">
        <ele>182.097656</ele>
        <time>2017-03-28T14:16:43Z</time>
      </trkpt>
      <trkpt lat="43.29154" lon="5.64514">
        <ele>181.199219</ele>
        <time>2017-03-28T14:16:54Z</time>
      </trkpt>
      <trkpt lat="43.29148" lon="5.64504">
        <ele>180.199219</ele>
        <time>2017-03-28T14:17:05Z</time>
      </trkpt>
      <trkpt lat="43.29147" lon="5.6449">
        <ele>181.597656</ele>
        <time>2017-03-28T14:17:13Z</time>
      </trkpt>
      <trkpt lat="43.29148" lon="5.64478">
        <ele>185.398438</ele>
        <time>2017-03-28T14:17:19Z</time>
      </trkpt>
      <trkpt lat="43.29148" lon="5.64464">
        <ele>182</ele>
        <time>2017-03-28T14:17:27Z</time>
      </trkpt>
      <trkpt lat="43.29156" lon="5.64454">
        <ele>178.242188</ele>
        <time>2017-03-28T14:17:40Z</time>
      </trkpt>
      <trkpt lat="43.29162" lon="5.64445">
        <ele>169.296875</ele>
        <time>2017-03-28T14:18:09Z</time>
      </trkpt>
      <trkpt lat="43.29176" lon="5.64443">
        <ele>173.597656</ele>
        <time>2017-03-28T14:20:12Z</time>
      </trkpt>
      <trkpt lat="43.2918" lon="5.64431">
        <ele>172.898438</ele>
        <time>2017-03-28T14:20:26Z</time>
      </trkpt>
      <trkpt lat="43.29178" lon="5.64419">
        <ele>172</ele>
        <time>2017-03-28T14:20:44Z</time>
      </trkpt>
      <trkpt lat="43.29179" lon="5.64407">
        <ele>175.898438</ele>
        <time>2017-03-28T14:20:55Z</time>
      </trkpt>
      <trkpt lat="43.29181" lon="5.6438">
        <ele>179.898438</ele>
        <time>2017-03-28T14:21:11Z</time>
      </trkpt>
      <trkpt lat="43.29185" lon="5.64368">
        <ele>181.097656</ele>
        <time>2017-03-28T14:21:19Z</time>
      </trkpt>
      <trkpt lat="43.29191" lon="5.64357">
        <ele>182.5</ele>
        <time>2017-03-28T14:21:25Z</time>
      </trkpt>
      <trkpt lat="43.29197" lon="5.64348">
        <ele>183</ele>
        <time>2017-03-28T14:21:32Z</time>
      </trkpt>
      <trkpt lat="43.29199" lon="5.64334">
        <ele>181.5</ele>
        <time>2017-03-28T14:21:42Z</time>
      </trkpt>
      <trkpt lat="43.29201" lon="5.6432">
        <ele>180.699219</ele>
        <time>2017-03-28T14:21:51Z</time>
      </trkpt>
      <trkpt lat="43.29206" lon="5.64308">
        <ele>178.898438</ele>
        <time>2017-03-28T14:22:00Z</time>
      </trkpt>
      <trkpt lat="43.2921" lon="5.64296">
        <ele>173.597656</ele>
        <time>2017-03-28T14:22:09Z</time>
      </trkpt>
      <trkpt lat="43.29208" lon="5.64284">
        <ele>170.097656</ele>
        <time>2017-03-28T14:22:18Z</time>
      </trkpt>
      <trkpt lat="43.29207" lon="5.64272">
        <ele>164.199219</ele>
        <time>2017-03-28T14:22:26Z</time>
      </trkpt>
      <trkpt lat="43.29207" lon="5.64258">
        <ele>158.398438</ele>
        <time>2017-03-28T14:22:35Z</time>
      </trkpt>
      <trkpt lat="43.29205" lon="5.64244">
        <ele>158.699219</ele>
        <time>2017-03-28T14:22:45Z</time>
      </trkpt>
      <trkpt lat="43.29203" lon="5.64217">
        <ele>162.699219</ele>
        <time>2017-03-28T14:23:03Z</time>
      </trkpt>
      <trkpt lat="43.29206" lon="5.64205">
        <ele>167</ele>
        <time>2017-03-28T14:23:09Z</time>
      </trkpt>
      <trkpt lat="43.29211" lon="5.64193">
        <ele>172.398438</ele>
        <time>2017-03-28T14:23:15Z</time>
      </trkpt>
      <trkpt lat="43.29221" lon="5.64169">
        <ele>177.898438</ele>
        <time>2017-03-28T14:23:28Z</time>
      </trkpt>
      <trkpt lat="43.29224" lon="5.64158">
        <ele>178.699219</ele>
        <time>2017-03-28T14:23:36Z</time>
      </trkpt>
      <trkpt lat="43.29227" lon="5.64146">
        <ele>174.699219</ele>
        <time>2017-03-28T14:23:44Z</time>
      </trkpt>
      <trkpt lat="43.29229" lon="5.64134">
        <ele>173.5</ele>
        <time>2017-03-28T14:23:53Z</time>
      </trkpt>
      <trkpt lat="43.29234" lon="5.64123">
        <ele>173.699219</ele>
        <time>2017-03-28T14:24:00Z</time>
      </trkpt>
      <trkpt lat="43.29252" lon="5.64092">
        <ele>169.699219</ele>
        <time>2017-03-28T14:24:23Z</time>
      </trkpt>
      <trkpt lat="43.29255" lon="5.64078">
        <ele>165.5</ele>
        <time>2017-03-28T14:24:32Z</time>
      </trkpt>
      <trkpt lat="43.29257" lon="5.64065">
        <ele>164.597656</ele>
        <time>2017-03-28T14:24:40Z</time>
      </trkpt>
      <trkpt lat="43.29258" lon="5.64052">
        <ele>166.296875</ele>
        <time>2017-03-28T14:24:49Z</time>
      </trkpt>
      <trkpt lat="43.29259" lon="5.64039">
        <ele>164.796875</ele>
        <time>2017-03-28T14:24:57Z</time>
      </trkpt>
      <trkpt lat="43.29259" lon="5.64026">
        <ele>163.296875</ele>
        <time>2017-03-28T14:25:05Z</time>
      </trkpt>
      <trkpt lat="43.29261" lon="5.64013">
        <ele>161</ele>
        <time>2017-03-28T14:25:13Z</time>
      </trkpt>
      <trkpt lat="43.29259" lon="5.64">
        <ele>165.296875</ele>
        <time>2017-03-28T14:25:22Z</time>
      </trkpt>
      <trkpt lat="43.29263" lon="5.63989">
        <ele>167.398438</ele>
        <time>2017-03-28T14:25:31Z</time>
      </trkpt>
      <trkpt lat="43.29269" lon="5.63978">
        <ele>168</ele>
        <time>2017-03-28T14:25:38Z</time>
      </trkpt>
      <trkpt lat="43.29272" lon="5.63966">
        <ele>168.597656</ele>
        <time>2017-03-28T14:25:46Z</time>
      </trkpt>
      <trkpt lat="43.29278" lon="5.6394">
        <ele>179.796875</ele>
        <time>2017-03-28T14:26:01Z</time>
      </trkpt>
      <trkpt lat="43.29282" lon="5.63952">
        <ele>183.597656</ele>
        <time>2017-03-28T14:26:35Z</time>
      </trkpt>
      <trkpt lat="43.29278" lon="5.63963">
        <ele>184.296875</ele>
        <time>2017-03-28T14:26:48Z</time>
      </trkpt>
      <trkpt lat="43.29268" lon="5.63967">
        <ele>182.75</ele>
        <time>2017-03-28T14:26:58Z</time>
      </trkpt>
      <trkpt lat="43.29259" lon="5.63966">
        <ele>180.296875</ele>
        <time>2017-03-28T14:27:10Z</time>
      </trkpt>
      <trkpt lat="43.29239" lon="5.63962">
        <ele>179.296875</ele>
        <time>2017-03-28T14:27:27Z</time>
      </trkpt>
      <trkpt lat="43.29232" lon="5.63955">
        <ele>183.742188</ele>
        <time>2017-03-28T14:27:39Z</time>
      </trkpt>
      <trkpt lat="43.29224" lon="5.63948">
        <ele>186.199219</ele>
        <time>2017-03-28T14:27:54Z</time>
      </trkpt>
      <trkpt lat="43.29217" lon="5.63939">
        <ele>179</ele>
        <time>2017-03-28T14:28:03Z</time>
      </trkpt>
      <trkpt lat="43.29219" lon="5.63927">
        <ele>179.699219</ele>
        <time>2017-03-28T14:28:22Z</time>
      </trkpt>
      <trkpt lat="43.29226" lon="5.63919">
        <ele>181.398438</ele>
        <time>2017-03-28T14:28:33Z</time>
      </trkpt>
      <trkpt lat="43.29234" lon="5.63912">
        <ele>181.796875</ele>
        <time>2017-03-28T14:28:44Z</time>
      </trkpt>
      <trkpt lat="43.29242" lon="5.63906">
        <ele>181.296875</ele>
        <time>2017-03-28T14:28:54Z</time>
      </trkpt>
      <trkpt lat="43.29259" lon="5.63895">
        <ele>179.699219</ele>
        <time>2017-03-28T14:29:13Z</time>
      </trkpt>
      <trkpt lat="43.29266" lon="5.63885">
        <ele>178</ele>
        <time>2017-03-28T14:29:24Z</time>
      </trkpt>
      <trkpt lat="43.2928" lon="5.63868">
        <ele>180.296875</ele>
        <time>2017-03-28T14:29:44Z</time>
      </trkpt>
      <trkpt lat="43.29286" lon="5.63859">
        <ele>180.097656</ele>
        <time>2017-03-28T14:29:54Z</time>
      </trkpt>
      <trkpt lat="43.29297" lon="5.63839">
        <ele>177.699219</ele>
        <time>2017-03-28T14:30:18Z</time>
      </trkpt>
      <trkpt lat="43.29301" lon="5.63827">
        <ele>178.199219</ele>
        <time>2017-03-28T14:30:29Z</time>
      </trkpt>
      <trkpt lat="43.29308" lon="5.63818">
        <ele>177.898438</ele>
        <time>2017-03-28T14:30:40Z</time>
      </trkpt>
      <trkpt lat="43.29315" lon="5.63809">
        <ele>180.5</ele>
        <time>2017-03-28T14:30:48Z</time>
      </trkpt>
      <trkpt lat="43.2932" lon="5.63799">
        <ele>181.699219</ele>
        <time>2017-03-28T14:30:57Z</time>
      </trkpt>
      <trkpt lat="43.29326" lon="5.63789">
        <ele>180</ele>
        <time>2017-03-28T14:31:08Z</time>
      </trkpt>
      <trkpt lat="43.29329" lon="5.63777">
        <ele>178.597656</ele>
        <time>2017-03-28T14:31:19Z</time>
      </trkpt>
      <trkpt lat="43.29341" lon="5.63727">
        <ele>178.796875</ele>
        <time>2017-03-28T14:32:00Z</time>
      </trkpt>
      <trkpt lat="43.29345" lon="5.63702">
        <ele>180.199219</ele>
        <time>2017-03-28T14:32:19Z</time>
      </trkpt>
      <trkpt lat="43.2935" lon="5.6369">
        <ele>180.398438</ele>
        <time>2017-03-28T14:32:27Z</time>
      </trkpt>
      <trkpt lat="43.29356" lon="5.6368">
        <ele>181</ele>
        <time>2017-03-28T14:32:35Z</time>
      </trkpt>
      <trkpt lat="43.29363" lon="5.63671">
        <ele>179.699219</ele>
        <time>2017-03-28T14:32:44Z</time>
      </trkpt>
      <trkpt lat="43.29368" lon="5.6366">
        <ele>182.699219</ele>
        <time>2017-03-28T14:32:55Z</time>
      </trkpt>
      <trkpt lat="43.29377" lon="5.63653">
        <ele>185.097656</ele>
        <time>2017-03-28T14:33:05Z</time>
      </trkpt>
      <trkpt lat="43.29385" lon="5.63647">
        <ele>183.699219</ele>
        <time>2017-03-28T14:33:13Z</time>
      </trkpt>
      <trkpt lat="43.29394" lon="5.63642">
        <ele>181.597656</ele>
        <time>2017-03-28T14:33:22Z</time>
      </trkpt>
      <trkpt lat="43.29401" lon="5.63633">
        <ele>180.597656</ele>
        <time>2017-03-28T14:33:34Z</time>
      </trkpt>
      <trkpt lat="43.29408" lon="5.63625">
        <ele>177.398438</ele>
        <time>2017-03-28T14:33:45Z</time>
      </trkpt>
      <trkpt lat="43.29416" lon="5.6362">
        <ele>174.398438</ele>
        <time>2017-03-28T14:33:54Z</time>
      </trkpt>
      <trkpt lat="43.29425" lon="5.63615">
        <ele>176.296875</ele>
        <time>2017-03-28T14:34:03Z</time>
      </trkpt>
      <trkpt lat="43.29434" lon="5.6361">
        <ele>172.699219</ele>
        <time>2017-03-28T14:34:12Z</time>
      </trkpt>
      <trkpt lat="43.29439" lon="5.636">
        <ele>173.597656</ele>
        <time>2017-03-28T14:34:26Z</time>
      </trkpt>
      <trkpt lat="43.29444" lon="5.6359">
        <ele>172.097656</ele>
        <time>2017-03-28T14:34:36Z</time>
      </trkpt>
      <trkpt lat="43.29446" lon="5.63577">
        <ele>170</ele>
        <time>2017-03-28T14:34:47Z</time>
      </trkpt>
      <trkpt lat="43.29444" lon="5.63565">
        <ele>166.296875</ele>
        <time>2017-03-28T14:35:02Z</time>
      </trkpt>
      <trkpt lat="43.29451" lon="5.63555">
        <ele>165.398438</ele>
        <time>2017-03-28T14:35:15Z</time>
      </trkpt>
      <trkpt lat="43.29459" lon="5.63547">
        <ele>162.097656</ele>
        <time>2017-03-28T14:35:27Z</time>
      </trkpt>
      <trkpt lat="43.29468" lon="5.63549">
        <ele>157.914063</ele>
        <time>2017-03-28T14:35:43Z</time>
      </trkpt>
      <trkpt lat="43.29476" lon="5.63553">
        <ele>153.699219</ele>
        <time>2017-03-28T14:36:16Z</time>
      </trkpt>
      <trkpt lat="43.29486" lon="5.6355">
        <ele>158.898438</ele>
        <time>2017-03-28T14:36:23Z</time>
      </trkpt>
      <trkpt lat="43.29499" lon="5.6355">
        <ele>159.097656</ele>
        <time>2017-03-28T14:36:45Z</time>
      </trkpt>
      <trkpt lat="43.29508" lon="5.63546">
        <ele>160.597656</ele>
        <time>2017-03-28T14:36:57Z</time>
      </trkpt>
      <trkpt lat="43.29517" lon="5.6354">
        <ele>161.5</ele>
        <time>2017-03-28T14:37:07Z</time>
      </trkpt>
      <trkpt lat="43.29526" lon="5.63534">
        <ele>165.5</ele>
        <time>2017-03-28T14:37:16Z</time>
      </trkpt>
      <trkpt lat="43.29534" lon="5.63527">
        <ele>167.398438</ele>
        <time>2017-03-28T14:37:27Z</time>
      </trkpt>
      <trkpt lat="43.29548" lon="5.6351">
        <ele>177.796875</ele>
        <time>2017-03-28T14:37:47Z</time>
      </trkpt>
      <trkpt lat="43.29555" lon="5.63501">
        <ele>179.796875</ele>
        <time>2017-03-28T14:37:58Z</time>
      </trkpt>
      <trkpt lat="43.29568" lon="5.63483">
        <ele>175.296875</ele>
        <time>2017-03-28T14:38:16Z</time>
      </trkpt>
      <trkpt lat="43.29577" lon="5.63477">
        <ele>171.5</ele>
        <time>2017-03-28T14:38:25Z</time>
      </trkpt>
      <trkpt lat="43.29586" lon="5.63471">
        <ele>171</ele>
        <time>2017-03-28T14:38:34Z</time>
      </trkpt>
      <trkpt lat="43.29593" lon="5.63463">
        <ele>171.199219</ele>
        <time>2017-03-28T14:38:43Z</time>
      </trkpt>
      <trkpt lat="43.296" lon="5.63455">
        <ele>167.398438</ele>
        <time>2017-03-28T14:38:51Z</time>
      </trkpt>
      <trkpt lat="43.29607" lon="5.63446">
        <ele>169.296875</ele>
        <time>2017-03-28T14:39:00Z</time>
      </trkpt>
      <trkpt lat="43.29611" lon="5.63434">
        <ele>171.5</ele>
        <time>2017-03-28T14:39:10Z</time>
      </trkpt>
      <trkpt lat="43.29616" lon="5.63424">
        <ele>174.597656</ele>
        <time>2017-03-28T14:39:20Z</time>
      </trkpt>
      <trkpt lat="43.29621" lon="5.63414">
        <ele>174.398438</ele>
        <time>2017-03-28T14:39:32Z</time>
      </trkpt>
      <trkpt lat="43.29618" lon="5.634">
        <ele>169.199219</ele>
        <time>2017-03-28T14:39:45Z</time>
      </trkpt>
      <trkpt lat="43.29616" lon="5.63387">
        <ele>162.597656</ele>
        <time>2017-03-28T14:39:54Z</time>
      </trkpt>
      <trkpt lat="43.29613" lon="5.63374">
        <ele>156.097656</ele>
        <time>2017-03-28T14:40:01Z</time>
      </trkpt>
      <trkpt lat="43.2961" lon="5.63361">
        <ele>149.097656</ele>
        <time>2017-03-28T14:40:08Z</time>
      </trkpt>
      <trkpt lat="43.29609" lon="5.63348">
        <ele>145.296875</ele>
        <time>2017-03-28T14:40:16Z</time>
      </trkpt>
      <trkpt lat="43.29611" lon="5.63334">
        <ele>147.097656</ele>
        <time>2017-03-28T14:40:24Z</time>
      </trkpt>
      <trkpt lat="43.29612" lon="5.63322">
        <ele>153.199219</ele>
        <time>2017-03-28T14:40:34Z</time>
      </trkpt>
      <trkpt lat="43.29619" lon="5.63312">
        <ele>154.296875</ele>
        <time>2017-03-28T14:40:43Z</time>
      </trkpt>
      <trkpt lat="43.2963" lon="5.63289">
        <ele>136.398438</ele>
        <time>2017-03-28T14:41:05Z</time>
      </trkpt>
      <trkpt lat="43.2964" lon="5.63284">
        <ele>135.398438</ele>
        <time>2017-03-28T14:41:13Z</time>
      </trkpt>
      <trkpt lat="43.29649" lon="5.63281">
        <ele>134.097656</ele>
        <time>2017-03-28T14:41:19Z</time>
      </trkpt>
      <trkpt lat="43.29657" lon="5.63274">
        <ele>132.597656</ele>
        <time>2017-03-28T14:41:26Z</time>
      </trkpt>
      <trkpt lat="43.29666" lon="5.63266">
        <ele>132.5</ele>
        <time>2017-03-28T14:41:35Z</time>
      </trkpt>
      <trkpt lat="43.29676" lon="5.63264">
        <ele>133</ele>
        <time>2017-03-28T14:41:41Z</time>
      </trkpt>
      <trkpt lat="43.29686" lon="5.6326">
        <ele>133</ele>
        <time>2017-03-28T14:41:48Z</time>
      </trkpt>
      <trkpt lat="43.29695" lon="5.63255">
        <ele>131.699219</ele>
        <time>2017-03-28T14:41:54Z</time>
      </trkpt>
      <trkpt lat="43.29702" lon="5.63248">
        <ele>129.398438</ele>
        <time>2017-03-28T14:42:01Z</time>
      </trkpt>
      <trkpt lat="43.2971" lon="5.6324">
        <ele>128.898438</ele>
        <time>2017-03-28T14:42:09Z</time>
      </trkpt>
      <trkpt lat="43.29708" lon="5.63227">
        <ele>132.796875</ele>
        <time>2017-03-28T14:42:17Z</time>
      </trkpt>
      <trkpt lat="43.29703" lon="5.63215">
        <ele>137.796875</ele>
        <time>2017-03-28T14:42:23Z</time>
      </trkpt>
      <trkpt lat="43.29702" lon="5.63202">
        <ele>140.398438</ele>
        <time>2017-03-28T14:42:30Z</time>
      </trkpt>
      <trkpt lat="43.29703" lon="5.6319">
        <ele>145</ele>
        <time>2017-03-28T14:42:38Z</time>
      </trkpt>
      <trkpt lat="43.2971" lon="5.63182">
        <ele>150.398438</ele>
        <time>2017-03-28T14:42:50Z</time>
      </trkpt>
      <trkpt lat="43.29719" lon="5.63179">
        <ele>150.898438</ele>
        <time>2017-03-28T14:42:58Z</time>
      </trkpt>
      <trkpt lat="43.29725" lon="5.63169">
        <ele>151.398438</ele>
        <time>2017-03-28T14:43:07Z</time>
      </trkpt>
      <trkpt lat="43.29732" lon="5.6316">
        <ele>151.699219</ele>
        <time>2017-03-28T14:43:17Z</time>
      </trkpt>
      <trkpt lat="43.2974" lon="5.63152">
        <ele>153.398438</ele>
        <time>2017-03-28T14:43:26Z</time>
      </trkpt>
      <trkpt lat="43.29741" lon="5.63139">
        <ele>157.398438</ele>
        <time>2017-03-28T14:43:39Z</time>
      </trkpt>
      <trkpt lat="43.29738" lon="5.63127">
        <ele>158</ele>
        <time>2017-03-28T14:43:50Z</time>
      </trkpt>
      <trkpt lat="43.29731" lon="5.63118">
        <ele>155.097656</ele>
        <time>2017-03-28T14:44:04Z</time>
      </trkpt>
      <trkpt lat="43.29723" lon="5.6311">
        <ele>154.714844</ele>
        <time>2017-03-28T14:44:11Z</time>
      </trkpt>
      <trkpt lat="43.29722" lon="5.63098">
        <ele>157.699219</ele>
        <time>2017-03-28T14:44:39Z</time>
      </trkpt>
      <trkpt lat="43.29717" lon="5.63082">
        <ele>159.296875</ele>
        <time>2017-03-28T14:44:40Z</time>
      </trkpt>
      <trkpt lat="43.29713" lon="5.6307">
        <ele>155.097656</ele>
        <time>2017-03-28T14:44:47Z</time>
      </trkpt>
      <trkpt lat="43.29706" lon="5.63061">
        <ele>148.796875</ele>
        <time>2017-03-28T14:44:55Z</time>
      </trkpt>
      <trkpt lat="43.29705" lon="5.63049">
        <ele>142.296875</ele>
        <time>2017-03-28T14:45:01Z</time>
      </trkpt>
      <trkpt lat="43.29703" lon="5.63035">
        <ele>138.296875</ele>
        <time>2017-03-28T14:45:08Z</time>
      </trkpt>
      <trkpt lat="43.29706" lon="5.63021">
        <ele>138.097656</ele>
        <time>2017-03-28T14:45:15Z</time>
      </trkpt>
      <trkpt lat="43.2971" lon="5.63009">
        <ele>138.398438</ele>
        <time>2017-03-28T14:45:22Z</time>
      </trkpt>
      <trkpt lat="43.29722" lon="5.62974">
        <ele>139.898438</ele>
        <time>2017-03-28T14:45:47Z</time>
      </trkpt>
      <trkpt lat="43.2972" lon="5.62923">
        <ele>147.117188</ele>
        <time>2017-03-28T14:47:48Z</time>
      </trkpt>
      <trkpt lat="43.29722" lon="5.6292">
        <ele>151.539063</ele>
        <time>2017-03-28T14:48:28Z</time>
      </trkpt>
    </trkseg>
  </trk>
</gpx>